Provisional Data: Meshoppen Creek near Kaiserville, PA


Please select a monitoring station.
Please select start date.
Please select start date.

Toggle Unit: C/F Toggle Unit: C/F
Sample Time Temperature (C) Temperature (F) Specific Conductivity (mS/cm) pH   Turbidity (NTU+) DO (mg/L)
10/20/2020 12:00:00 AM 11.23 52.214 0.168 7.46 2.14 9.73
10/20/2020 12:15:00 AM 11.25 52.25 0.168 7.47 2.14 9.73
10/20/2020 12:30:00 AM 11.24 52.232 0.168 7.47 2.15 9.73
10/20/2020 12:45:00 AM 11.24 52.232 0.168 7.46 2.14 9.71
10/20/2020 1:00:00 AM 11.25 52.25 0.168 7.46 2.13 9.71
10/20/2020 1:15:00 AM 11.26 52.268 0.168 7.47 2.12 9.7
10/20/2020 1:30:00 AM 11.28 52.304 0.168 7.47 2.15 9.7
10/20/2020 1:45:00 AM 11.3 52.34 0.168 7.47 2.1 9.7
10/20/2020 2:00:00 AM 11.33 52.394 0.168 7.47 2.14 9.71
10/20/2020 2:15:00 AM 11.34 52.412 0.168 7.47 2.11 9.7
10/20/2020 2:30:00 AM 11.36 52.448 0.168 7.47 2.09 9.68
10/20/2020 2:45:00 AM 11.37 52.466 0.168 7.48 2.12 9.68
10/20/2020 3:00:00 AM 11.38 52.484 0.168 7.48 2.18 9.69
10/20/2020 3:15:00 AM 11.4 52.52 0.168 7.47 2.2 9.66
10/20/2020 3:30:00 AM 11.41 52.538 0.168 7.48 2.15 9.68
10/20/2020 3:45:00 AM 11.43 52.574 0.168 7.48 2.18 9.66
10/20/2020 4:00:00 AM 11.46 52.628 0.168 7.48 2.09 9.66
10/20/2020 4:15:00 AM 11.48 52.664 0.168 7.47 2.11 9.62
10/20/2020 4:30:00 AM 11.51 52.718 0.168 7.47 2.09 9.6
10/20/2020 4:45:00 AM 11.52 52.736 0.168 7.46 2.09 9.59
10/20/2020 5:00:00 AM 11.53 52.754 0.168 7.46 2.13 9.58
10/20/2020 5:15:00 AM 11.54 52.772 0.168 7.47 2.1 9.59
10/20/2020 5:30:00 AM 11.55 52.79 0.168 7.46 2.01 9.58
10/20/2020 5:45:00 AM 11.58 52.844 0.168 7.46 2.07 9.53
10/20/2020 6:00:00 AM 11.59 52.862 0.168 7.46 2.17 9.53
10/20/2020 6:15:00 AM 11.61 52.898 0.168 7.46 2.15 9.53
10/20/2020 6:30:00 AM 11.62 52.916 0.168 7.46 2.18 9.54
10/20/2020 6:45:00 AM 11.64 52.952 0.168 7.46 2.14 9.52
10/20/2020 7:00:00 AM 11.63 52.934 0.168 7.46 2.16 9.52
10/20/2020 7:15:00 AM 11.64 52.952 0.168 7.46 2.11 9.52
10/20/2020 7:30:00 AM 11.63 52.934 0.168 7.46 2.16 9.52
10/20/2020 7:45:00 AM 11.63 52.934 0.168 7.46 2.15 9.52
10/20/2020 8:00:00 AM 11.64 52.952 0.168 7.46 2.13 9.53
10/20/2020 8:15:00 AM 11.67 53.006 0.168 7.46 2.11 9.58
10/20/2020 8:30:00 AM 11.71 53.078 0.168 7.48 2.11 9.64
10/20/2020 8:45:00 AM 11.76 53.168 0.168 7.49 2.14 9.71
10/20/2020 9:00:00 AM 11.79 53.222 0.168 7.5 2.11 9.79
10/20/2020 9:15:00 AM 11.83 53.294 0.168 7.51 2.15 9.8
10/20/2020 9:30:00 AM 11.86 53.348 0.168 7.52 2.1 9.89
10/20/2020 9:45:00 AM 11.92 53.456 0.168 7.54 2.13 9.98
10/20/2020 10:00:00 AM 11.97 53.546 0.168 7.56 2.15 10.06
10/20/2020 10:15:00 AM 12.01 53.618 0.168 7.57 2.12 10.13
10/20/2020 10:30:00 AM 12.05 53.69 0.168 7.59 2.17 10.18
10/20/2020 10:45:00 AM 12.09 53.762 0.168 7.6 2.12 10.18
10/20/2020 11:00:00 AM 12.16 53.888 0.167 7.62 2.12 10.22
10/20/2020 11:15:00 AM 12.22 53.996 0.167 7.63 2.06 10.31
10/20/2020 11:30:00 AM 12.36 54.248 0.167 7.65 2.07 10.4
10/20/2020 11:45:00 AM 12.52 54.536 0.167 7.67 2.05 10.46
10/20/2020 12:00:00 PM 12.58 54.644 0.167 7.69 2.05 10.52
10/20/2020 12:15:00 PM 12.69 54.842 0.167 7.71 2 10.59
10/20/2020 12:30:00 PM 12.77 54.986 0.167 7.73 2.06 10.6
10/20/2020 12:45:00 PM 12.86 55.148 0.166 7.76 2.06 10.67
10/20/2020 1:00:00 PM 12.96 55.328 0.166 7.78 2.1 10.69
10/20/2020 1:15:00 PM 13.04 55.472 0.166 7.81 2.01 10.73
10/20/2020 1:30:00 PM 13.12 55.616 0.166 7.82 2.02 10.71
10/20/2020 1:45:00 PM 13.17 55.706 0.166 7.83 2.01 10.66
10/20/2020 2:00:00 PM 13.2 55.76 0.166 7.83 1.99 10.62
10/20/2020 2:15:00 PM 13.24 55.832 0.166 7.82 2.03 10.54
10/20/2020 2:30:00 PM 13.35 56.03 0.166 7.83 1.97 10.49
10/20/2020 2:45:00 PM 13.47 56.246 0.166 7.84 2 10.48
10/20/2020 3:00:00 PM 13.57 56.426 0.166 7.87 2.08 10.56
10/20/2020 3:15:00 PM 13.65 56.57 0.166 7.86 2.04 10.53
10/20/2020 3:30:00 PM 13.71 56.678 0.166 7.88 2.06 10.54
10/20/2020 3:45:00 PM 13.74 56.732 0.166 7.86 2.04 10.46
10/20/2020 4:00:00 PM 13.76 56.768 0.166 7.84 2.02 10.39
10/20/2020 4:15:00 PM 13.79 56.822 0.166 7.84 2 10.32
10/20/2020 4:30:00 PM 13.78 56.804 0.166 7.82 2.03 10.25
10/20/2020 4:45:00 PM 13.8 56.84 0.166 7.81 2.05 10.2
10/20/2020 5:00:00 PM 13.8 56.84 0.166 7.79 2.04 10.09
10/20/2020 5:15:00 PM 13.81 56.858 0.166 7.77 2 10.02
10/20/2020 5:30:00 PM 13.8 56.84 0.166 7.76 2.02 9.94
10/20/2020 5:45:00 PM 13.8 56.84 0.167 7.73 2.03 9.86
10/20/2020 6:00:00 PM 13.79 56.822 0.167 7.72 2.03 9.8
10/20/2020 6:15:00 PM 13.77 56.786 0.167 7.7 2.05 9.69
10/20/2020 6:30:00 PM 13.75 56.75 0.167 7.67 1.98 9.6
10/20/2020 6:45:00 PM 13.74 56.732 0.167 7.64 2.06 9.47
10/20/2020 7:00:00 PM 13.72 56.696 0.167 7.62 2.1 9.44
10/20/2020 7:15:00 PM 13.69 56.642 0.168 7.6 2.12 9.38
10/20/2020 7:30:00 PM 13.66 56.588 0.168 7.58 2.09 9.33
10/20/2020 7:45:00 PM 13.62 56.516 0.168 7.57 2.09 9.3
10/20/2020 8:00:00 PM 13.58 56.444 0.168 7.56 2.14 9.26
10/20/2020 8:15:00 PM 13.55 56.39 0.168 7.54 2.17 9.23
10/20/2020 8:30:00 PM 13.5 56.3 0.168 7.53 2.13 9.22
10/20/2020 8:45:00 PM 13.46 56.228 0.168 7.52 2.15 9.21
10/20/2020 9:00:00 PM 13.42 56.156 0.168 7.52 2.12 9.2
10/20/2020 9:15:00 PM 13.38 56.084 0.168 7.51 2.14 9.18
10/20/2020 9:30:00 PM 13.35 56.03 0.168 7.5 2.13 9.17
10/20/2020 9:45:00 PM 13.31 55.958 0.168 7.49 2.12 9.17
10/20/2020 10:00:00 PM 13.27 55.886 0.168 7.49 2.14 9.18
10/20/2020 10:15:00 PM 13.23 55.814 0.168 7.48 2.13 9.17
10/20/2020 10:30:00 PM 13.2 55.76 0.168 7.48 2.16 9.16
10/20/2020 10:45:00 PM 13.17 55.706 0.168 7.47 2.12 9.16
10/20/2020 11:00:00 PM 13.14 55.652 0.168 7.47 2.13 9.16
10/20/2020 11:15:00 PM 13.11 55.598 0.168 7.47 2.18 9.17
10/20/2020 11:30:00 PM 13.07 55.526 0.168 7.46 2.15 9.18
10/20/2020 11:45:00 PM 13.04 55.472 0.168 7.46 2.17 9.18
10/21/2020 12:00:00 AM 13.02 55.436 0.168 7.46 2.12 9.19
10/21/2020 12:15:00 AM 12.98 55.364 0.168 7.46 2.22 9.19
10/21/2020 12:30:00 AM 12.96 55.328 0.168 7.46 2.15 9.2
10/21/2020 12:45:00 AM 12.93 55.274 0.168 7.46 2.17 9.2
10/21/2020 1:00:00 AM 12.91 55.238 0.168 7.45 2.17 9.19
10/21/2020 1:15:00 AM 12.88 55.184 0.168 7.45 2.13 9.2
10/21/2020 1:30:00 AM 12.85 55.13 0.168 7.45 2.14 9.2
10/21/2020 1:45:00 AM 12.83 55.094 0.168 7.45 2.14 9.22
10/21/2020 2:00:00 AM 12.81 55.058 0.168 7.45 2.16 9.22
10/21/2020 2:15:00 AM 12.79 55.022 0.168 7.45 2.1 9.22
10/21/2020 2:30:00 AM 12.77 54.986 0.168 7.45 2.17 9.24
10/21/2020 2:45:00 AM 12.76 54.968 0.168 7.45 2.16 9.23
10/21/2020 3:00:00 AM 12.73 54.914 0.168 7.45 2.13 9.25
10/21/2020 3:15:00 AM 12.72 54.896 0.168 7.45 2.13 9.24
10/21/2020 3:30:00 AM 12.7 54.86 0.168 7.45 2.12 9.24
10/21/2020 3:45:00 AM 12.68 54.824 0.168 7.45 2.11 9.25
10/21/2020 4:00:00 AM 12.66 54.788 0.168 7.45 2.08 9.26
10/21/2020 4:15:00 AM 12.65 54.77 0.168 7.45 2.17 9.28
10/21/2020 4:30:00 AM 12.64 54.752 0.168 7.45 2.14 9.29
10/21/2020 4:45:00 AM 12.62 54.716 0.169 7.45 2.15 9.28
10/21/2020 5:00:00 AM 12.61 54.698 0.169 7.46 2.11 9.3
10/21/2020 5:15:00 AM 12.6 54.68 0.169 7.45 2.21 9.31
10/21/2020 5:30:00 AM 12.6 54.68 0.169 7.46 2.18 9.3
10/21/2020 5:45:00 AM 12.6 54.68 0.169 7.46 2.18 9.32
10/21/2020 6:00:00 AM 12.59 54.662 0.169 7.46 2.1 9.31
10/21/2020 6:15:00 AM 12.59 54.662 0.169 7.46 2.14 9.34
10/21/2020 6:30:00 AM 12.58 54.644 0.169 7.46 2.14 9.35
10/21/2020 6:45:00 AM 12.58 54.644 0.169 7.46 2.16 9.35
10/21/2020 7:00:00 AM 12.57 54.626 0.169 7.46 2.16 9.35
10/21/2020 7:15:00 AM 12.58 54.644 0.169 7.47 2.18 9.36
10/21/2020 7:30:00 AM 12.58 54.644 0.169 7.47 2.13 9.37
10/21/2020 7:45:00 AM 12.57 54.626 0.169 7.47 2.14 9.38
10/21/2020 8:00:00 AM 12.57 54.626 0.169 7.47 2.16 9.4
10/21/2020 8:15:00 AM 12.58 54.644 0.169 7.48 2.16 9.45
10/21/2020 8:30:00 AM 12.58 54.644 0.169 7.48 2.14 9.5
10/21/2020 8:45:00 AM 12.59 54.662 0.169 7.49 2.13 9.55
10/21/2020 9:00:00 AM 12.61 54.698 0.169 7.5 2.16 9.62
10/21/2020 9:15:00 AM 12.66 54.788 0.169 7.52 2.12 9.72
10/21/2020 9:30:00 AM 12.7 54.86 0.169 7.54 2.16 9.81
10/21/2020 9:45:00 AM 12.76 54.968 0.169 7.56 2.12 9.91
10/21/2020 10:00:00 AM 12.9 55.22 0.168 7.59 2.13 10
10/21/2020 10:15:00 AM 13.14 55.652 0.168 7.62 2.08 10.1
10/21/2020 10:30:00 AM 13.32 55.976 0.168 7.64 2.1 10.17
10/21/2020 10:45:00 AM 13.39 56.102 0.168 7.66 2.13 10.26
10/21/2020 11:00:00 AM 13.45 56.21 0.168 7.68 2.11 10.33
10/21/2020 11:15:00 AM 13.6 56.48 0.168 7.7 2.07 10.38
10/21/2020 11:30:00 AM 13.74 56.732 0.167 7.73 2.03 10.45
10/21/2020 11:45:00 AM 13.87 56.966 0.167 7.74 2.08 10.44
10/21/2020 12:00:00 PM 14 57.2 0.167 7.74 2 10.39
10/21/2020 12:15:00 PM 14.18 57.524 0.167 7.76 2 10.43
10/21/2020 12:30:00 PM 14.35 57.83 0.167 7.8 2 10.48
10/21/2020 12:45:00 PM 14.44 57.992 0.167 7.76 2 10.41
10/21/2020 1:00:00 PM 14.55 58.19 0.167 7.83 1.97 10.47
10/21/2020 1:15:00 PM 14.73 58.514 0.167 7.84 2.04 10.4
10/21/2020 1:30:00 PM 14.86 58.748 0.167 7.81 1.96 10.24
10/21/2020 1:45:00 PM 15.17 59.306 0.167 7.86 2.02 10.21
10/21/2020 2:00:00 PM 15.42 59.756 0.166 7.9 2 10.21
10/21/2020 2:15:00 PM 15.57 60.026 0.166 7.88 1.98 10.05
10/21/2020 2:30:00 PM 15.75 60.35 0.166 7.92 2.01 10.05
10/21/2020 2:45:00 PM 15.92 60.656 0.166 7.92 2.01 9.95
10/21/2020 3:00:00 PM 16.02 60.836 0.167 7.9 2 9.89
10/21/2020 3:15:00 PM 16.19 61.142 0.167 7.88 1.95 9.75
10/21/2020 3:30:00 PM 16.36 61.448 0.167 7.86 1.93 9.68
10/21/2020 3:45:00 PM 16.52 61.736 0.167 7.91 2 9.68
10/21/2020 4:00:00 PM 16.69 62.042 0.167 7.9 1.96 9.64
10/21/2020 4:15:00 PM 16.8 62.24 0.167 7.89 1.99 9.61
10/21/2020 4:30:00 PM 16.87 62.366 0.167 7.87 2.04 9.52
10/21/2020 4:45:00 PM 16.96 62.528 0.167 7.86 1.93 9.39
10/21/2020 5:00:00 PM 16.99 62.582 0.167 7.82 1.97 9.35
10/21/2020 5:15:00 PM 16.99 62.582 0.167 7.76 1.99 9.2
10/21/2020 5:30:00 PM 17.01 62.618 0.167 7.73 1.96 9.01
10/21/2020 5:45:00 PM 16.99 62.582 0.168 7.68 1.98 8.75
10/21/2020 6:00:00 PM 16.95 62.51 0.168 7.7 2.02 8.77
10/21/2020 6:15:00 PM 16.89 62.402 0.168 7.69 2 8.73
10/21/2020 6:30:00 PM 16.79 62.222 0.168 7.67 2.02 8.73
10/21/2020 6:45:00 PM 16.69 62.042 0.169 7.65 2.03 8.71
10/21/2020 7:00:00 PM 16.59 61.862 0.169 7.61 2.01 8.6
10/21/2020 7:15:00 PM 16.48 61.664 0.169 7.58 2.03 8.55
10/21/2020 7:30:00 PM 16.39 61.502 0.169 7.56 2.07 8.48
10/21/2020 7:45:00 PM 16.31 61.358 0.169 7.53 2.03 8.42
10/21/2020 8:00:00 PM 16.25 61.25 0.17 7.51 2.01 8.38
10/21/2020 8:15:00 PM 16.17 61.106 0.17 7.49 2.07 8.3
10/21/2020 8:30:00 PM 16.1 60.98 0.17 7.47 2.01 8.26
10/21/2020 8:45:00 PM 16.02 60.836 0.17 7.45 2.04 8.27
10/21/2020 9:00:00 PM 15.94 60.692 0.17 7.44 2.05 8.26
10/21/2020 9:15:00 PM 15.87 60.566 0.17 7.42 2.13 8.23
10/21/2020 9:30:00 PM 15.82 60.476 0.17 7.42 2.07 8.25
10/21/2020 9:45:00 PM 15.77 60.386 0.17 7.41 2.03 8.24
10/21/2020 10:00:00 PM 15.72 60.296 0.17 7.4 2.11 8.24
10/21/2020 10:15:00 PM 15.67 60.206 0.17 7.39 2.07 8.22
10/21/2020 10:30:00 PM 15.61 60.098 0.17 7.38 2.06 8.23
10/21/2020 10:45:00 PM 15.53 59.954 0.17 7.38 2.04 8.27
10/21/2020 11:00:00 PM 15.45 59.81 0.17 7.38 2.04 8.28
10/21/2020 11:15:00 PM 15.37 59.666 0.17 7.37 2.11 8.3
10/21/2020 11:30:00 PM 15.3 59.54 0.17 7.37 2.69 8.33
10/21/2020 11:45:00 PM 15.24 59.432 0.17 7.37 2.11 8.33
10/22/2020 12:00:00 AM 15.19 59.342 0.17 7.37 2.11 8.34
10/22/2020 12:15:00 AM 15.14 59.252 0.17 7.37 2.1 8.35
10/22/2020 12:30:00 AM 15.1 59.18 0.17 7.37 2.31 8.38
10/22/2020 12:45:00 AM 15.06 59.108 0.17 7.37 2.1 8.38
10/22/2020 1:00:00 AM 15.03 59.054 0.17 7.38 2.1 8.43
10/22/2020 1:15:00 AM 14.99 58.982 0.17 7.38 2.16 8.43
10/22/2020 1:30:00 AM 14.96 58.928 0.17 7.38 2.2 8.45
10/22/2020 1:45:00 AM 14.9 58.82 0.17 7.38 2.13 8.5
10/22/2020 2:00:00 AM 14.84 58.712 0.17 7.38 2.35 8.5
10/22/2020 2:15:00 AM 14.79 58.622 0.17 7.37 2.11 8.5
10/22/2020 2:30:00 AM 14.75 58.55 0.17 7.38 2.19 8.53
10/22/2020 2:45:00 AM 14.72 58.496 0.17 7.38 2.2 8.55
10/22/2020 3:00:00 AM 14.69 58.442 0.17 7.38 2.11 8.55
10/22/2020 3:15:00 AM 14.67 58.406 0.17 7.38 2.13 8.55
10/22/2020 3:30:00 AM 14.64 58.352 0.17 7.38 2.1 8.54
10/22/2020 3:45:00 AM 14.62 58.316 0.17 7.38 2.16 8.58
10/22/2020 4:00:00 AM 14.59 58.262 0.17 7.38 2.12 8.59
10/22/2020 4:15:00 AM 14.58 58.244 0.17 7.38 2.16 8.6
10/22/2020 4:30:00 AM 14.56 58.208 0.17 7.38 2.17 8.6
10/22/2020 4:45:00 AM 14.55 58.19 0.17 7.38 2.12 8.61
10/22/2020 5:00:00 AM 14.54 58.172 0.17 7.39 2.11 8.62
10/22/2020 5:15:00 AM 14.53 58.154 0.17 7.38 2.17 8.63
10/22/2020 5:30:00 AM 14.52 58.136 0.17 7.36 2.07 8.46
10/22/2020 5:45:00 AM 14.48 58.064 0.17 7.37 2.09 8.61
10/22/2020 6:00:00 AM 14.43 57.974 0.17 7.37 2.17 8.65
10/22/2020 6:15:00 AM 14.38 57.884 0.17 7.37 2.15 8.66
10/22/2020 6:30:00 AM 14.37 57.866 0.17 7.38 2.18 8.68
10/22/2020 6:45:00 AM 14.37 57.866 0.17 7.39 2.12 8.69
10/22/2020 7:00:00 AM 14.37 57.866 0.17 7.39 2.15 8.69
10/22/2020 7:15:00 AM 14.37 57.866 0.17 7.39 2.17 8.7
10/22/2020 7:30:00 AM 14.37 57.866 0.17 7.39 2.24 8.7
10/22/2020 7:45:00 AM 14.36 57.848 0.17 7.39 2.13 8.7
10/22/2020 8:00:00 AM 14.35 57.83 0.17 7.39 2.2 8.73
10/22/2020 8:15:00 AM 14.35 57.83 0.17 7.4 2.19 8.76
10/22/2020 8:30:00 AM 14.36 57.848 0.17 7.4 2.2 8.81
10/22/2020 8:45:00 AM 14.38 57.884 0.17 7.41 2.09 8.85
10/22/2020 9:00:00 AM 14.41 57.938 0.17 7.43 2.13 8.94
10/22/2020 9:15:00 AM 14.44 57.992 0.17 7.44 2.12 9.06
10/22/2020 9:30:00 AM 14.45 58.01 0.17 7.46 2.15 9.12
10/22/2020 9:45:00 AM 14.48 58.064 0.17 7.47 2.14 9.18
10/22/2020 10:00:00 AM 14.52 58.136 0.17 7.49 2.15 9.23
10/22/2020 10:15:00 AM 14.56 58.208 0.17 7.5 2.13 9.32
10/22/2020 10:30:00 AM 14.62 58.316 0.17 7.52 2.06 9.4
10/22/2020 10:45:00 AM 14.72 58.496 0.17 7.55 2.14 9.54
10/22/2020 11:00:00 AM 14.85 58.73 0.169 7.6 2.05 9.66
10/22/2020 11:15:00 AM 15.04 59.072 0.169 7.63 2.08 9.79
10/22/2020 11:30:00 AM 15.2 59.36 0.169 7.66 2.09 9.92
10/22/2020 11:45:00 AM 15.29 59.522 0.169 7.68 2.07 10.03
10/22/2020 12:00:00 PM 15.38 59.684 0.168 7.73 2.06 10.06
10/22/2020 12:15:00 PM 15.47 59.846 0.168 7.74 2.06 10.07
10/22/2020 12:30:00 PM 15.57 60.026 0.168 7.76 2.08 10.05
10/22/2020 12:45:00 PM 15.71 60.278 0.168 7.79 2.1 10.06
10/22/2020 1:00:00 PM 15.82 60.476 0.168 7.79 2.07 10.02
10/22/2020 1:15:00 PM 15.96 60.728 0.168 7.81 2.06 10.01
10/22/2020 1:30:00 PM 16.13 61.034 0.168 7.85 2.05 10.01
10/22/2020 1:45:00 PM 16.35 61.43 0.167 7.88 2.01 9.98
10/22/2020 2:00:00 PM 16.56 61.808 0.167 7.88 1.97 9.95
10/22/2020 2:15:00 PM 16.78 62.204 0.167 7.89 1.99 9.93
10/22/2020 2:30:00 PM 16.96 62.528 0.167 7.92 2.07 9.88
10/22/2020 2:45:00 PM 17.12 62.816 0.167 7.94 2.07 9.82
10/22/2020 3:00:00 PM 17.27 63.086 0.167 7.93 2.01 9.7
10/22/2020 3:15:00 PM 17.37 63.266 0.167 7.91 1.97 9.59
10/22/2020 3:30:00 PM 17.47 63.446 0.167 7.91 2 9.52
10/22/2020 3:45:00 PM 17.59 63.662 0.167 7.9 2.06 9.43
10/22/2020 4:00:00 PM 17.71 63.878 0.167 7.9 2.04 9.34
10/22/2020 4:15:00 PM 17.8 64.04 0.168 7.9 1.97 9.28
10/22/2020 4:30:00 PM 17.9 64.22 0.168 7.92 1.98 9.25
10/22/2020 4:45:00 PM 17.96 64.328 0.168 7.91 2.03 9.2
10/22/2020 5:00:00 PM 18 64.4 0.168 7.88 2.07 9.1
10/22/2020 5:15:00 PM 18.01 64.418 0.168 7.83 2.01 8.95
10/22/2020 5:30:00 PM 18 64.4 0.168 7.82 2.02 8.88
10/22/2020 5:45:00 PM 17.97 64.346 0.168 7.78 1.99 8.77
10/22/2020 6:00:00 PM 17.92 64.256 0.169 7.76 2 8.71
10/22/2020 6:15:00 PM 17.85 64.13 0.169 7.72 1.96 8.63
10/22/2020 6:30:00 PM 17.75 63.95 0.169 7.67 2 8.54
10/22/2020 6:45:00 PM 17.64 63.752 0.169 7.64 2.02 8.48
10/22/2020 7:00:00 PM 17.52 63.536 0.169 7.6 2.08 8.41
10/22/2020 7:15:00 PM 17.38 63.284 0.17 7.58 2.33 8.41
10/22/2020 7:30:00 PM 17.25 63.05 0.17 7.56 2.16 8.42
10/22/2020 7:45:00 PM 17.13 62.834 0.17 7.53 2.14 8.4
10/22/2020 8:00:00 PM 17.02 62.636 0.17 7.51 2.09 8.38
10/22/2020 8:15:00 PM 16.93 62.474 0.17 7.5 2.12 8.38
10/22/2020 8:30:00 PM 16.84 62.312 0.17 7.49 2.08 8.39
10/22/2020 8:45:00 PM 16.75 62.15 0.17 7.49 2.15 8.4
10/22/2020 9:00:00 PM 16.66 61.988 0.17 7.48 2.15 8.4
10/22/2020 9:15:00 PM 16.57 61.826 0.17 7.47 2.09 8.41
10/22/2020 9:30:00 PM 16.49 61.682 0.17 7.47 2.18 8.42
10/22/2020 9:45:00 PM 16.4 61.52 0.17 7.47 2.24 8.45
10/22/2020 10:00:00 PM 16.32 61.376 0.17 7.46 2.16 8.46
10/22/2020 10:15:00 PM 16.23 61.214 0.17 7.46 2.1 8.48
10/22/2020 10:30:00 PM 16.14 61.052 0.17 7.46 2.1 8.5
10/22/2020 10:45:00 PM 16.05 60.89 0.17 7.45 2.11 8.51
10/22/2020 11:00:00 PM 15.96 60.728 0.17 7.45 2.14 8.5
10/22/2020 11:15:00 PM 15.89 60.602 0.169 7.45 2.1 8.52
10/22/2020 11:30:00 PM 15.82 60.476 0.169 7.44 2.09 8.54
10/22/2020 11:45:00 PM 15.75 60.35 0.169 7.44 2.09 8.55
10/23/2020 12:00:00 AM 15.68 60.224 0.169 7.45 2.11 8.58
10/23/2020 12:15:00 AM 15.61 60.098 0.169 7.45 2.08 8.59
10/23/2020 12:30:00 AM 15.56 60.008 0.169 7.45 2.13 8.6
10/23/2020 12:45:00 AM 15.52 59.936 0.169 7.45 2.1 8.57
10/23/2020 1:00:00 AM 15.47 59.846 0.169 7.45 2.11 8.6
10/23/2020 1:15:00 AM 15.44 59.792 0.169 7.45 2.09 8.62
10/23/2020 1:30:00 AM 15.4 59.72 0.169 7.46 2.14 8.63
10/23/2020 1:45:00 AM 15.38 59.684 0.169 7.45 2.11 8.63
10/23/2020 2:00:00 AM 15.36 59.648 0.169 7.46 2.1 8.63
10/23/2020 2:15:00 AM 15.32 59.576 0.169 7.46 2.11 8.64
10/23/2020 2:30:00 AM 15.28 59.504 0.169 7.46 2.12 8.64
10/23/2020 2:45:00 AM 15.25 59.45 0.169 7.46 2.14 8.65
10/23/2020 3:00:00 AM 15.24 59.432 0.169 7.47 2.11 8.65
10/23/2020 3:15:00 AM 15.21 59.378 0.169 7.46 2.15 8.66
10/23/2020 3:30:00 AM 15.18 59.324 0.169 7.46 2.34 8.67
10/23/2020 3:45:00 AM 15.16 59.288 0.169 7.46 2.27 8.68
10/23/2020 4:00:00 AM 15.13 59.234 0.169 7.46 2.23 8.68
10/23/2020 4:15:00 AM 15.11 59.198 0.169 7.46 2.17 8.68
10/23/2020 4:30:00 AM 15.07 59.126 0.169 7.46 2.23 8.68
10/23/2020 4:45:00 AM 15.03 59.054 0.169 7.46 2.18 8.71
10/23/2020 5:00:00 AM 14.99 58.982 0.169 7.46 2.23 8.71
10/23/2020 5:15:00 AM 14.95 58.91 0.169 7.46 2.18 8.72
10/23/2020 5:30:00 AM 14.9 58.82 0.169 7.45 2.18 8.73
10/23/2020 5:45:00 AM 14.85 58.73 0.169 7.45 2.24 8.74
10/23/2020 6:00:00 AM 14.8 58.64 0.169 7.45 2.23 8.74
10/23/2020 6:15:00 AM 14.75 58.55 0.169 7.44 2.23 8.75
10/23/2020 6:30:00 AM 14.7 58.46 0.169 7.44 2.2 8.76
10/23/2020 6:45:00 AM 14.65 58.37 0.169 7.44 2.21 8.77
10/23/2020 7:00:00 AM 14.59 58.262 0.169 7.43 2.2 8.78
10/23/2020 7:15:00 AM 14.53 58.154 0.169 7.43 2.2 8.78
10/23/2020 7:30:00 AM 14.47 58.046 0.169 7.42 2.18 8.77
10/23/2020 7:45:00 AM 14.42 57.956 0.169 7.42 2.17 8.79
10/23/2020 8:00:00 AM 14.38 57.884 0.169 7.44 2.23 8.88
10/23/2020 8:15:00 AM 14.35 57.83 0.169 7.44 2.22 8.93
10/23/2020 8:30:00 AM 14.32 57.776 0.169 7.45 2.28 8.99
10/23/2020 8:45:00 AM 14.32 57.776 0.169 7.47 2.18 9.1
10/23/2020 9:00:00 AM 14.35 57.83 0.169 7.49 2.19 9.2
10/23/2020 9:15:00 AM 14.46 58.028 0.169 7.53 2.17 9.28
10/23/2020 9:30:00 AM 14.53 58.154 0.169 7.55 2.21 9.4
10/23/2020 9:45:00 AM 14.57 58.226 0.169 7.57 2.2 9.5
10/23/2020 10:00:00 AM 14.76 58.568 0.168 7.61 2.23 9.57
10/23/2020 10:15:00 AM 14.97 58.946 0.168 7.64 2.17 9.67
10/23/2020 10:30:00 AM 15.17 59.306 0.168 7.67 2.2 9.73
10/23/2020 10:45:00 AM 15.22 59.396 0.168 7.67 2.2 9.76
10/23/2020 11:00:00 AM 15.17 59.306 0.168 7.67 2.16 9.78
10/23/2020 11:15:00 AM 15.19 59.342 0.168 7.68 2.17 9.82
10/23/2020 11:30:00 AM 15.29 59.522 0.168 7.7 2.11 9.79
10/23/2020 11:45:00 AM 15.38 59.684 0.167 7.7 2.09 9.78
10/23/2020 12:00:00 PM 15.54 59.972 0.167 7.73 2.11 9.82
10/23/2020 12:15:00 PM 15.71 60.278 0.167 7.75 2.08 9.8
10/23/2020 12:30:00 PM 15.84 60.512 0.167 7.78 2.14 9.78
10/23/2020 12:45:00 PM 16.06 60.908 0.167 7.81 2.07 9.85
10/23/2020 1:00:00 PM 16.23 61.214 0.167 7.82 2.13 9.84
10/23/2020 1:15:00 PM 16.4 61.52 0.167 7.85 2.1 9.84
10/23/2020 1:30:00 PM 16.59 61.862 0.166 7.88 2.04 9.84
10/23/2020 1:45:00 PM 16.85 62.33 0.167 7.88 2.01 9.8
10/23/2020 2:00:00 PM 17.12 62.816 0.166 7.92 2.11 9.78
10/23/2020 2:15:00 PM 17.31 63.158 0.166 7.95 2.06 9.77
10/23/2020 2:30:00 PM 17.42 63.356 0.166 7.96 2.03 9.69
10/23/2020 2:45:00 PM 17.55 63.59 0.166 8 2.11 9.69
10/23/2020 3:00:00 PM 17.75 63.95 0.166 8 2.12 9.56
10/23/2020 3:15:00 PM 17.8 64.04 0.166 8.04 2.1 9.57
10/23/2020 3:30:00 PM 17.9 64.22 0.167 8.02 2.12 9.46
10/23/2020 3:45:00 PM 17.97 64.346 0.167 8.02 2.06 9.42
10/23/2020 4:00:00 PM 18.02 64.436 0.167 8.01 2.05 9.31
10/23/2020 4:15:00 PM 18.04 64.472 0.167 7.98 2.09 9.22
10/23/2020 4:30:00 PM 18.06 64.508 0.167 7.96 2.09 9.2
10/23/2020 4:45:00 PM 18.05 64.49 0.167 7.95 2.13 9.16
10/23/2020 5:00:00 PM 18.01 64.418 0.168 7.91 2.07 9.09
10/23/2020 5:15:00 PM 17.94 64.292 0.168 7.86 2.1 8.98
10/23/2020 5:30:00 PM 17.85 64.13 0.168 7.83 2.11 8.9
10/23/2020 5:45:00 PM 17.74 63.932 0.168 7.77 2.06 8.8
10/23/2020 6:00:00 PM 17.63 63.734 0.168 7.74 2.09 8.72
10/23/2020 6:15:00 PM 17.52 63.536 0.169 7.7 2.1 8.66
10/23/2020 6:30:00 PM 17.41 63.338 0.169 7.67 2.07 8.6
10/23/2020 6:45:00 PM 17.33 63.194 0.169 7.5 2.04 8.09
10/23/2020 7:00:00 PM 17.24 63.032 0.169 7.4 2.05 7.61
10/23/2020 7:15:00 PM 17.11 62.798 0.169 7.51 2.1 8.21
10/23/2020 7:30:00 PM 17.01 62.618 0.169 7.53 2.06 8.3
10/23/2020 7:45:00 PM 16.91 62.438 0.169 7.54 2.11 8.36
10/23/2020 8:00:00 PM 16.82 62.276 0.169 7.53 2.16 8.34
10/23/2020 8:15:00 PM 16.74 62.132 0.169 7.52 2.19 8.34
10/23/2020 8:30:00 PM 16.65 61.97 0.169 7.51 2.16 8.35
10/23/2020 8:45:00 PM 16.61 61.898 0.17 7.43 2.08 7.89
10/23/2020 9:00:00 PM 16.58 61.844 0.17 7.29 2.09 7.24
10/23/2020 9:15:00 PM 16.54 61.772 0.17 7.31 2.09 7.18
10/23/2020 9:30:00 PM 16.5 61.7 0.17 7.28 2.09 7.2
10/23/2020 9:45:00 PM 16.46 61.628 0.17 7.26 2.1 7.05
10/23/2020 10:00:00 PM 16.41 61.538 0.17 7.31 2.07 7.3
10/23/2020 10:15:00 PM 16.38 61.484 0.17 7.27 2.11 7.15
10/23/2020 10:30:00 PM 16.35 61.43 0.17 7.29 2.11 7.33
10/23/2020 10:45:00 PM 16.33 61.394 0.17 7.26 2.1 7.15
10/23/2020 11:00:00 PM 16.29 61.322 0.17 7.27 2.05 7.18
10/23/2020 11:15:00 PM 16.29 61.322 0.17 7.23 2.07 7.05
10/23/2020 11:30:00 PM 16.25 61.25 0.17 7.23 2.05 7.08
10/23/2020 11:45:00 PM 16.22 61.196 0.17 7.24 2.06 7.08
10/24/2020 12:00:00 AM 16.2 61.16 0.17 7.25 2.09 7.05
10/24/2020 12:15:00 AM 16.18 61.124 0.17 7.23 2.06 7.23
10/24/2020 12:30:00 AM 16.13 61.034 0.169 7.32 2.08 7.73
10/24/2020 12:45:00 AM 16.12 61.016 0.17 7.27 2.12 7.24
10/24/2020 1:00:00 AM 16.1 60.98 0.169 7.34 2.12 7.82
10/24/2020 1:15:00 AM 16.1 60.98 0.169 7.31 2.36 7.6
10/24/2020 1:30:00 AM 16.1 60.98 0.169 7.29 2.12 7.58
10/24/2020 1:45:00 AM 16.09 60.962 0.17 7.32 2.18 7.45
10/24/2020 2:00:00 AM 16.08 60.944 0.17 7.32 2.1 7.68
10/24/2020 2:15:00 AM 16.05 60.89 0.17 7.31 2.09 7.66
10/24/2020 2:30:00 AM 15.99 60.782 0.169 7.34 2.08 7.89
10/24/2020 2:45:00 AM 15.93 60.674 0.169 7.33 2.09 7.69
10/24/2020 3:00:00 AM 15.88 60.584 0.17 7.34 2.15 7.79
10/24/2020 3:15:00 AM 15.84 60.512 0.17 7.36 2.15 7.9
10/24/2020 3:30:00 AM 15.81 60.458 0.17 7.37 2.12 7.97
10/24/2020 3:45:00 AM 15.78 60.404 0.17 7.33 2.17 7.74
10/24/2020 4:00:00 AM 15.78 60.404 0.17 7.36 2.16 7.89
10/24/2020 4:15:00 AM 15.77 60.386 0.17 7.33 2.1 7.72
10/24/2020 4:30:00 AM 15.75 60.35 0.17 7.36 2.12 7.86
10/24/2020 4:45:00 AM 15.73 60.314 0.17 7.34 2.16 7.77
10/24/2020 5:00:00 AM 15.65 60.17 0.17 7.28 2.11 7.48
10/24/2020 5:15:00 AM 15.59 60.062 0.17 7.33 2.14 7.64
10/24/2020 5:30:00 AM 15.56 60.008 0.17 7.31 2.12 7.67
10/24/2020 5:45:00 AM 15.53 59.954 0.17 7.29 2.1 7.45
10/24/2020 6:00:00 AM 15.53 59.954 0.17 7.35 2.14 7.94
10/24/2020 6:15:00 AM 15.51 59.918 0.17 7.35 2.16 7.81
10/24/2020 6:30:00 AM 15.48 59.864 0.17 7.32 2.15 7.74
10/24/2020 6:45:00 AM 15.46 59.828 0.171 7.32 2.18 7.63
10/24/2020 7:00:00 AM 15.45 59.81 0.171 7.34 2.08 7.57
10/24/2020 7:15:00 AM 15.42 59.756 0.171 7.28 2.14 7.37
10/24/2020 7:30:00 AM 15.39 59.702 0.171 7.29 2.16 7.6
10/24/2020 7:45:00 AM 15.37 59.666 0.171 7.32 2.14 7.74
10/24/2020 8:00:00 AM 15.36 59.648 0.171 7.32 2.13 7.66
10/24/2020 8:15:00 AM 15.37 59.666 0.171 7.31 2.12 7.61
10/24/2020 8:30:00 AM 15.37 59.666 0.171 7.34 2.15 7.88
10/24/2020 8:45:00 AM 15.31 59.558 0.171 7.3 2.23 7.23
10/24/2020 9:00:00 AM 15.2 59.36 0.171 7.23 2.15 7.34
10/24/2020 9:15:00 AM 15.14 59.252 0.171 7.21 2.14 7.01
10/24/2020 9:30:00 AM 15.04 59.072 0.171 7.25 2.1 7.47
10/24/2020 9:45:00 AM 14.99 58.982 0.171 7.25 2.1 7.31
10/24/2020 10:00:00 AM 14.9 58.82 0.171 7.26 2.11 7.6
10/24/2020 10:15:00 AM 14.85 58.73 0.17 7.29 2.09 7.94
10/24/2020 10:30:00 AM 14.82 58.676 0.17 7.35 2.1 8.2
10/24/2020 10:45:00 AM 14.81 58.658 0.17 7.38 2.1 8.41
10/24/2020 11:00:00 AM 14.83 58.694 0.17 7.38 2.1 8.4
10/24/2020 11:15:00 AM 14.83 58.694 0.17 7.4 2.11 8.66
10/24/2020 11:30:00 AM 14.82 58.676 0.17 7.43 2.16 8.63
10/24/2020 11:45:00 AM 14.82 58.676 0.169 7.47 2.16 9.03
10/24/2020 12:00:00 PM 14.79 58.622 0.169 7.48 2.09 8.99
10/24/2020 12:15:00 PM 14.76 58.568 0.169 7.49 2.14 9.07
10/24/2020 12:30:00 PM 14.79 58.622 0.169 7.56 2.12 9.33
10/24/2020 12:45:00 PM 14.75 58.55 0.169 7.55 2.1 9.39
10/24/2020 1:00:00 PM 14.75 58.55 0.169 7.57 2.16 9.38
10/24/2020 1:15:00 PM 14.73 58.514 0.168 7.59 2.23 9.48
10/24/2020 1:30:00 PM 14.77 58.586 0.168 7.65 2.17 9.71
10/24/2020 1:45:00 PM 14.81 58.658 0.168 7.7 2.11 9.71
10/24/2020 2:00:00 PM 14.81 58.658 0.168 7.71 2.15 9.84
10/24/2020 2:15:00 PM 14.8 58.64 0.168 7.74 2.1 9.73
10/24/2020 2:30:00 PM 14.79 58.622 0.168 7.7 2.06 9.63
10/24/2020 2:45:00 PM 14.8 58.64 0.168 7.71 2.06 9.68
10/24/2020 3:00:00 PM 14.79 58.622 0.168 7.78 2.08 9.8
10/24/2020 3:15:00 PM 14.75 58.55 0.168 7.8 2.07 9.86
10/24/2020 3:30:00 PM 14.77 58.586 0.167 7.85 2.1 9.99
10/24/2020 3:45:00 PM 14.81 58.658 0.167 7.89 2.09 10.01
10/24/2020 4:00:00 PM 14.74 58.532 0.167 7.87 2.08 10
10/24/2020 4:15:00 PM 14.71 58.478 0.167 7.93 2.07 10.02
10/24/2020 4:30:00 PM 14.63 58.334 0.167 7.92 2.07 10.02
10/24/2020 4:45:00 PM 14.55 58.19 0.167 7.91 2.08 9.95
10/24/2020 5:00:00 PM 14.51 58.118 0.167 7.91 2.12 9.92
10/24/2020 5:15:00 PM 14.49 58.082 0.168 7.9 2.11 9.88
10/24/2020 5:30:00 PM 14.41 57.938 0.168 7.88 2.1 9.78
10/24/2020 5:45:00 PM 14.35 57.83 0.168 7.87 2.14 9.66
10/24/2020 6:00:00 PM 14.3 57.74 0.168 7.83 2.15 9.56
10/24/2020 6:15:00 PM 14.18 57.524 0.168 7.79 2.14 9.43
10/24/2020 6:30:00 PM 14.07 57.326 0.168 7.74 2.13 9.28
10/24/2020 6:45:00 PM 13.99 57.182 0.169 7.71 2.22 9.2
10/24/2020 7:00:00 PM 13.87 56.966 0.169 7.67 2.13 9.08
10/24/2020 7:15:00 PM 13.78 56.804 0.169 7.62 2.14 8.96
10/24/2020 7:30:00 PM 13.72 56.696 0.17 7.59 2.29 8.89
10/24/2020 7:45:00 PM 13.62 56.516 0.17 7.54 2.16 8.67
10/24/2020 8:00:00 PM 13.51 56.318 0.17 7.49 2.18 8.52
10/24/2020 8:15:00 PM 13.39 56.102 0.171 7.4 2.14 8.51
10/24/2020 8:30:00 PM 13.31 55.958 0.171 7.44 2.15 8.53
10/24/2020 8:45:00 PM 13.19 55.742 0.171 7.32 2.15 8.23
10/24/2020 9:00:00 PM 13.1 55.58 0.172 7.34 2.18 8.38
10/24/2020 9:15:00 PM 12.93 55.274 0.171 7.39 2.21 8.46
10/24/2020 9:30:00 PM 12.8 55.04 0.171 7.36 2.17 8.48
10/24/2020 9:45:00 PM 12.73 54.914 0.171 7.32 2.15 8.22
10/24/2020 10:00:00 PM 12.61 54.698 0.171 7.32 2.18 8.27
10/24/2020 10:15:00 PM 12.56 54.608 0.171 7.4 2.16 8.75
10/24/2020 10:30:00 PM 12.47 54.446 0.171 7.43 2.16 8.88
10/24/2020 10:45:00 PM 12.4 54.32 0.171 7.42 2.21 8.86
10/24/2020 11:00:00 PM 12.29 54.122 0.171 7.41 2.19 8.84
10/24/2020 11:15:00 PM 12.19 53.942 0.171 7.38 2.19 8.76
10/24/2020 11:30:00 PM 12.09 53.762 0.171 7.33 2.21 8.55
10/24/2020 11:45:00 PM 12 53.6 0.171 7.33 2.17 8.43
10/25/2020 12:00:00 AM 11.91 53.438 0.171 7.3 2.14 8.28
10/25/2020 12:15:00 AM 11.8 53.24 0.172 7.28 2.21 8.37
10/25/2020 12:30:00 AM 11.68 53.024 0.171 7.29 2.16 8.42
10/25/2020 12:45:00 AM 11.57 52.826 0.171 7.27 2.21 8.5
10/25/2020 1:00:00 AM 11.44 52.592 0.171 7.26 2.21 8.61
10/25/2020 1:15:00 AM 11.32 52.376 0.172 7.18 2.18 8.08
10/25/2020 1:30:00 AM 11.24 52.232 0.172 7.2 2.14 8
10/25/2020 1:45:00 AM 11.14 52.052 0.172 7.13 2.22 7.72
10/25/2020 2:00:00 AM 11.04 51.872 0.174 7.06 2.18 7.1
10/25/2020 2:15:00 AM 10.96 51.728 0.174 7.13 2.18 7.53
10/25/2020 2:30:00 AM 10.84 51.512 0.173 7.19 2.21 8.25
10/25/2020 2:45:00 AM 10.78 51.404 0.174 7.19 2.27 7.65
10/25/2020 3:00:00 AM 10.69 51.242 0.173 7.2 2.25 8.05
10/25/2020 3:15:00 AM 10.61 51.098 0.174 7.19 2.14 8.36
10/25/2020 3:30:00 AM 10.52 50.936 0.173 7.18 2.21 8.38
10/25/2020 3:45:00 AM 10.41 50.738 0.175 7.2 2.22 7.92
10/25/2020 4:00:00 AM 10.31 50.558 0.174 7.18 2.18 8.34
10/25/2020 4:15:00 AM 10.21 50.378 0.174 7.16 2.15 8.29
10/25/2020 4:30:00 AM 10.12 50.216 0.173 7.22 2.13 8.44
10/25/2020 4:45:00 AM 10.03 50.054 0.173 7.21 2.2 8.11
10/25/2020 5:00:00 AM 9.92 49.856 0.174 7.23 2.15 8.24
10/25/2020 5:15:00 AM 9.85 49.73 0.173 7.18 2.18 8.54
10/25/2020 5:30:00 AM 9.75 49.55 0.174 7.2 2.18 8.26
10/25/2020 5:45:00 AM 9.64 49.352 0.174 7.22 2.25 8
10/25/2020 6:00:00 AM 9.56 49.208 0.173 7.22 2.17 8.11
10/25/2020 6:15:00 AM 9.45 49.01 0.173 7.17 2.18 8.4
10/25/2020 6:30:00 AM 9.38 48.884 0.173 7.19 2.17 8.56
10/25/2020 6:45:00 AM 9.29 48.722 0.173 7.16 2.17 8.46
10/25/2020 7:00:00 AM 9.2 48.56 0.174 7.03 2.24 7.7
10/25/2020 7:15:00 AM 9.18 48.524 0.175 6.96 2.24 7.37
10/25/2020 7:30:00 AM 9.08 48.344 0.175 7.02 2.2 7.65
10/25/2020 7:45:00 AM 9.05 48.29 0.175 7.01 2.16 7.69
10/25/2020 8:00:00 AM 8.99 48.182 0.175 6.99 2.2 7.47
10/25/2020 8:15:00 AM 8.95 48.11 0.175 7.05 2.17 7.8
10/25/2020 8:30:00 AM 8.91 48.038 0.175 7 2.17 7
10/25/2020 8:45:00 AM 8.85 47.93 0.175 7.02 2.2 8.25
10/25/2020 9:00:00 AM 8.84 47.912 0.175 7.05 2.16 7.81
10/25/2020 9:15:00 AM 8.82 47.876 0.174 7.09 2.15 8.01
10/25/2020 9:30:00 AM 8.8 47.84 0.174 7.08 2.16 8.06
10/25/2020 9:45:00 AM 8.79 47.822 0.174 7.12 2.12 8.35
10/25/2020 10:00:00 AM 8.76 47.768 0.173 7.2 2.12 8.65
10/25/2020 10:15:00 AM 8.74 47.732 0.173 7.19 2.16 8.88
10/25/2020 10:30:00 AM 8.78 47.804 0.173 7.18 2.13 8.48
10/25/2020 10:45:00 AM 8.84 47.912 0.172 7.3 2.09 9.69
10/25/2020 11:00:00 AM 8.97 48.146 0.173 7.3 2.15 9.67
10/25/2020 11:15:00 AM 9.03 48.254 0.173 7.36 2.13 10.27
10/25/2020 11:30:00 AM 9.04 48.272 0.172 7.4 2.14 10.17
10/25/2020 11:45:00 AM 9.04 48.272 0.171 7.4 2.13 10.43
10/25/2020 12:00:00 PM 9.01 48.218 0.171 7.38 2.08 10.44
10/25/2020 12:15:00 PM 9.03 48.254 0.171 7.43 2.1 10.53
10/25/2020 12:30:00 PM 9.05 48.29 0.17 7.56 2.08 11.12
10/25/2020 12:45:00 PM 9.16 48.488 0.17 7.7 2.07 11.38
10/25/2020 1:00:00 PM 9.25 48.65 0.169 7.73 2.07 11.45
10/25/2020 1:15:00 PM 9.31 48.758 0.169 7.76 2.08 11.46
10/25/2020 1:30:00 PM 9.44 48.992 0.169 7.79 2.04 11.51
10/25/2020 1:45:00 PM 9.69 49.442 0.169 7.89 2.04 11.59
10/25/2020 2:00:00 PM 9.98 49.964 0.168 7.91 2.05 11.67
10/25/2020 2:15:00 PM 10.12 50.216 0.168 7.94 2.01 11.7
10/25/2020 2:30:00 PM 10.2 50.36 0.168 7.94 2.02 11.6
10/25/2020 2:45:00 PM 10.24 50.432 0.168 7.93 2 11.55
10/25/2020 3:00:00 PM 10.37 50.666 0.168 7.97 1.99 11.55
10/25/2020 3:15:00 PM 10.52 50.936 0.168 7.98 2.8 11.46
10/25/2020 3:30:00 PM 10.69 51.242 0.168 8.01 2 11.46
10/25/2020 3:45:00 PM 10.78 51.404 0.168 8.03 2.03 11.43
10/25/2020 4:00:00 PM 10.8 51.44 0.168 8.03 1.99 11.36
10/25/2020 4:15:00 PM 10.82 51.476 0.168 8.01 1.98 11.28
10/25/2020 4:30:00 PM 10.87 51.566 0.168 8.01 1.96 11.2
10/25/2020 4:45:00 PM 10.94 51.692 0.168 8 1.99 11.12
10/25/2020 5:00:00 PM 10.95 51.71 0.168 7.99 1.93 11.06
10/25/2020 5:15:00 PM 11.04 51.872 0.168 8 2.04 11
10/25/2020 5:30:00 PM 11.06 51.908 0.168 7.97 1.97 10.94
10/25/2020 5:45:00 PM 11.1 51.98 0.168 7.95 1.98 10.85
10/25/2020 6:00:00 PM 11.06 51.908 0.168 7.93 2.01 10.78
10/25/2020 6:15:00 PM 11.08 51.944 0.169 7.89 1.98 10.67
10/25/2020 6:30:00 PM 11.01 51.818 0.169 7.84 2.01 10.55
10/25/2020 6:45:00 PM 10.94 51.692 0.169 7.79 1.98 10.42
10/25/2020 7:00:00 PM 10.9 51.62 0.169 7.75 1.96 10.3
10/25/2020 7:15:00 PM 10.8 51.44 0.169 7.69 2.03 10.17
10/25/2020 7:30:00 PM 10.74 51.332 0.169 7.63 2 9.98
10/25/2020 7:45:00 PM 10.63 51.134 0.17 7.58 2.02 9.85
10/25/2020 8:00:00 PM 10.62 51.116 0.17 7.56 2 9.78
10/25/2020 8:15:00 PM 10.56 51.008 0.17 7.52 2.02 9.4
10/25/2020 8:30:00 PM 10.53 50.954 0.17 7.51 1.99 9.47
10/25/2020 8:45:00 PM 10.52 50.936 0.17 7.49 2.01 9.33
10/25/2020 9:00:00 PM 10.47 50.846 0.17 7.47 1.99 9.34
10/25/2020 9:15:00 PM 10.4 50.72 0.17 7.46 2.04 9.38
10/25/2020 9:30:00 PM 10.32 50.576 0.17 7.44 2.02 9.35
10/25/2020 9:45:00 PM 10.3 50.54 0.171 7.32 2.04 8.76
10/25/2020 10:00:00 PM 10.22 50.396 0.171 7.29 2.01 8.47
10/25/2020 10:15:00 PM 10.19 50.342 0.172 7.25 2.02 8.28
10/25/2020 10:30:00 PM 10.16 50.288 0.172 7.24 2.12 8.29
10/25/2020 10:45:00 PM 10.09 50.162 0.172 7.19 2.05 7.84
10/25/2020 11:00:00 PM 10.03 50.054 0.171 7.23 2.04 8.28
10/25/2020 11:15:00 PM 10.05 50.09 0.171 7.29 2.04 8.24
10/25/2020 11:30:00 PM 10.02 50.036 0.171 7.29 2.06 8.4
10/25/2020 11:45:00 PM 10.01 50.018 0.171 7.28 2.08 8.53
10/26/2020 12:00:00 AM 9.99 49.982 0.171 7.31 2.05 8.7
10/26/2020 12:15:00 AM 9.95 49.91 0.171 7.21 2.04 8.32
10/26/2020 12:30:00 AM 9.92 49.856 0.172 7.17 2.07 7.73
10/26/2020 12:45:00 AM 9.87 49.766 0.172 7.2 2.1 8.3
10/26/2020 1:00:00 AM 9.82 49.676 0.172 7.17 2.09 7.84
10/26/2020 1:15:00 AM 9.81 49.658 0.173 7.14 2.09 7.76
10/26/2020 1:30:00 AM 9.8 49.64 0.171 7.28 2.1 8.82
10/26/2020 1:45:00 AM 9.75 49.55 0.17 7.32 2.12 9.21
10/26/2020 2:00:00 AM 9.66 49.388 0.169 7.31 2.25 9.08
10/26/2020 2:15:00 AM 9.65 49.37 0.17 7.25 2.41 8.98
10/26/2020 2:30:00 AM 9.66 49.388 0.17 7.23 2.19 9.15
10/26/2020 2:45:00 AM 9.61 49.298 0.169 7.25 2.12 9.07
10/26/2020 3:00:00 AM 9.6 49.28 0.17 7.24 2.12 8.97
10/26/2020 3:15:00 AM 9.58 49.244 0.171 7.12 2.24 8.2
10/26/2020 3:30:00 AM 9.59 49.262 0.172 7.09 2.16 8.07
10/26/2020 3:45:00 AM 9.58 49.244 0.172 7.04 2.1 7.71
10/26/2020 4:00:00 AM 9.6 49.28 0.172 7.11 2.1 8.1
10/26/2020 4:15:00 AM 9.56 49.208 0.173 7.08 2.12 7.81
10/26/2020 4:30:00 AM 9.58 49.244 0.172 7.14 2.11 8.02
10/26/2020 4:45:00 AM 9.59 49.262 0.173 7.11 2.22 8.19
10/26/2020 5:00:00 AM 9.59 49.262 0.172 7.17 2.09 8.53
10/26/2020 5:15:00 AM 9.59 49.262 0.171 7.21 2.11 8.82
10/26/2020 5:30:00 AM 9.58 49.244 0.172 7.23 2.03 8.75
10/26/2020 5:45:00 AM 9.57 49.226 0.172 7.21 2.02 8.47
10/26/2020 6:00:00 AM 9.57 49.226 0.169 7.26 2.06 8.67
10/26/2020 6:15:00 AM 9.55 49.19 0.169 7.27 2.03 8.7
10/26/2020 6:30:00 AM 9.55 49.19 0.169 7.31 2.03 9.03
10/26/2020 6:45:00 AM 9.54 49.172 0.168 7.31 2.06 8.91
10/26/2020 7:00:00 AM 9.55 49.19 0.169 7.28 2.03 8.92
10/26/2020 7:15:00 AM 9.56 49.208 0.169 7.27 2.04 8.84
10/26/2020 7:30:00 AM 9.57 49.226 0.169 7.28 2.05 8.72
10/26/2020 7:45:00 AM 9.59 49.262 0.169 7.27 2.07 8.63
10/26/2020 8:00:00 AM 9.59 49.262 0.169 7.27 2.02 8.65
10/26/2020 8:15:00 AM 9.58 49.244 0.169 7.27 1.99 8.94
10/26/2020 8:30:00 AM 9.6 49.28 0.168 7.3 2.07 8.93
10/26/2020 8:45:00 AM 9.61 49.298 0.168 7.32 2.03 9.02
10/26/2020 9:00:00 AM 9.64 49.352 0.168 7.35 2.02 9.18
10/26/2020 9:15:00 AM 9.67 49.406 0.168 7.39 2.07 9.33
10/26/2020 9:30:00 AM 9.7 49.46 0.168 7.43 2.01 9.81
10/26/2020 9:45:00 AM 9.74 49.532 0.168 7.46 2.07 9.91
10/26/2020 10:00:00 AM 9.78 49.604 0.168 7.46 2.06 10.04
10/26/2020 10:15:00 AM 9.82 49.676 0.168 7.48 2.04 10.12
10/26/2020 10:30:00 AM 9.86 49.748 0.168 7.5 2.05 10.3
10/26/2020 10:45:00 AM 9.92 49.856 0.168 7.51 2.01 10.31
10/26/2020 11:00:00 AM 9.95 49.91 0.167 7.54 2.03 10.45
10/26/2020 11:15:00 AM 10 50 0.167 7.57 2.02 10.58
10/26/2020 11:30:00 AM 10.05 50.09 0.167 7.55 2.06 10.57
10/26/2020 11:45:00 AM 10.09 50.162 0.167 7.6 2.05 10.7
10/26/2020 12:00:00 PM 10.16 50.288 0.166 7.58 2.06 10.7
10/26/2020 12:15:00 PM 10.24 50.432 0.166 7.61 2.04 10.74
10/26/2020 12:30:00 PM 10.33 50.594 0.166 7.68 2 10.9
10/26/2020 12:45:00 PM 10.43 50.774 0.166 7.72 2.04 11.04
10/26/2020 1:00:00 PM 10.54 50.972 0.166 7.75 2 11.1
10/26/2020 1:15:00 PM 10.66 51.188 0.165 7.79 1.96 11.19
10/26/2020 1:30:00 PM 10.76 51.368 0.165 7.79 1.98 11.22
10/26/2020 1:45:00 PM 10.86 51.548 0.165 7.82 2 11.29
10/26/2020 2:00:00 PM 10.98 51.764 0.165 7.86 1.95 11.34
10/26/2020 2:15:00 PM 11.1 51.98 0.164 7.9 2.01 11.38
10/26/2020 2:30:00 PM 11.16 52.088 0.164 7.91 2 11.39
10/26/2020 2:45:00 PM 11.19 52.142 0.164 7.92 1.98 11.34
10/26/2020 3:00:00 PM 11.23 52.214 0.164 7.9 1.94 11.22
10/26/2020 3:15:00 PM 11.27 52.286 0.164 7.91 2.02 11.13
10/26/2020 3:30:00 PM 11.36 52.448 0.164 7.92 1.98 11.06
10/26/2020 3:45:00 PM 11.43 52.574 0.164 7.92 1.98 11.03
10/26/2020 4:00:00 PM 11.5 52.7 0.164 7.92 1.99 10.97
10/26/2020 4:15:00 PM 11.55 52.79 0.164 7.9 2 10.91
10/26/2020 4:30:00 PM 11.56 52.808 0.164 7.9 1.98 10.89
10/26/2020 4:45:00 PM 11.59 52.862 0.165 7.88 1.99 10.82
10/26/2020 5:00:00 PM 11.61 52.898 0.165 7.87 2 10.75
10/26/2020 5:15:00 PM 11.63 52.934 0.165 7.85 1.97 10.66
10/26/2020 5:30:00 PM 11.64 52.952 0.165 7.83 1.96 10.61
10/26/2020 5:45:00 PM 11.64 52.952 0.165 7.79 2.02 10.48
10/26/2020 6:00:00 PM 11.65 52.97 0.165 7.75 2.29 10.37
10/26/2020 6:15:00 PM 11.64 52.952 0.165 7.72 2.8 10.24
10/26/2020 6:30:00 PM 11.64 52.952 0.166 7.71 2.29 10.17
10/26/2020 6:45:00 PM 11.63 52.934 0.166 7.68 2.29 10.08
10/26/2020 7:00:00 PM 11.63 52.934 0.166 7.67 2.27 9.99
10/26/2020 7:15:00 PM 11.62 52.916 0.166 7.65 2.28 10
10/26/2020 7:30:00 PM 11.61 52.898 0.166 7.63 2.3 9.94
10/26/2020 7:45:00 PM 11.62 52.916 0.166 7.6 2.29 9.81
10/26/2020 8:00:00 PM 11.62 52.916 0.166 7.55 2.3 9.64
10/26/2020 8:15:00 PM 11.59 52.862 0.166 7.56 2.31 9.62
10/26/2020 8:30:00 PM 11.58 52.844 0.167 7.54 2.32 9.63
10/26/2020 8:45:00 PM 11.57 52.826 0.167 7.52 2.3 9.56
10/26/2020 9:00:00 PM 11.56 52.808 0.167 7.5 2.35 9.53
10/26/2020 9:15:00 PM 11.55 52.79 0.167 7.49 2.36 9.47
10/26/2020 9:30:00 PM 11.56 52.808 0.167 7.47 2.29 9.34
10/26/2020 9:45:00 PM 11.62 52.916 0.169 7.22 2.39 8.68
10/26/2020 10:00:00 PM 11.52 52.736 0.167 7.34 2.3 9.5
10/26/2020 10:15:00 PM 11.52 52.736 0.168 7.32 2.58 9.37
10/26/2020 10:30:00 PM 11.5 52.7 0.167 7.43 2.31 9.45
10/26/2020 10:45:00 PM 11.48 52.664 0.167 7.45 2.3 9.51
10/26/2020 11:00:00 PM 11.47 52.646 0.167 7.46 2.36 9.6
10/26/2020 11:15:00 PM 11.47 52.646 0.167 7.46 2.41 9.6
10/26/2020 11:30:00 PM 11.46 52.628 0.167 7.46 2.36 9.57
10/26/2020 11:45:00 PM 11.5 52.7 0.168 7.34 2.29 9.05
10/27/2020 12:00:00 AM 11.47 52.646 0.167 7.38 2.3 9.3
10/27/2020 12:15:00 AM 11.41 52.538 0.167 7.4 2.3 9.42
10/27/2020 12:30:00 AM 11.43 52.574 0.169 7.16 2.28 8.22
10/27/2020 12:45:00 AM 11.38 52.484 0.169 7.16 2.3 8.28
10/27/2020 1:00:00 AM 11.4 52.52 0.171 6.95 2.6 7.85
10/27/2020 1:15:00 AM 11.32 52.376 0.169 7.06 2.27 8.26
10/27/2020 1:30:00 AM 11.24 52.232 0.168 7.21 2.31 8.99
10/27/2020 1:45:00 AM 11.26 52.268 0.169 7.03 2.28 8.16
10/27/2020 2:00:00 AM 11.19 52.142 0.168 7.2 2.3 8.84
10/27/2020 2:15:00 AM 11.16 52.088 0.168 7.23 2.29 9.13
10/27/2020 2:30:00 AM 11.14 52.052 0.168 7.25 2.28 9.13
10/27/2020 2:45:00 AM 11.08 51.944 0.167 7.38 2.31 9.5
10/27/2020 3:00:00 AM 11.06 51.908 0.167 7.48 2.35 9.85
10/27/2020 3:15:00 AM 11.02 51.836 0.167 7.5 2.36 9.88
10/27/2020 3:30:00 AM 10.99 51.782 0.167 7.51 2.35 9.91
10/27/2020 3:45:00 AM 10.96 51.728 0.167 7.52 2.33 9.94
10/27/2020 4:00:00 AM 10.93 51.674 0.167 7.53 2.34 9.94
10/27/2020 4:15:00 AM 10.9 51.62 0.167 7.52 2.32 9.95
10/27/2020 4:30:00 AM 10.87 51.566 0.167 7.53 2.35 9.98
10/27/2020 4:45:00 AM 10.84 51.512 0.167 7.53 2.36 9.98
10/27/2020 5:00:00 AM 10.81 51.458 0.167 7.53 2.4 9.99
10/27/2020 5:15:00 AM 10.78 51.404 0.167 7.54 2.34 10.01
10/27/2020 5:30:00 AM 10.76 51.368 0.167 7.54 2.53 10.02
10/27/2020 5:45:00 AM 10.73 51.314 0.167 7.53 2.36 10.02
10/27/2020 6:00:00 AM 10.7 51.26 0.167 7.53 2.38 10.03
10/27/2020 6:15:00 AM 10.68 51.224 0.167 7.53 2.38 10.04
10/27/2020 6:30:00 AM 10.65 51.17 0.167 7.53 2.37 10.05
10/27/2020 6:45:00 AM 10.63 51.134 0.167 7.53 2.34 10.06
10/27/2020 7:00:00 AM 10.62 51.116 0.167 7.53 2.38 10.07
10/27/2020 7:15:00 AM 10.59 51.062 0.167 7.54 2.37 10.07
10/27/2020 7:30:00 AM 10.57 51.026 0.167 7.54 2.34 10.08
10/27/2020 7:45:00 AM 10.55 50.99 0.167 7.54 2.37 10.1
10/27/2020 8:00:00 AM 10.52 50.936 0.167 7.54 2.34 10.1
10/27/2020 8:15:00 AM 10.51 50.918 0.167 7.54 2.4 10.14
10/27/2020 8:30:00 AM 10.51 50.918 0.167 7.56 2.35 10.21
10/27/2020 8:45:00 AM 10.52 50.936 0.167 7.57 2.36 10.31
10/27/2020 9:00:00 AM 10.53 50.954 0.167 7.59 2.37 10.43
10/27/2020 9:15:00 AM 10.54 50.972 0.167 7.61 2.34 10.54
10/27/2020 9:30:00 AM 10.53 50.954 0.167 7.62 2.33 10.6
10/27/2020 9:45:00 AM 10.53 50.954 0.167 7.65 2.4 10.68
10/27/2020 10:00:00 AM 10.54 50.972 0.167 7.67 2.44 10.76
10/27/2020 10:15:00 AM 10.57 51.026 0.167 7.69 2.35 10.84
10/27/2020 10:30:00 AM 10.64 51.152 0.167 7.74 2.31 10.96
10/27/2020 10:45:00 AM 10.66 51.188 0.166 7.77 2.32 11.06
10/27/2020 11:00:00 AM 10.68 51.224 0.166 7.79 2.31 11.12
10/27/2020 11:15:00 AM 10.68 51.224 0.166 7.8 2.33 11.14
10/27/2020 11:30:00 AM 10.69 51.242 0.166 7.82 2.28 11.15
10/27/2020 11:45:00 AM 10.73 51.314 0.166 7.85 2.31 11.17
10/27/2020 12:00:00 PM 10.81 51.458 0.166 7.88 2.3 11.24
10/27/2020 12:15:00 PM 10.91 51.638 0.166 7.92 2.25 11.32
10/27/2020 12:30:00 PM 11.02 51.836 0.166 7.96 2.25 11.4
10/27/2020 12:45:00 PM 11.13 52.034 0.165 8 2.28 11.47
10/27/2020 1:00:00 PM 11.17 52.106 0.165 8.02 2.25 11.5
10/27/2020 1:15:00 PM 11.23 52.214 0.165 8.05 2.24 11.53
10/27/2020 1:30:00 PM 11.3 52.34 0.165 8.1 2.24 11.55
10/27/2020 1:45:00 PM 11.36 52.448 0.165 8.13 2.25 11.55
10/27/2020 2:00:00 PM 11.43 52.574 0.165 8.16 2.22 11.56
10/27/2020 2:15:00 PM 11.47 52.646 0.165 8.19 2.27 11.53
10/27/2020 2:30:00 PM 11.51 52.718 0.165 8.21 2.23 11.5
10/27/2020 2:45:00 PM 11.55 52.79 0.165 8.22 2.2 11.44
10/27/2020 3:00:00 PM 11.58 52.844 0.165 8.23 2.26 11.41
10/27/2020 3:15:00 PM 11.59 52.862 0.165 8.23 2.26 11.33
10/27/2020 3:30:00 PM 11.61 52.898 0.165 8.22 2.2 11.3
10/27/2020 3:45:00 PM 11.62 52.916 0.165 8.21 2.23 11.25
10/27/2020 4:00:00 PM 11.62 52.916 0.165 8.2 2.26 11.18
10/27/2020 4:15:00 PM 11.61 52.898 0.165 8.17 2.24 11.11
10/27/2020 4:30:00 PM 11.59 52.862 0.165 8.14 2.25 11.05
10/27/2020 4:45:00 PM 11.57 52.826 0.165 8.11 2.23 10.98
10/27/2020 5:00:00 PM 11.54 52.772 0.166 8.06 2.27 10.9
10/27/2020 5:15:00 PM 11.52 52.736 0.166 8.02 2.21 10.81
10/27/2020 5:30:00 PM 11.48 52.664 0.166 7.97 2.26 10.71
10/27/2020 5:45:00 PM 11.44 52.592 0.166 7.92 2.24 10.6
10/27/2020 6:00:00 PM 11.41 52.538 0.166 7.88 2.25 10.52
10/27/2020 6:15:00 PM 11.37 52.466 0.167 7.83 2.24 10.43
10/27/2020 6:30:00 PM 11.34 52.412 0.167 7.8 2.25 10.35
10/27/2020 6:45:00 PM 11.29 52.322 0.167 7.76 2.29 10.28
10/27/2020 7:00:00 PM 11.26 52.268 0.167 7.73 2.27 10.22
10/27/2020 7:15:00 PM 11.22 52.196 0.167 7.7 2.31 10.17
10/27/2020 7:30:00 PM 11.18 52.124 0.167 7.68 2.29 10.13
10/27/2020 7:45:00 PM 11.15 52.07 0.168 7.66 2.3 10.1
10/27/2020 8:00:00 PM 11.11 51.998 0.168 7.64 2.29 10.09
10/27/2020 8:15:00 PM 11.08 51.944 0.168 7.62 2.32 10.06
10/27/2020 8:30:00 PM 11.05 51.89 0.168 7.61 2.3 10.05
10/27/2020 8:45:00 PM 11.02 51.836 0.168 7.6 2.33 10.04
10/27/2020 9:00:00 PM 10.97 51.746 0.168 7.59 2.33 10.03
10/27/2020 9:15:00 PM 10.95 51.71 0.168 7.58 2.3 10.02
10/27/2020 9:30:00 PM 10.91 51.638 0.168 7.57 2.32 10.03
10/27/2020 9:45:00 PM 10.88 51.584 0.168 7.57 2.32 10.02
10/27/2020 10:00:00 PM 10.82 51.476 0.168 7.56 2.34 10.01
10/27/2020 10:15:00 PM 10.79 51.422 0.168 7.56 2.33 10.03
10/27/2020 10:30:00 PM 10.76 51.368 0.167 7.56 2.29 10.04
10/27/2020 10:45:00 PM 10.72 51.296 0.167 7.55 2.33 10.03
10/27/2020 11:00:00 PM 10.68 51.224 0.167 7.55 2.28 10.03
10/27/2020 11:15:00 PM 10.66 51.188 0.167 7.55 2.36 10.04
10/27/2020 11:30:00 PM 10.64 51.152 0.167 7.55 2.38 10.03
10/27/2020 11:45:00 PM 10.61 51.098 0.167 7.55 2.35 10.05
10/28/2020 12:00:00 AM 10.6 51.08 0.167 7.55 2.34 10.04
10/28/2020 12:15:00 AM 10.57 51.026 0.167 7.55 2.32 10.03
10/28/2020 12:30:00 AM 10.55 50.99 0.167 7.55 2.28 10.05
10/28/2020 12:45:00 AM 10.52 50.936 0.167 7.54 2.35 10.05
10/28/2020 1:00:00 AM 10.5 50.9 0.167 7.54 2.32 10.06
10/28/2020 1:15:00 AM 10.48 50.864 0.167 7.55 2.36 10.07
10/28/2020 1:30:00 AM 10.46 50.828 0.167 7.55 2.36 10.08
10/28/2020 1:45:00 AM 10.44 50.792 0.167 7.54 2.32 10.09
10/28/2020 2:00:00 AM 10.43 50.774 0.167 7.54 2.37 10.08
10/28/2020 2:15:00 AM 10.41 50.738 0.167 7.55 2.36 10.09
10/28/2020 2:30:00 AM 10.38 50.684 0.167 7.54 2.33 10.12
10/28/2020 2:45:00 AM 10.37 50.666 0.167 7.55 2.4 10.13
10/28/2020 3:00:00 AM 10.35 50.63 0.167 7.54 2.34 10.12
10/28/2020 3:15:00 AM 10.33 50.594 0.167 7.54 2.33 10.12
10/28/2020 3:30:00 AM 10.32 50.576 0.166 7.54 2.31 10.12
10/28/2020 3:45:00 AM 10.3 50.54 0.166 7.54 2.32 10.14
10/28/2020 4:00:00 AM 10.27 50.486 0.166 7.53 2.51 10.13
10/28/2020 4:15:00 AM 10.26 50.468 0.166 7.54 2.36 10.12
10/28/2020 4:30:00 AM 10.25 50.45 0.166 7.47 2.44 10.08
10/28/2020 4:45:00 AM 10.24 50.432 0.166 7.53 2.38 10.14
10/28/2020 5:00:00 AM 10.23 50.414 0.166 7.5 2.47 10.12
10/28/2020 5:15:00 AM 10.22 50.396 0.166 7.41 2.33 10.04
10/28/2020 5:30:00 AM 10.19 50.342 0.166 7.46 2.46 10.07
10/28/2020 5:45:00 AM 10.19 50.342 0.165 7.52 2.38 10.16
10/28/2020 6:00:00 AM 10.17 50.306 0.164 7.53 2.39 10.19
10/28/2020 6:15:00 AM 10.13 50.234 0.164 7.51 2.38 10.17
10/28/2020 6:30:00 AM 10.17 50.306 0.165 7.3 2.38 9.64
10/28/2020 6:45:00 AM 10.23 50.414 0.165 7.22 2.44 9.49
10/28/2020 7:00:00 AM 10.14 50.252 0.165 7.34 2.39 9.83
10/28/2020 7:15:00 AM 10.19 50.342 0.166 7.23 2.31 9.42
10/28/2020 7:30:00 AM 10.14 50.252 0.165 7.22 2.38 9.59
10/28/2020 7:45:00 AM 10.19 50.342 0.166 7.18 2.3 9.42
10/28/2020 8:00:00 AM 10.08 50.144 0.164 7.37 2.35 10.06
10/28/2020 8:15:00 AM 10.07 50.126 0.164 7.47 2.36 10.19
10/28/2020 8:30:00 AM 10.08 50.144 0.164 7.5 2.35 10.24
10/28/2020 8:45:00 AM 10.07 50.126 0.164 7.51 2.35 10.28
10/28/2020 9:00:00 AM 10.08 50.144 0.164 7.52 2.37 10.29
10/28/2020 9:15:00 AM 10.09 50.162 0.164 7.53 2.36 10.36
10/28/2020 9:30:00 AM 10.1 50.18 0.163 7.58 2.35 10.45
10/28/2020 9:45:00 AM 10.11 50.198 0.163 7.59 2.36 10.5
10/28/2020 10:00:00 AM 10.13 50.234 0.163 7.61 2.35 10.6
10/28/2020 10:15:00 AM 10.19 50.342 0.163 7.64 2.39 10.71
10/28/2020 10:30:00 AM 10.23 50.414 0.163 7.67 2.39 10.86
10/28/2020 10:45:00 AM 10.28 50.504 0.163 7.7 2.33 10.96
10/28/2020 11:00:00 AM 10.32 50.576 0.163 7.72 2.33 11.03
10/28/2020 11:15:00 AM 10.38 50.684 0.162 7.76 2.33 11.1
10/28/2020 11:30:00 AM 10.47 50.846 0.162 7.8 2.33 11.17
10/28/2020 11:45:00 AM 10.55 50.99 0.162 7.84 2.28 11.29
10/28/2020 12:00:00 PM 10.61 51.098 0.162 7.87 2.32 11.33
10/28/2020 12:15:00 PM 10.66 51.188 0.161 7.91 2.29 11.34
10/28/2020 12:30:00 PM 10.71 51.278 0.161 7.93 2.27 11.34
10/28/2020 12:45:00 PM 10.78 51.404 0.161 7.96 2.3 11.34
10/28/2020 1:00:00 PM 10.84 51.512 0.161 7.99 2.25 11.35
10/28/2020 1:15:00 PM 10.91 51.638 0.161 8.01 2.3 11.35
10/28/2020 1:30:00 PM 10.99 51.782 0.161 8.04 2.32 11.35
10/28/2020 1:45:00 PM 11.08 51.944 0.161 8.07 2.25 11.39
10/28/2020 2:00:00 PM 11.18 52.124 0.161 8.1 2.26 11.41
10/28/2020 2:15:00 PM 11.23 52.214 0.161 8.12 2.28 11.42
10/28/2020 2:30:00 PM 11.26 52.268 0.161 8.12 2.29 11.38
10/28/2020 2:45:00 PM 11.27 52.286 0.161 8.11 2.29 11.28
10/28/2020 3:00:00 PM 11.29 52.322 0.161 8.09 2.29 11.16
10/28/2020 3:15:00 PM 11.32 52.376 0.161 8.07 2.27 11.08
10/28/2020 3:30:00 PM 11.36 52.448 0.161 8.05 2.24 11.03
10/28/2020 3:45:00 PM 11.39 52.502 0.161 8.03 2.26 10.97
10/28/2020 4:00:00 PM 11.4 52.52 0.161 8 2.29 10.92
10/28/2020 4:15:00 PM 11.4 52.52 0.162 7.97 2.32 10.87
10/28/2020 4:30:00 PM 11.4 52.52 0.162 7.94 2.31 10.81
10/28/2020 4:45:00 PM 11.4 52.52 0.162 7.92 2.28 10.76
10/28/2020 5:00:00 PM 11.4 52.52 0.162 7.91 2.31 10.75
10/28/2020 5:15:00 PM 11.39 52.502 0.162 7.89 2.3 10.73
10/28/2020 5:30:00 PM 11.37 52.466 0.162 7.87 2.28 10.7
10/28/2020 5:45:00 PM 11.32 52.376 0.162 7.85 2.31 10.66
10/28/2020 6:00:00 PM 11.26 52.268 0.162 7.82 2.33 10.58
10/28/2020 6:15:00 PM 11.2 52.16 0.162 7.79 2.29 10.5
10/28/2020 6:30:00 PM 11.14 52.052 0.163 7.75 2.32 10.43
10/28/2020 6:45:00 PM 11.08 51.944 0.163 7.73 2.34 10.37
10/28/2020 7:00:00 PM 11.02 51.836 0.163 7.71 2.37 10.33
10/28/2020 7:15:00 PM 10.96 51.728 0.163 7.68 2.37 10.29
10/28/2020 7:30:00 PM 10.89 51.602 0.163 7.66 2.35 10.27
10/28/2020 7:45:00 PM 10.81 51.458 0.163 7.64 2.34 10.24
10/28/2020 8:00:00 PM 10.73 51.314 0.163 7.62 2.38 10.23
10/28/2020 8:15:00 PM 10.66 51.188 0.163 7.61 2.31 10.22
10/28/2020 8:30:00 PM 10.58 51.044 0.163 7.59 2.37 10.23
10/28/2020 8:45:00 PM 10.51 50.918 0.163 7.58 2.37 10.22
10/28/2020 9:00:00 PM 10.44 50.792 0.163 7.57 2.38 10.22
10/28/2020 9:15:00 PM 10.39 50.702 0.163 7.57 2.29 10.25
10/28/2020 9:30:00 PM 10.32 50.576 0.163 7.57 2.34 10.25
10/28/2020 9:45:00 PM 10.27 50.486 0.163 7.56 2.41 10.26
10/28/2020 10:00:00 PM 10.21 50.378 0.163 7.56 2.34 10.27
10/28/2020 10:15:00 PM 10.16 50.288 0.163 7.56 2.4 10.27
10/28/2020 10:30:00 PM 10.09 50.162 0.163 7.55 2.33 10.31
10/28/2020 10:45:00 PM 10.02 50.036 0.163 7.55 2.35 10.3
10/28/2020 11:00:00 PM 9.96 49.928 0.163 7.55 2.41 10.33
10/28/2020 11:15:00 PM 9.92 49.856 0.163 7.49 2.43 10.26
10/28/2020 11:30:00 PM 9.89 49.802 0.163 7.47 2.42 10.21
10/28/2020 11:45:00 PM 9.91 49.838 0.164 7.3 2.34 9.84
10/29/2020 12:00:00 AM 9.84 49.712 0.164 7.28 2.41 9.83
10/29/2020 12:15:00 AM 9.74 49.532 0.163 7.51 2.42 10.35
10/29/2020 12:30:00 AM 9.7 49.46 0.163 7.54 2.35 10.41
10/29/2020 12:45:00 AM 9.66 49.388 0.163 7.55 2.37 10.42
10/29/2020 1:00:00 AM 9.62 49.316 0.163 7.55 2.38 10.45
10/29/2020 1:15:00 AM 9.58 49.244 0.163 7.55 2.38 10.46
10/29/2020 1:30:00 AM 9.55 49.19 0.163 7.55 2.35 10.47
10/29/2020 1:45:00 AM 9.52 49.136 0.163 7.55 2.46 10.48
10/29/2020 2:00:00 AM 9.49 49.082 0.163 7.56 2.48 10.49
10/29/2020 2:15:00 AM 9.46 49.028 0.163 7.55 2.4 10.51
10/29/2020 2:30:00 AM 9.43 48.974 0.163 7.55 2.4 10.53
10/29/2020 2:45:00 AM 9.39 48.902 0.163 7.56 2.37 10.54
10/29/2020 3:00:00 AM 9.36 48.848 0.164 7.55 2.39 10.55
10/29/2020 3:15:00 AM 9.34 48.812 0.164 7.56 2.39 10.56
10/29/2020 3:30:00 AM 9.31 48.758 0.164 7.56 2.38 10.57
10/29/2020 3:45:00 AM 9.29 48.722 0.164 7.56 2.39 10.6
10/29/2020 4:00:00 AM 9.27 48.686 0.164 7.56 2.48 10.6
10/29/2020 4:15:00 AM 9.24 48.632 0.164 7.56 2.4 10.61
10/29/2020 4:30:00 AM 9.23 48.614 0.164 7.56 2.35 10.62
10/29/2020 4:45:00 AM 9.21 48.578 0.164 7.56 2.39 10.62
10/29/2020 5:00:00 AM 9.2 48.56 0.164 7.57 2.49 10.63
10/29/2020 5:15:00 AM 9.19 48.542 0.164 7.57 2.39 10.63
10/29/2020 5:30:00 AM 9.18 48.524 0.164 7.57 2.44 10.65
10/29/2020 5:45:00 AM 9.17 48.506 0.164 7.57 2.42 10.63
10/29/2020 6:00:00 AM 9.15 48.47 0.164 7.57 2.39 10.64
10/29/2020 6:15:00 AM 9.15 48.47 0.164 7.57 2.51 10.65
10/29/2020 6:30:00 AM 9.14 48.452 0.164 7.57 2.41 10.66
10/29/2020 6:45:00 AM 9.13 48.434 0.164 7.57 2.44 10.67
10/29/2020 7:00:00 AM 9.12 48.416 0.164 7.57 2.57 10.67
10/29/2020 7:15:00 AM 9.11 48.398 0.164 7.57 2.46 10.68
10/29/2020 7:30:00 AM 9.1 48.38 0.164 7.58 2.51 10.68
10/29/2020 7:45:00 AM 9.09 48.362 0.164 7.57 2.58 10.69
10/29/2020 8:00:00 AM 9.08 48.344 0.163 7.57 2.51 10.68
10/29/2020 8:15:00 AM 9.07 48.326 0.163 7.58 2.52 10.72
10/29/2020 8:30:00 AM 9.07 48.326 0.162 7.58 2.61 10.75
10/29/2020 8:45:00 AM 9.06 48.308 0.162 7.59 2.54 10.8
10/29/2020 9:00:00 AM 9.05 48.29 0.161 7.6 2.47 10.83
10/29/2020 9:15:00 AM 9.05 48.29 0.161 7.6 2.51 10.86
10/29/2020 9:30:00 AM 9.05 48.29 0.161 7.61 2.69 10.89
10/29/2020 9:45:00 AM 9.06 48.308 0.16 7.62 2.6 10.93
10/29/2020 10:00:00 AM 9.05 48.29 0.16 7.64 2.8 10.97
10/29/2020 10:15:00 AM 9.06 48.308 0.159 7.65 2.56 11
10/29/2020 10:30:00 AM 9.07 48.326 0.159 7.66 2.72 11.04
10/29/2020 10:45:00 AM 9.09 48.362 0.159 7.69 2.54 11.11
10/29/2020 11:00:00 AM 9.11 48.398 0.158 7.7 2.7 11.17
10/29/2020 11:15:00 AM 9.14 48.452 0.158 7.72 2.73 11.19
10/29/2020 11:30:00 AM 9.16 48.488 0.158 7.74 2.7 11.23
10/29/2020 11:45:00 AM 9.19 48.542 0.157 7.76 3.04 11.26
10/29/2020 12:00:00 PM 9.21 48.578 0.157 7.76 2.82 11.26
10/29/2020 12:15:00 PM 9.24 48.632 0.157 7.78 2.9 11.26
10/29/2020 12:30:00 PM 9.27 48.686 0.156 7.78 2.81 11.26
10/29/2020 12:45:00 PM 9.29 48.722 0.156 7.78 2.88 11.25
10/29/2020 1:00:00 PM 9.33 48.794 0.156 7.8 2.9 11.29
10/29/2020 1:15:00 PM 9.35 48.83 0.156 7.8 2.85 11.27
10/29/2020 1:30:00 PM 9.36 48.848 0.156 7.79 2.89 11.22
10/29/2020 1:45:00 PM 9.4 48.92 0.156 7.8 2.78 11.22
10/29/2020 2:00:00 PM 9.43 48.974 0.156 7.8 2.69 11.25
10/29/2020 2:15:00 PM 9.44 48.992 0.156 7.78 2.65 11.21
10/29/2020 2:30:00 PM 9.47 49.046 0.156 7.8 2.92 11.22
10/29/2020 2:45:00 PM 9.5 49.1 0.155 7.81 3.67 11.22
10/29/2020 3:00:00 PM 9.51 49.118 0.155 7.8 3.31 11.19
10/29/2020 3:15:00 PM 9.52 49.136 0.155 7.8 3.19 11.17
10/29/2020 3:30:00 PM 9.54 49.172 0.154 7.79 3.62 11.13
10/29/2020 3:45:00 PM 9.54 49.172 0.154 7.77 3.39 11.09
10/29/2020 4:00:00 PM 9.54 49.172 0.153 7.75 4.56 11.04
10/29/2020 4:15:00 PM 9.55 49.19 0.153 7.72 3.39 11
10/29/2020 4:30:00 PM 9.55 49.19 0.153 7.72 5.82 10.98
10/29/2020 4:45:00 PM 9.54 49.172 0.153 7.71 4.01 10.95
10/29/2020 5:00:00 PM 9.54 49.172 0.152 7.67 3.6 10.89
10/29/2020 5:15:00 PM 9.53 49.154 0.152 7.66 3.97 10.87
10/29/2020 5:30:00 PM 9.53 49.154 0.151 7.65 4 10.84
10/29/2020 5:45:00 PM 9.52 49.136 0.152 7.63 4.74 10.8
10/29/2020 6:00:00 PM 9.51 49.118 0.151 7.63 5.39 10.81
10/29/2020 6:15:00 PM 9.5 49.1 0.151 7.61 5.28 10.77
10/29/2020 6:30:00 PM 9.5 49.1 0.151 7.6 5.76 10.75
10/29/2020 6:45:00 PM 9.49 49.082 0.152 7.61 5.94 10.78
10/29/2020 7:00:00 PM 9.49 49.082 0.152 7.6 7.16 10.78
10/29/2020 7:15:00 PM 9.49 49.082 0.152 7.6 5.71 10.78
10/29/2020 7:30:00 PM 9.48 49.064 0.153 7.6 5.57 10.78
10/29/2020 7:45:00 PM 9.48 49.064 0.153 7.59 5.42 10.78
10/29/2020 8:00:00 PM 9.48 49.064 0.153 7.58 5.38 10.78
10/29/2020 8:15:00 PM 9.47 49.046 0.153 7.57 5.67 10.78
10/29/2020 8:30:00 PM 9.47 49.046 0.154 7.59 6.03 10.79
10/29/2020 8:45:00 PM 9.46 49.028 0.154 7.59 5.53 10.79
10/29/2020 9:00:00 PM 9.45 49.01 0.154 7.6 5.5 10.79
10/29/2020 9:15:00 PM 9.43 48.974 0.155 7.59 5.66 10.8
10/29/2020 9:30:00 PM 9.42 48.956 0.155 7.59 5.43 10.81
10/29/2020 9:45:00 PM 9.41 48.938 0.156 7.6 5.74 10.82
10/29/2020 10:00:00 PM 9.39 48.902 0.156 7.6 5.89 10.82
10/29/2020 10:15:00 PM 9.38 48.884 0.157 7.6 6.48 10.84
10/29/2020 10:30:00 PM 9.36 48.848 0.157 7.6 6.41 10.84
10/29/2020 10:45:00 PM 9.35 48.83 0.158 7.59 8.62 10.84
10/29/2020 11:00:00 PM 9.33 48.794 0.158 7.57 7.16 10.85
10/29/2020 11:15:00 PM 9.32 48.776 0.158 7.59 7.59 10.86
10/29/2020 11:30:00 PM 9.3 48.74 0.158 7.6 7.92 10.87
10/29/2020 11:45:00 PM 9.28 48.704 0.158 7.6 8.16 10.88
10/30/2020 12:00:00 AM 9.26 48.668 0.158 7.6 8.32 10.88
10/30/2020 12:15:00 AM 9.24 48.632 0.158 7.6 8.14 10.88
10/30/2020 12:30:00 AM 9.22 48.596 0.158 7.6 7.69 10.89
10/30/2020 12:45:00 AM 9.2 48.56 0.159 7.6 7.9 10.89
10/30/2020 1:00:00 AM 9.18 48.524 0.159 7.6 8.38 10.89
10/30/2020 1:15:00 AM 9.15 48.47 0.159 7.59 9.74 10.9
10/30/2020 1:30:00 AM 9.13 48.434 0.16 7.6 9.62 10.92
10/30/2020 1:45:00 AM 9.11 48.398 0.161 7.6 10.22 10.92
10/30/2020 2:00:00 AM 9.08 48.344 0.161 7.61 11.27 10.94
10/30/2020 2:15:00 AM 9.06 48.308 0.162 7.61 11.43 10.94
10/30/2020 2:30:00 AM 9.03 48.254 0.162 7.61 10.74 10.95
10/30/2020 2:45:00 AM 9.01 48.218 0.162 7.61 11.64 10.96
10/30/2020 3:00:00 AM 8.97 48.146 0.162 7.62 10.77 10.97
10/30/2020 3:15:00 AM 8.94 48.092 0.162 7.61 11.13 10.98
10/30/2020 3:30:00 AM 8.9 48.02 0.163 7.61 9.62 10.99
10/30/2020 3:45:00 AM 8.87 47.966 0.163 7.62 12.06 11
10/30/2020 4:00:00 AM 8.84 47.912 0.163 7.62 8.62 11.01
10/30/2020 4:15:00 AM 8.81 47.858 0.163 7.62 9.39 11.02
10/30/2020 4:30:00 AM 8.78 47.804 0.164 7.62 9.23 11.04
10/30/2020 4:45:00 AM 8.75 47.75 0.164 7.61 8.39 11.04
10/30/2020 5:00:00 AM 8.72 47.696 0.164 7.61 8.45 11.07
10/30/2020 5:15:00 AM 8.68 47.624 0.164 7.62 9.33 11.08
10/30/2020 5:30:00 AM 8.62 47.516 0.164 7.61 9.86 11.09
10/30/2020 5:45:00 AM 8.58 47.444 0.164 7.61 9.94 11.1
10/30/2020 6:00:00 AM 8.54 47.372 0.164 7.6 9.87 11.11
10/30/2020 6:15:00 AM 8.48 47.264 0.164 7.6 10.17 11.13
10/30/2020 6:30:00 AM 8.4 47.12 0.164 7.6 11.32 11.15
10/30/2020 6:45:00 AM 8.32 46.976 0.164 7.58 12.24 11.17
10/30/2020 7:00:00 AM 8.24 46.832 0.164 7.58 14.07 11.2
10/30/2020 7:15:00 AM 8.12 46.616 0.164 7.58 13.34 11.21
10/30/2020 7:30:00 AM 8.01 46.418 0.164 7.58 12.02 11.23
10/30/2020 7:45:00 AM 7.9 46.22 0.165 7.57 12.58 11.26
10/30/2020 8:00:00 AM 7.83 46.094 0.165 7.57 12.01 11.29
10/30/2020 8:15:00 AM 7.79 46.022 0.165 7.58 11.61 11.33
10/30/2020 8:30:00 AM 7.78 46.004 0.166 7.59 12.91 11.35
10/30/2020 8:45:00 AM 7.77 45.986 0.166 7.59 11.55 11.38
10/30/2020 9:00:00 AM 7.77 45.986 0.167 7.6 11.76 11.4
10/30/2020 9:15:00 AM 7.77 45.986 0.168 7.6 13.29 11.41
10/30/2020 9:30:00 AM 7.76 45.968 0.168 7.61 12.65 11.44
10/30/2020 9:45:00 AM 7.75 45.95 0.169 7.62 13.9 11.45
10/30/2020 10:00:00 AM 7.76 45.968 0.169 7.63 12.61 11.47
10/30/2020 10:15:00 AM 7.78 46.004 0.17 7.63 13.81 11.49
10/30/2020 10:30:00 AM 7.8 46.04 0.171 7.64 14.24 11.51
10/30/2020 10:45:00 AM 7.83 46.094 0.172 7.65 13.38 11.53
10/30/2020 11:00:00 AM 7.88 46.184 0.172 7.66 13.72 11.53
10/30/2020 11:15:00 AM 7.95 46.31 0.173 7.67 14.47 11.54
10/30/2020 11:30:00 AM 8.01 46.418 0.173 7.66 13.63 11.54
10/30/2020 11:45:00 AM 8.05 46.49 0.174 7.67 13.45 11.53
10/30/2020 12:00:00 PM 8.1 46.58 0.174 7.67 13.19 11.53
10/30/2020 12:15:00 PM 8.15 46.67 0.174 7.67 12.86 11.53
10/30/2020 12:30:00 PM 8.19 46.742 0.173 7.67 13.21 11.52
10/30/2020 12:45:00 PM 8.2 46.76 0.173 7.68 12.66 11.5
10/30/2020 1:00:00 PM 8.21 46.778 0.173 7.67 12.43 11.5
10/30/2020 1:15:00 PM 8.22 46.796 0.172 7.67 12.39 11.49
10/30/2020 1:30:00 PM 8.21 46.778 0.172 7.66 12.35 11.48
10/30/2020 1:45:00 PM 8.2 46.76 0.171 7.66 11.87 11.48
10/30/2020 2:00:00 PM 8.2 46.76 0.171 7.66 11.59 11.49
10/30/2020 2:15:00 PM 8.23 46.814 0.17 7.67 11.52 11.5
10/30/2020 2:30:00 PM 8.25 46.85 0.17 7.68 11.72 11.51
10/30/2020 2:45:00 PM 8.28 46.904 0.169 7.68 12.95 11.51
10/30/2020 3:00:00 PM 8.32 46.976 0.169 7.69 11.63 11.53
10/30/2020 3:15:00 PM 8.32 46.976 0.169 7.69 10.81 11.52
10/30/2020 3:30:00 PM 8.3 46.94 0.168 7.68 11.43 11.51
10/30/2020 3:45:00 PM 8.3 46.94 0.168 7.68 10.34 11.51
10/30/2020 4:00:00 PM 8.31 46.958 0.168 7.68 10.35 11.51
10/30/2020 4:15:00 PM 8.28 46.904 0.167 7.68 10.28 11.52
10/30/2020 4:30:00 PM 8.25 46.85 0.167 7.67 9.76 11.5
10/30/2020 4:45:00 PM 8.23 46.814 0.167 7.67 10.01 11.5
10/30/2020 5:00:00 PM 8.22 46.796 0.167 7.67 10.06 11.5
10/30/2020 5:15:00 PM 8.21 46.778 0.167 7.66 9.34 11.49
10/30/2020 5:30:00 PM 8.18 46.724 0.167 7.65 9 11.49
10/30/2020 5:45:00 PM 8.15 46.67 0.167 7.65 9.29 11.48
10/30/2020 6:00:00 PM 8.1 46.58 0.167 7.64 8.88 11.48
10/30/2020 6:15:00 PM 8.06 46.508 0.167 7.63 8.97 11.48
10/30/2020 6:30:00 PM 8.02 46.436 0.167 7.62 8.66 11.48
10/30/2020 6:45:00 PM 7.98 46.364 0.167 7.62 8.86 11.48
10/30/2020 7:00:00 PM 7.94 46.292 0.167 7.61 8.69 11.48
10/30/2020 7:15:00 PM 7.91 46.238 0.168 7.61 8.58 11.48
10/30/2020 7:30:00 PM 7.88 46.184 0.168 7.61 8.6 11.48
10/30/2020 7:45:00 PM 7.85 46.13 0.168 7.61 8.25 11.49
10/30/2020 8:00:00 PM 7.81 46.058 0.168 7.6 8.38 11.5
10/30/2020 8:15:00 PM 7.77 45.986 0.169 7.6 8.27 11.5
10/30/2020 8:30:00 PM 7.72 45.896 0.17 7.59 8.04 11.53
10/30/2020 8:45:00 PM 7.67 45.806 0.17 7.59 8.5 11.54
10/30/2020 9:00:00 PM 7.61 45.698 0.171 7.59 8 11.55
10/30/2020 9:15:00 PM 7.56 45.608 0.172 7.58 8.45 11.57
10/30/2020 9:30:00 PM 7.51 45.518 0.173 7.58 8.24 11.59
10/30/2020 9:45:00 PM 7.45 45.41 0.174 7.58 8.09 11.62
10/30/2020 10:00:00 PM 7.4 45.32 0.175 7.57 7.94 11.63
10/30/2020 10:15:00 PM 7.35 45.23 0.175 7.57 7.94 11.63
10/30/2020 10:30:00 PM 7.3 45.14 0.176 7.58 7.91 11.66
10/30/2020 10:45:00 PM 7.25 45.05 0.177 7.57 7.82 11.67
10/30/2020 11:00:00 PM 7.2 44.96 0.178 7.57 7.91 11.69
10/30/2020 11:15:00 PM 7.14 44.852 0.178 7.57 7.92 11.71
10/30/2020 11:30:00 PM 7.09 44.762 0.179 7.57 7.8 11.73
10/30/2020 11:45:00 PM 7.04 44.672 0.179 7.57 7.61 11.75
10/31/2020 12:00:00 AM 7.01 44.618 0.179 7.57 7.57 11.76
10/31/2020 12:15:00 AM 6.99 44.582 0.179 7.57 7.69 11.78
10/31/2020 12:30:00 AM 6.97 44.546 0.179 7.57 7.44 11.79
10/31/2020 12:45:00 AM 6.95 44.51 0.179 7.57 7.36 11.8
10/31/2020 1:00:00 AM 6.92 44.456 0.179 7.57 7.15 11.81
10/31/2020 1:15:00 AM 6.9 44.42 0.179 7.57 7.38 11.82
10/31/2020 1:30:00 AM 6.88 44.384 0.178 7.57 7.37 11.83
10/31/2020 1:45:00 AM 6.85 44.33 0.178 7.57 7.29 11.83
10/31/2020 2:00:00 AM 6.83 44.294 0.178 7.57 7.07 11.84
10/31/2020 2:15:00 AM 6.78 44.204 0.177 7.56 6.85 11.86
10/31/2020 2:30:00 AM 6.73 44.114 0.177 7.56 6.74 11.87
10/31/2020 2:45:00 AM 6.69 44.042 0.176 7.56 6.81 11.89
10/31/2020 3:00:00 AM 6.66 43.988 0.176 7.56 6.65 11.91
10/31/2020 3:15:00 AM 6.63 43.934 0.175 7.56 6.46 11.92
10/31/2020 3:30:00 AM 6.6 43.88 0.175 7.56 6.45 11.93
10/31/2020 3:45:00 AM 6.58 43.844 0.174 7.56 6.4 11.95
10/31/2020 4:00:00 AM 6.56 43.808 0.174 7.56 6.43 11.96
10/31/2020 4:15:00 AM 6.54 43.772 0.173 7.55 6.24 11.97
10/31/2020 4:30:00 AM 6.51 43.718 0.173 7.56 6.31 11.97
10/31/2020 4:45:00 AM 6.46 43.628 0.173 7.56 6.21 11.99
10/31/2020 5:00:00 AM 6.41 43.538 0.172 7.55 5.99 12.01
10/31/2020 5:15:00 AM 6.35 43.43 0.172 7.55 6.03 12.02
10/31/2020 5:30:00 AM 6.29 43.322 0.171 7.55 5.89 12.04
10/31/2020 5:45:00 AM 6.23 43.214 0.171 7.55 5.89 12.06
10/31/2020 6:00:00 AM 6.17 43.106 0.171 7.55 5.81 12.08
10/31/2020 6:15:00 AM 6.11 42.998 0.171 7.54 5.81 12.11
10/31/2020 6:30:00 AM 6.06 42.908 0.17 7.54 5.76 12.13
10/31/2020 6:45:00 AM 6 42.8 0.17 7.54 5.76 12.14
10/31/2020 7:00:00 AM 5.95 42.71 0.17 7.54 5.64 12.16
10/31/2020 7:15:00 AM 5.89 42.602 0.17 7.54 5.67 12.19
10/31/2020 7:30:00 AM 5.83 42.494 0.17 7.54 5.6 12.2
10/31/2020 7:45:00 AM 5.78 42.404 0.17 7.54 5.52 12.23
10/31/2020 8:00:00 AM 5.72 42.296 0.17 7.55 5.47 12.27
10/31/2020 8:15:00 AM 5.68 42.224 0.17 7.55 5.38 12.3
10/31/2020 8:30:00 AM 5.64 42.152 0.17 7.55 5.38 12.33
10/31/2020 8:45:00 AM 5.61 42.098 0.17 7.57 5.31 12.37
10/31/2020 9:00:00 AM 5.59 42.062 0.17 7.58 5.37 12.4
10/31/2020 9:15:00 AM 5.58 42.044 0.17 7.59 5.39 12.44
10/31/2020 9:30:00 AM 5.59 42.062 0.17 7.6 5.28 12.46
10/31/2020 9:45:00 AM 5.63 42.134 0.171 7.62 5.09 12.49
10/31/2020 10:00:00 AM 5.69 42.242 0.171 7.63 5.24 12.51
10/31/2020 10:15:00 AM 5.71 42.278 0.171 7.63 5.17 12.5
10/31/2020 10:30:00 AM 5.75 42.35 0.171 7.64 5.07 12.51
10/31/2020 10:45:00 AM 5.81 42.458 0.172 7.65 4.96 12.51
10/31/2020 11:00:00 AM 5.89 42.602 0.172 7.66 5.03 12.52
10/31/2020 11:15:00 AM 5.98 42.764 0.172 7.67 5.05 12.51
10/31/2020 11:30:00 AM 6.06 42.908 0.172 7.67 4.93 12.51
10/31/2020 11:45:00 AM 6.18 43.124 0.173 7.69 4.74 12.49
10/31/2020 12:00:00 PM 6.22 43.196 0.173 7.68 4.95 12.46
10/31/2020 12:15:00 PM 6.27 43.286 0.173 7.69 4.74 12.45
10/31/2020 12:30:00 PM 6.35 43.43 0.173 7.69 4.87 12.43
10/31/2020 12:45:00 PM 6.43 43.574 0.173 7.7 4.86 12.41
10/31/2020 1:00:00 PM 6.5 43.7 0.173 7.71 4.73 12.39
10/31/2020 1:15:00 PM 6.58 43.844 0.174 7.71 4.57 12.37
10/31/2020 1:30:00 PM 6.63 43.934 0.174 7.71 4.63 12.35
10/31/2020 1:45:00 PM 6.68 44.024 0.174 7.72 4.63 12.34
10/31/2020 2:00:00 PM 6.72 44.096 0.174 7.72 4.64 12.33
10/31/2020 2:15:00 PM 6.72 44.096 0.174 7.71 4.85 12.31
10/31/2020 2:30:00 PM 6.75 44.15 0.174 7.71 4.59 12.28
10/31/2020 2:45:00 PM 6.83 44.294 0.174 7.72 4.61 12.27
10/31/2020 3:00:00 PM 6.91 44.438 0.174 7.72 4.68 12.22
10/31/2020 3:15:00 PM 6.98 44.564 0.174 7.72 4.67 12.19
10/31/2020 3:30:00 PM 7.03 44.654 0.174 7.72 4.58 12.16
10/31/2020 3:45:00 PM 7.07 44.726 0.174 7.72 4.52 12.14
10/31/2020 4:00:00 PM 7.08 44.744 0.174 7.71 4.4 12.12
10/31/2020 4:15:00 PM 7.05 44.69 0.174 7.71 4.43 12.11
10/31/2020 4:30:00 PM 7.01 44.618 0.174 7.69 4.47 12.11
10/31/2020 4:45:00 PM 6.97 44.546 0.174 7.69 4.42 12.11
10/31/2020 5:00:00 PM 6.92 44.456 0.174 7.68 4.62 12.1
10/31/2020 5:15:00 PM 6.88 44.384 0.174 7.67 4.49 12.09
10/31/2020 5:30:00 PM 6.82 44.276 0.174 7.66 4.36 12.08
10/31/2020 5:45:00 PM 6.76 44.168 0.174 7.65 4.44 12.08
10/31/2020 6:00:00 PM 6.7 44.06 0.174 7.64 4.3 12.06
10/31/2020 6:15:00 PM 6.63 43.934 0.174 7.63 4.45 12.06
10/31/2020 6:30:00 PM 6.55 43.79 0.174 7.62 4.38 12.06
10/31/2020 6:45:00 PM 6.48 43.664 0.174 7.61 4.26 12.07
10/31/2020 7:00:00 PM 6.41 43.538 0.174 7.6 4.4 12.07
10/31/2020 7:15:00 PM 6.34 43.412 0.174 7.59 4.31 12.08
10/31/2020 7:30:00 PM 6.29 43.322 0.174 7.58 4.42 12.09
10/31/2020 7:45:00 PM 6.23 43.214 0.174 7.58 4.29 12.1
10/31/2020 8:00:00 PM 6.18 43.124 0.174 7.58 4.33 12.12
10/31/2020 8:15:00 PM 6.14 43.052 0.174 7.58 4.19 12.12
10/31/2020 8:30:00 PM 6.09 42.962 0.174 7.57 4.36 12.14
10/31/2020 8:45:00 PM 6.05 42.89 0.174 7.57 4.31 12.14
10/31/2020 9:00:00 PM 6 42.8 0.174 7.57 4.16 12.15
10/31/2020 9:15:00 PM 5.96 42.728 0.174 7.57 4.16 12.16
10/31/2020 9:30:00 PM 5.92 42.656 0.173 7.57 4.29 12.17
10/31/2020 9:45:00 PM 5.88 42.584 0.173 7.57 4.23 12.18
10/31/2020 10:00:00 PM 5.84 42.512 0.173 7.57 4.13 12.19
10/31/2020 10:15:00 PM 5.8 42.44 0.173 7.57 4.28 12.2
10/31/2020 10:30:00 PM 5.77 42.386 0.173 7.56 4.29 12.21
10/31/2020 10:45:00 PM 5.74 42.332 0.173 7.57 4.04 12.22
10/31/2020 11:00:00 PM 5.71 42.278 0.173 7.56 4.18 12.23
10/31/2020 11:15:00 PM 5.67 42.206 0.173 7.57 4.11 12.24
10/31/2020 11:30:00 PM 5.65 42.17 0.173 7.56 4.29 12.25
10/31/2020 11:45:00 PM 5.62 42.116 0.173 7.57 4.15 12.26
11/1/2020 12:00:00 AM 5.59 42.062 0.173 7.57 3.89 12.27
11/1/2020 12:15:00 AM 5.56 42.008 0.173 7.57 3.99 12.28
11/1/2020 12:30:00 AM 5.53 41.954 0.173 7.56 4.24 12.28
11/1/2020 12:45:00 AM 5.5 41.9 0.173 7.57 3.95 12.29
11/1/2020 1:00:00 AM 5.46 41.828 0.173 7.56 3.85 12.3
11/1/2020 1:15:00 AM 5.43 41.774 0.173 7.56 4.01 12.3
11/1/2020 1:30:00 AM 5.4 41.72 0.173 7.56 3.79 12.31
11/1/2020 1:45:00 AM 5.38 41.684 0.173 7.56 3.86 12.32
11/1/2020 2:00:00 AM 5.35 41.63 0.173 7.57 3.68 12.33
11/1/2020 2:15:00 AM 5.34 41.612 0.173 7.57 3.75 12.33
11/1/2020 2:30:00 AM 5.34 41.612 0.173 7.57 3.79 12.34
11/1/2020 2:45:00 AM 5.35 41.63 0.172 7.58 3.65 12.34
11/1/2020 3:00:00 AM 5.35 41.63 0.172 7.57 3.81 12.34
11/1/2020 3:15:00 AM 5.35 41.63 0.172 7.57 3.69 12.34
11/1/2020 3:30:00 AM 5.34 41.612 0.172 7.57 4.31 12.33
11/1/2020 3:45:00 AM 5.34 41.612 0.172 7.58 3.61 12.33
11/1/2020 4:00:00 AM 5.34 41.612 0.172 7.58 3.55 12.33
11/1/2020 4:15:00 AM 5.34 41.612 0.172 7.57 3.61 12.33
11/1/2020 4:30:00 AM 5.35 41.63 0.172 7.57 3.59 12.32
11/1/2020 4:45:00 AM 5.35 41.63 0.172 7.57 3.52 12.32
11/1/2020 5:00:00 AM 5.35 41.63 0.172 7.57 3.51 12.32
11/1/2020 5:15:00 AM 5.36 41.648 0.172 7.57 3.5 12.32
11/1/2020 5:30:00 AM 5.36 41.648 0.172 7.57 3.55 12.31
11/1/2020 5:45:00 AM 5.37 41.666 0.172 7.58 3.38 12.31
11/1/2020 6:00:00 AM 5.38 41.684 0.172 7.58 3.29 12.3
11/1/2020 6:15:00 AM 5.39 41.702 0.172 7.57 3.29 12.29
11/1/2020 6:30:00 AM 5.41 41.738 0.172 7.58 3.27 12.28
11/1/2020 6:45:00 AM 5.44 41.792 0.172 7.57 3.27 12.28
11/1/2020 7:00:00 AM 5.46 41.828 0.172 7.57 3.37 12.27
11/1/2020 7:15:00 AM 5.48 41.864 0.172 7.57 3.36 12.26
11/1/2020 7:30:00 AM 5.5 41.9 0.172 7.57 3.32 12.25
11/1/2020 7:45:00 AM 5.52 41.936 0.172 7.57 3.32 12.24
11/1/2020 8:00:00 AM 5.54 41.972 0.172 7.57 3.34 12.24
11/1/2020 8:15:00 AM 5.56 42.008 0.172 7.58 3.25 12.24
11/1/2020 8:30:00 AM 5.59 42.062 0.172 7.58 3.26 12.25
11/1/2020 8:45:00 AM 5.62 42.116 0.172 7.58 3.24 12.25
11/1/2020 9:00:00 AM 5.66 42.188 0.172 7.6 3.23 12.26
11/1/2020 9:15:00 AM 5.7 42.26 0.172 7.6 3.12 12.28
11/1/2020 9:30:00 AM 5.74 42.332 0.172 7.61 3.01 12.29
11/1/2020 9:45:00 AM 5.79 42.422 0.172 7.62 2.9 12.3
11/1/2020 10:00:00 AM 5.86 42.548 0.172 7.64 2.92 12.31
11/1/2020 10:15:00 AM 6.21 43.178 0.172 7.69 2.86 12.27
11/1/2020 10:30:00 AM 6.29 43.322 0.172 7.71 2.85 12.26
11/1/2020 10:45:00 AM 6.34 43.412 0.172 7.71 2.82 12.23
11/1/2020 11:00:00 AM 6.37 43.466 0.172 7.69 2.76 12.16
11/1/2020 11:15:00 AM 6.4 43.52 0.172 7.67 2.79 12.11
11/1/2020 11:30:00 AM 6.42 43.556 0.172 7.66 2.77 12.06
11/1/2020 11:45:00 AM 6.46 43.628 0.172 7.67 2.77 12.05
11/1/2020 12:00:00 PM 6.49 43.682 0.172 7.66 2.73 12.04
11/1/2020 12:15:00 PM 6.52 43.736 0.172 7.66 2.72 12.01
11/1/2020 12:30:00 PM 6.56 43.808 0.172 7.66 2.74 12
11/1/2020 12:45:00 PM 6.61 43.898 0.172 7.67 2.7 12
11/1/2020 1:00:00 PM 6.71 44.078 0.172 7.69 2.71 12.04
11/1/2020 1:15:00 PM 6.78 44.204 0.171 7.7 2.71 12.04
11/1/2020 1:30:00 PM 6.84 44.312 0.171 7.69 2.72 11.98
11/1/2020 1:45:00 PM 6.9 44.42 0.171 7.7 2.65 11.94
11/1/2020 2:00:00 PM 6.99 44.582 0.171 7.71 2.72 11.95
11/1/2020 2:15:00 PM 7.04 44.672 0.171 7.71 2.62 11.93
11/1/2020 2:30:00 PM 7.12 44.816 0.171 7.71 2.63 11.92
11/1/2020 2:45:00 PM 7.22 44.996 0.171 7.72 2.65 11.92
11/1/2020 3:00:00 PM 7.24 45.032 0.171 7.71 2.63 11.84
11/1/2020 3:15:00 PM 7.27 45.086 0.171 7.7 2.59 11.78
11/1/2020 3:30:00 PM 7.29 45.122 0.171 7.68 2.61 11.75
11/1/2020 3:45:00 PM 7.29 45.122 0.171 7.67 2.7 11.74
11/1/2020 4:00:00 PM 7.28 45.104 0.171 7.66 2.6 11.7
11/1/2020 4:15:00 PM 7.28 45.104 0.171 7.65 2.62 11.67
11/1/2020 4:30:00 PM 7.26 45.068 0.171 7.63 2.62 11.66
11/1/2020 4:45:00 PM 7.23 45.014 0.171 7.61 2.64 11.65
11/1/2020 5:00:00 PM 7.21 44.978 0.171 7.62 2.65 11.64
11/1/2020 5:15:00 PM 7.17 44.906 0.171 7.6 2.62 11.63
11/1/2020 5:30:00 PM 7.15 44.87 0.171 7.59 2.59 11.63
11/1/2020 5:45:00 PM 7.12 44.816 0.171 7.59 2.64 11.63
11/1/2020 6:00:00 PM 7.1 44.78 0.171 7.59 2.68 11.63
11/1/2020 6:15:00 PM 7.08 44.744 0.171 7.58 2.65 11.63
11/1/2020 6:30:00 PM 7.06 44.708 0.171 7.58 2.69 11.63
11/1/2020 6:45:00 PM 7.04 44.672 0.172 7.57 2.67 11.63
11/1/2020 7:00:00 PM 7.02 44.636 0.172 7.59 2.62 11.63
11/1/2020 7:15:00 PM 7 44.6 0.172 7.6 2.63 11.64
11/1/2020 7:30:00 PM 6.97 44.546 0.172 7.59 2.65 11.64
11/1/2020 7:45:00 PM 6.93 44.474 0.172 7.59 2.59 11.65
11/1/2020 8:00:00 PM 6.88 44.384 0.172 7.58 2.59 11.66
11/1/2020 8:15:00 PM 6.83 44.294 0.172 7.58 2.59 11.67
11/1/2020 8:30:00 PM 6.76 44.168 0.172 7.58 2.59 11.69
11/1/2020 8:45:00 PM 6.69 44.042 0.172 7.58 2.6 11.71
11/1/2020 9:00:00 PM 6.62 43.916 0.172 7.58 2.58 11.73
11/1/2020 9:15:00 PM 6.55 43.79 0.172 7.57 2.61 11.75
11/1/2020 9:30:00 PM 6.46 43.628 0.172 7.57 2.56 11.76
11/1/2020 9:45:00 PM 6.4 43.52 0.172 7.58 2.57 11.79
11/1/2020 10:00:00 PM 6.36 43.448 0.172 7.57 2.57 11.8
11/1/2020 10:15:00 PM 6.29 43.322 0.172 7.57 2.57 11.82
11/1/2020 10:30:00 PM 6.24 43.232 0.172 7.57 2.5 11.84
11/1/2020 10:45:00 PM 6.2 43.16 0.172 7.57 2.48 11.86
11/1/2020 11:00:00 PM 6.14 43.052 0.172 7.57 2.54 11.88
11/1/2020 11:15:00 PM 6.07 42.926 0.172 7.55 2.57 11.9
11/1/2020 11:30:00 PM 6 42.8 0.172 7.55 2.53 11.91
11/1/2020 11:45:00 PM 5.93 42.674 0.172 7.55 2.63 11.93
11/2/2020 12:00:00 AM 5.9 42.62 0.172 7.56 2.65 11.95
11/2/2020 12:15:00 AM 5.84 42.512 0.172 7.55 2.56 11.96
11/2/2020 12:30:00 AM 5.8 42.44 0.172 7.56 2.55 11.98
11/2/2020 12:45:00 AM 5.77 42.386 0.172 7.56 2.6 11.99
11/2/2020 1:00:00 AM 5.74 42.332 0.172 7.56 2.58 12
11/2/2020 1:15:00 AM 5.7 42.26 0.172 7.57 2.55 12.01
11/2/2020 1:30:00 AM 5.67 42.206 0.172 7.57 2.55 12.02
11/2/2020 1:45:00 AM 5.64 42.152 0.172 7.57 2.5 12.03
11/2/2020 2:00:00 AM 5.61 42.098 0.172 7.57 2.54 12.04
11/2/2020 2:15:00 AM 5.59 42.062 0.172 7.57 2.48 12.05
11/2/2020 2:30:00 AM 5.57 42.026 0.172 7.58 2.46 12.07
11/2/2020 2:45:00 AM 5.54 41.972 0.172 7.57 2.48 12.07
11/2/2020 3:00:00 AM 5.5 41.9 0.172 7.57 2.52 12.08
11/2/2020 3:15:00 AM 5.48 41.864 0.172 7.57 2.49 12.09
11/2/2020 3:30:00 AM 5.46 41.828 0.172 7.57 2.5 12.1
11/2/2020 3:45:00 AM 5.43 41.774 0.172 7.57 2.47 12.11
11/2/2020 4:00:00 AM 5.4 41.72 0.172 7.58 2.45 12.11
11/2/2020 4:15:00 AM 5.37 41.666 0.172 7.58 2.43 12.12
11/2/2020 4:30:00 AM 5.34 41.612 0.172 7.58 2.38 12.13
11/2/2020 4:45:00 AM 5.26 41.468 0.172 7.57 2.4 12.13
11/2/2020 5:00:00 AM 5.22 41.396 0.172 7.58 2.38 12.16
11/2/2020 5:15:00 AM 5.18 41.324 0.172 7.58 2.39 12.17
11/2/2020 5:30:00 AM 5.08 41.144 0.172 7.57 2.41 12.21
11/2/2020 5:45:00 AM 4.97 40.946 0.172 7.57 2.36 12.21
11/2/2020 6:00:00 AM 4.85 40.73 0.171 7.56 2.44 12.26
11/2/2020 6:15:00 AM 4.7 40.46 0.171 7.56 2.44 12.29
11/2/2020 6:30:00 AM 4.58 40.244 0.171 7.56 2.44 12.34
11/2/2020 6:45:00 AM 4.51 40.118 0.171 7.55 2.44 12.4
11/2/2020 7:00:00 AM 4.43 39.974 0.171 7.56 2.42 12.46
11/2/2020 7:15:00 AM 4.39 39.902 0.171 7.57 2.44 12.5
11/2/2020 7:30:00 AM 4.34 39.812 0.171 7.58 2.45 12.56
11/2/2020 7:45:00 AM 4.34 39.812 0.171 7.61 2.4 12.62
11/2/2020 8:00:00 AM 4.34 39.812 0.171 7.62 2.39 12.67
11/2/2020 8:15:00 AM 4.32 39.776 0.171 7.63 2.46 12.7
11/2/2020 8:30:00 AM 4.3 39.74 0.171 7.64 2.43 12.73
11/2/2020 8:45:00 AM 4.32 39.776 0.171 7.65 2.43 12.78
11/2/2020 9:00:00 AM 4.33 39.794 0.171 7.67 2.39 12.81
11/2/2020 9:15:00 AM 4.34 39.812 0.171 7.69 2.42 12.83
11/2/2020 9:30:00 AM 4.39 39.902 0.17 7.7 2.36 12.87
11/2/2020 9:45:00 AM 4.46 40.028 0.17 7.72 2.3 12.87
11/2/2020 10:00:00 AM 4.56 40.208 0.17 7.73 2.33 12.87
11/2/2020 10:15:00 AM 4.65 40.37 0.17 7.74 2.29 12.86
11/2/2020 10:30:00 AM 4.74 40.532 0.17 7.75 2.3 12.84
11/2/2020 10:45:00 AM 4.83 40.694 0.17 7.76 2.28 12.82
11/2/2020 11:00:00 AM 4.91 40.838 0.17 7.77 2.28 12.81
11/2/2020 11:15:00 AM 4.94 40.892 0.17 7.76 2.27 12.8
11/2/2020 11:30:00 AM 4.95 40.91 0.17 7.76 2.26 12.79
11/2/2020 11:45:00 AM 4.95 40.91 0.17 7.76 2.25 12.79
11/2/2020 12:00:00 PM 5.03 41.054 0.17 7.77 2.21 12.78
11/2/2020 12:15:00 PM 5.11 41.198 0.17 7.78 2.29 12.76
11/2/2020 12:30:00 PM 5.21 41.378 0.17 7.78 2.3 12.72
11/2/2020 12:45:00 PM 5.34 41.612 0.17 7.79 2.23 12.68
11/2/2020 1:00:00 PM 5.46 41.828 0.17 7.79 2.31 12.63
11/2/2020 1:15:00 PM 5.55 41.99 0.17 7.79 2.22 12.58
11/2/2020 1:30:00 PM 5.65 42.17 0.17 7.79 2.21 12.54
11/2/2020 1:45:00 PM 5.76 42.368 0.17 7.8 2.23 12.51
11/2/2020 2:00:00 PM 5.83 42.494 0.17 7.8 2.19 12.48
11/2/2020 2:15:00 PM 5.87 42.566 0.17 7.79 2.21 12.45
11/2/2020 2:30:00 PM 5.88 42.584 0.17 7.78 2.24 12.42
11/2/2020 2:45:00 PM 5.87 42.566 0.17 7.77 2.21 12.4
11/2/2020 3:00:00 PM 5.84 42.512 0.17 7.77 2.2 12.4
11/2/2020 3:15:00 PM 5.8 42.44 0.17 7.77 2.23 12.39
11/2/2020 3:30:00 PM 5.75 42.35 0.171 7.76 2.21 12.39
11/2/2020 3:45:00 PM 5.67 42.206 0.171 7.74 2.23 12.4
11/2/2020 4:00:00 PM 5.6 42.08 0.171 7.73 2.18 12.39
11/2/2020 4:15:00 PM 5.5 41.9 0.171 7.72 2.21 12.4
11/2/2020 4:30:00 PM 5.42 41.756 0.171 7.71 2.22 12.41
11/2/2020 4:45:00 PM 5.33 41.594 0.171 7.69 2.28 12.39
11/2/2020 5:00:00 PM 5.27 41.486 0.171 7.68 2.26 12.38
11/2/2020 5:15:00 PM 5.21 41.378 0.172 7.66 2.31 12.36
11/2/2020 5:30:00 PM 5.17 41.306 0.172 7.65 2.3 12.35
11/2/2020 5:45:00 PM 5.13 41.234 0.172 7.63 2.27 12.34
11/2/2020 6:00:00 PM 5.11 41.198 0.172 7.63 2.26 12.34
11/2/2020 6:15:00 PM 5.08 41.144 0.172 7.62 2.23 12.32
11/2/2020 6:30:00 PM 5.06 41.108 0.172 7.61 2.22 12.33
11/2/2020 6:45:00 PM 5.01 41.018 0.172 7.61 2.25 12.32
11/2/2020 7:00:00 PM 4.98 40.964 0.172 7.61 2.18 12.33
11/2/2020 7:15:00 PM 4.93 40.874 0.172 7.6 2.24 12.35
11/2/2020 7:30:00 PM 4.89 40.802 0.172 7.6 2.24 12.34
11/2/2020 7:45:00 PM 4.84 40.712 0.172 7.6 2.26 12.37
11/2/2020 8:00:00 PM 4.79 40.622 0.172 7.59 2.28 12.37
11/2/2020 8:15:00 PM 4.74 40.532 0.172 7.58 2.24 12.39
11/2/2020 8:30:00 PM 4.69 40.442 0.173 7.58 2.29 12.4
11/2/2020 8:45:00 PM 4.64 40.352 0.173 7.58 2.21 12.42
11/2/2020 9:00:00 PM 4.6 40.28 0.173 7.58 2.28 12.43
11/2/2020 9:15:00 PM 4.56 40.208 0.173 7.58 2.19 12.44
11/2/2020 9:30:00 PM 4.54 40.172 0.173 7.58 2.18 12.46
11/2/2020 9:45:00 PM 4.52 40.136 0.173 7.58 2.18 12.46
11/2/2020 10:00:00 PM 4.5 40.1 0.173 7.58 2.23 12.46
11/2/2020 10:15:00 PM 4.48 40.064 0.173 7.59 2.23 12.46
11/2/2020 10:30:00 PM 4.47 40.046 0.173 7.58 2.17 12.46
11/2/2020 10:45:00 PM 4.43 39.974 0.173 7.58 2.16 12.47
11/2/2020 11:00:00 PM 4.41 39.938 0.173 7.58 2.22 12.47
11/2/2020 11:15:00 PM 4.38 39.884 0.173 7.58 2.21 12.48
11/2/2020 11:30:00 PM 4.35 39.83 0.173 7.58 2.14 12.49
11/2/2020 11:45:00 PM 4.32 39.776 0.173 7.58 2.19 12.5
11/3/2020 12:00:00 AM 4.29 39.722 0.174 7.58 2.18 12.5
11/3/2020 12:15:00 AM 4.26 39.668 0.174 7.58 2.17 12.51
11/3/2020 12:30:00 AM 4.24 39.632 0.174 7.58 2.23 12.52
11/3/2020 12:45:00 AM 4.22 39.596 0.174 7.58 2.25 12.53
11/3/2020 1:00:00 AM 4.2 39.56 0.174 7.58 2.29 12.54
11/3/2020 1:15:00 AM 4.18 39.524 0.174 7.58 2.24 12.54
11/3/2020 1:30:00 AM 4.16 39.488 0.174 7.58 2.22 12.55
11/3/2020 1:45:00 AM 4.15 39.47 0.174 7.58 2.22 12.55
11/3/2020 2:00:00 AM 4.14 39.452 0.174 7.58 2.17 12.55
11/3/2020 2:15:00 AM 4.14 39.452 0.174 7.58 2.19 12.56
11/3/2020 2:30:00 AM 4.13 39.434 0.174 7.58 2.18 12.56
11/3/2020 2:45:00 AM 4.13 39.434 0.174 7.58 2.15 12.56
11/3/2020 3:00:00 AM 4.12 39.416 0.174 7.59 2.16 12.56
11/3/2020 3:15:00 AM 4.11 39.398 0.174 7.59 2.17 12.56
11/3/2020 3:30:00 AM 4.1 39.38 0.174 7.58 2.18 12.57
11/3/2020 3:45:00 AM 4.08 39.344 0.174 7.58 2.17 12.57
11/3/2020 4:00:00 AM 4.07 39.326 0.174 7.59 2.18 12.58
11/3/2020 4:15:00 AM 4.05 39.29 0.175 7.58 2.13 12.59
11/3/2020 4:30:00 AM 4.05 39.29 0.175 7.59 2.14 12.59
11/3/2020 4:45:00 AM 4.04 39.272 0.175 7.59 2.15 12.6
11/3/2020 5:00:00 AM 4.03 39.254 0.175 7.59 2.16 12.61
11/3/2020 5:15:00 AM 4.02 39.236 0.175 7.59 2.12 12.62
11/3/2020 5:30:00 AM 4.01 39.218 0.175 7.59 2.19 12.63
11/3/2020 5:45:00 AM 4.01 39.218 0.175 7.59 2.18 12.64
11/3/2020 6:00:00 AM 4.02 39.236 0.175 7.59 2.14 12.64
11/3/2020 6:15:00 AM 4.02 39.236 0.175 7.59 2.19 12.64
11/3/2020 6:30:00 AM 4.04 39.272 0.175 7.59 2.15 12.64
11/3/2020 6:45:00 AM 4.06 39.308 0.175 7.6 2.15 12.64
11/3/2020 7:00:00 AM 4.08 39.344 0.175 7.6 2.13 12.66
11/3/2020 7:15:00 AM 4.09 39.362 0.175 7.6 2.18 12.68
11/3/2020 7:30:00 AM 4.12 39.416 0.175 7.62 2.2 12.72
11/3/2020 7:45:00 AM 4.17 39.506 0.175 7.63 2.16 12.74
11/3/2020 8:00:00 AM 4.21 39.578 0.175 7.64 2.14 12.77
11/3/2020 8:15:00 AM 4.27 39.686 0.175 7.66 2.12 12.8
11/3/2020 8:30:00 AM 4.32 39.776 0.175 7.66 2.13 12.79
11/3/2020 8:45:00 AM 4.38 39.884 0.175 7.66 2.14 12.77
11/3/2020 9:00:00 AM 4.43 39.974 0.175 7.67 2.13 12.78
11/3/2020 9:15:00 AM 4.49 40.082 0.175 7.69 2.16 12.78
11/3/2020 9:30:00 AM 4.55 40.19 0.175 7.7 2.17 12.79
11/3/2020 9:45:00 AM 4.61 40.298 0.175 7.7 2.13 12.8
11/3/2020 10:00:00 AM 4.69 40.442 0.175 7.72 2.14 12.82
11/3/2020 10:15:00 AM 4.76 40.568 0.175 7.73 2.16 12.82
11/3/2020 10:30:00 AM 4.83 40.694 0.175 7.74 2.11 12.81
11/3/2020 10:45:00 AM 4.9 40.82 0.175 7.74 2.11 12.81
11/3/2020 11:00:00 AM 4.98 40.964 0.174 7.76 2.11 12.81
11/3/2020 11:15:00 AM 5.08 41.144 0.174 7.77 2.13 12.82
11/3/2020 11:30:00 AM 5.19 41.342 0.174 7.79 2.11 12.82
11/3/2020 11:45:00 AM 5.32 41.576 0.174 7.81 2.11 12.8
11/3/2020 12:00:00 PM 5.46 41.828 0.174 7.82 2.08 12.78
11/3/2020 12:15:00 PM 5.61 42.098 0.174 7.83 2.05 12.76
11/3/2020 12:30:00 PM 5.78 42.404 0.174 7.85 2.08 12.72
11/3/2020 12:45:00 PM 5.93 42.674 0.174 7.85 2.04 12.68
11/3/2020 1:00:00 PM 6.15 43.07 0.174 7.86 2.08 12.64
11/3/2020 1:15:00 PM 6.34 43.412 0.174 7.87 2.06 12.59
11/3/2020 1:30:00 PM 6.54 43.772 0.174 7.89 2.06 12.54
11/3/2020 1:45:00 PM 6.69 44.042 0.174 7.89 2.05 12.49
11/3/2020 2:00:00 PM 6.8 44.24 0.174 7.89 2.06 12.44
11/3/2020 2:15:00 PM 6.83 44.294 0.174 7.87 2.06 12.38
11/3/2020 2:30:00 PM 6.83 44.294 0.174 7.86 2.06 12.32
11/3/2020 2:45:00 PM 6.86 44.348 0.174 7.86 2.07 12.34
11/3/2020 3:00:00 PM 6.85 44.33 0.174 7.86 2.07 12.34
11/3/2020 3:15:00 PM 6.83 44.294 0.174 7.85 2.09 12.32
11/3/2020 3:30:00 PM 6.85 44.33 0.174 7.85 2.07 12.3
11/3/2020 3:45:00 PM 6.86 44.348 0.174 7.84 2.08 12.27
11/3/2020 4:00:00 PM 6.86 44.348 0.174 7.83 2.08 12.25
11/3/2020 4:15:00 PM 6.81 44.258 0.174 7.81 2.08 12.22
11/3/2020 4:30:00 PM 6.72 44.096 0.174 7.79 2.1 12.17
11/3/2020 4:45:00 PM 6.64 43.952 0.174 7.76 2.12 12.14
11/3/2020 5:00:00 PM 6.55 43.79 0.174 7.72 2.11 12.11
11/3/2020 5:15:00 PM 6.46 43.628 0.174 7.7 2.13 12.09
11/3/2020 5:30:00 PM 6.38 43.484 0.174 7.68 2.14 12.07
11/3/2020 5:45:00 PM 6.3 43.34 0.175 7.66 2.14 12.06
11/3/2020 6:00:00 PM 6.22 43.196 0.175 7.63 2.15 12.05
11/3/2020 6:15:00 PM 6.15 43.07 0.175 7.63 2.12 12.06
11/3/2020 6:30:00 PM 6.08 42.944 0.175 7.62 2.19 12.07
11/3/2020 6:45:00 PM 6.02 42.836 0.175 7.61 2.16 12.08
11/3/2020 7:00:00 PM 5.95 42.71 0.175 7.6 2.15 12.11
11/3/2020 7:15:00 PM 5.88 42.584 0.175 7.6 2.14 12.13
11/3/2020 7:30:00 PM 5.82 42.476 0.175 7.6 2.15 12.14
11/3/2020 7:45:00 PM 5.75 42.35 0.175 7.59 2.13 12.16
11/3/2020 8:00:00 PM 5.69 42.242 0.175 7.58 2.14 12.17
11/3/2020 8:15:00 PM 5.63 42.134 0.175 7.58 2.14 12.19
11/3/2020 8:30:00 PM 5.57 42.026 0.175 7.58 2.16 12.21
11/3/2020 8:45:00 PM 5.51 41.918 0.175 7.58 2.17 12.23
11/3/2020 9:00:00 PM 5.44 41.792 0.176 7.58 2.13 12.26
11/3/2020 9:15:00 PM 5.38 41.684 0.176 7.57 2.19 12.28
11/3/2020 9:30:00 PM 5.32 41.576 0.176 7.57 2.13 12.3
11/3/2020 9:45:00 PM 5.26 41.468 0.176 7.56 2.14 12.32
11/3/2020 10:00:00 PM 5.2 41.36 0.176 7.57 2.12 12.34
11/3/2020 10:15:00 PM 5.14 41.252 0.176 7.56 2.16 12.37
11/3/2020 10:30:00 PM 5.07 41.126 0.176 7.56 2.17 12.39
11/3/2020 10:45:00 PM 5.01 41.018 0.176 7.56 2.14 12.41
11/3/2020 11:00:00 PM 4.95 40.91 0.176 7.56 2.14 12.43
11/3/2020 11:15:00 PM 4.89 40.802 0.176 7.56 2.14 12.44
11/3/2020 11:30:00 PM 4.84 40.712 0.176 7.56 2.13 12.47
11/3/2020 11:45:00 PM 4.78 40.604 0.176 7.55 2.1 12.5
11/4/2020 12:00:00 AM 4.72 40.496 0.176 7.55 2.13 12.52
11/4/2020 12:15:00 AM 4.67 40.406 0.176 7.56 2.12 12.54
11/4/2020 12:30:00 AM 4.62 40.316 0.176 7.55 2.15 12.56
11/4/2020 12:45:00 AM 4.56 40.208 0.176 7.55 2.18 12.58
11/4/2020 1:00:00 AM 4.51 40.118 0.176 7.55 2.13 12.6
11/4/2020 1:15:00 AM 4.45 40.01 0.176 7.55 2.12 12.61
11/4/2020 1:30:00 AM 4.4 39.92 0.176 7.55 2.16 12.62
11/4/2020 1:45:00 AM 4.35 39.83 0.176 7.55 2.15 12.65
11/4/2020 2:00:00 AM 4.3 39.74 0.176 7.55 2.15 12.66
11/4/2020 2:15:00 AM 4.25 39.65 0.176 7.55 2.14 12.69
11/4/2020 2:30:00 AM 4.2 39.56 0.176 7.55 2.17 12.71
11/4/2020 2:45:00 AM 4.16 39.488 0.176 7.54 2.13 12.73
11/4/2020 3:00:00 AM 4.11 39.398 0.176 7.55 2.11 12.75
11/4/2020 3:15:00 AM 4.07 39.326 0.176 7.55 2.16 12.77
11/4/2020 3:30:00 AM 4.02 39.236 0.176 7.55 2.13 12.79
11/4/2020 3:45:00 AM 3.97 39.146 0.176 7.54 2.11 12.81
11/4/2020 4:00:00 AM 3.93 39.074 0.176 7.55 2.39 12.83
11/4/2020 4:15:00 AM 3.89 39.002 0.176 7.55 2.12 12.85
11/4/2020 4:30:00 AM 3.84 38.912 0.176 7.55 2.13 12.86
11/4/2020 4:45:00 AM 3.8 38.84 0.176 7.54 2.15 12.87
11/4/2020 5:00:00 AM 3.76 38.768 0.176 7.54 2.14 12.88
11/4/2020 5:15:00 AM 3.72 38.696 0.176 7.55 2.12 12.9
11/4/2020 5:30:00 AM 3.68 38.624 0.176 7.54 2.14 12.92
11/4/2020 5:45:00 AM 3.63 38.534 0.176 7.54 2.16 12.93
11/4/2020 6:00:00 AM 3.59 38.462 0.176 7.55 2.13 12.96
11/4/2020 6:15:00 AM 3.55 38.39 0.176 7.54 2.14 12.97
11/4/2020 6:30:00 AM 3.51 38.318 0.176 7.54 2.12 13
11/4/2020 6:45:00 AM 3.48 38.264 0.176 7.54 2.16 13.01
11/4/2020 7:00:00 AM 3.44 38.192 0.176 7.55 2.19 13.05
11/4/2020 7:15:00 AM 3.41 38.138 0.176 7.55 2.13 13.09
11/4/2020 7:30:00 AM 3.39 38.102 0.176 7.56 2.14 13.13
11/4/2020 7:45:00 AM 3.37 38.066 0.176 7.57 2.11 13.18
11/4/2020 8:00:00 AM 3.37 38.066 0.176 7.58 2.14 13.23
11/4/2020 8:15:00 AM 3.36 38.048 0.176 7.59 2.15 13.27
11/4/2020 8:30:00 AM 3.39 38.102 0.176 7.61 2.17 13.31
11/4/2020 8:45:00 AM 3.45 38.21 0.176 7.63 2.15 13.34
11/4/2020 9:00:00 AM 3.53 38.354 0.176 7.65 2.19 13.36
11/4/2020 9:15:00 AM 3.61 38.498 0.176 7.66 2.12 13.37
11/4/2020 9:30:00 AM 3.7 38.66 0.175 7.68 2.13 13.36
11/4/2020 9:45:00 AM 3.85 38.93 0.175 7.71 2.11 13.35
11/4/2020 10:00:00 AM 4.02 39.236 0.175 7.72 2.1 13.33
11/4/2020 10:15:00 AM 4.21 39.578 0.175 7.74 2.13 13.29
11/4/2020 10:30:00 AM 4.42 39.956 0.175 7.76 2.06 13.24
11/4/2020 10:45:00 AM 4.64 40.352 0.175 7.77 2.07 13.18
11/4/2020 11:00:00 AM 4.87 40.766 0.175 7.78 2.04 13.12
11/4/2020 11:15:00 AM 5.09 41.162 0.174 7.8 2.06 13.06
11/4/2020 11:30:00 AM 5.29 41.522 0.174 7.8 2.05 12.99
11/4/2020 11:45:00 AM 5.5 41.9 0.174 7.81 1.99 12.93
11/4/2020 12:00:00 PM 5.69 42.242 0.174 7.81 2.02 12.88
11/4/2020 12:15:00 PM 5.87 42.566 0.174 7.83 2.01 12.81
11/4/2020 12:30:00 PM 6.05 42.89 0.174 7.82 2 12.75
11/4/2020 12:45:00 PM 6.24 43.232 0.174 7.84 1.99 12.69
11/4/2020 1:00:00 PM 6.41 43.538 0.174 7.84 2.02 12.63
11/4/2020 1:15:00 PM 6.57 43.826 0.174 7.84 2 12.56
11/4/2020 1:30:00 PM 6.72 44.096 0.174 7.83 2.02 12.5
11/4/2020 1:45:00 PM 6.88 44.384 0.173 7.84 2.05 12.44
11/4/2020 2:00:00 PM 7.01 44.618 0.173 7.84 2.03 12.38
11/4/2020 2:15:00 PM 7.13 44.834 0.173 7.83 2 12.33
11/4/2020 2:30:00 PM 7.22 44.996 0.173 7.83 1.97 12.28
11/4/2020 2:45:00 PM 7.28 45.104 0.173 7.83 2.02 12.24
11/4/2020 3:00:00 PM 7.32 45.176 0.173 7.82 2 12.21
11/4/2020 3:15:00 PM 7.33 45.194 0.173 7.82 2.06 12.18
11/4/2020 3:30:00 PM 7.33 45.194 0.173 7.81 2.03 12.15
11/4/2020 3:45:00 PM 7.31 45.158 0.173 7.79 1.99 12.12
11/4/2020 4:00:00 PM 7.28 45.104 0.173 7.78 2.05 12.08
11/4/2020 4:15:00 PM 7.22 44.996 0.173 7.76 1.97 12.06
11/4/2020 4:30:00 PM 7.16 44.888 0.173 7.75 2.01 12.04
11/4/2020 4:45:00 PM 7.1 44.78 0.174 7.73 2.03 12.02
11/4/2020 5:00:00 PM 7.03 44.654 0.174 7.71 2.01 11.98
11/4/2020 5:15:00 PM 6.96 44.528 0.174 7.68 2.02 11.95
11/4/2020 5:30:00 PM 6.9 44.42 0.174 7.66 2.07 11.92
11/4/2020 5:45:00 PM 6.85 44.33 0.174 7.64 2.06 11.91
11/4/2020 6:00:00 PM 6.8 44.24 0.174 7.63 2.04 11.9
11/4/2020 6:15:00 PM 6.76 44.168 0.174 7.62 2.08 11.91
11/4/2020 6:30:00 PM 6.72 44.096 0.174 7.6 2.09 11.9
11/4/2020 6:45:00 PM 6.68 44.024 0.174 7.6 2.07 11.9
11/4/2020 7:00:00 PM 6.64 43.952 0.174 7.59 2.08 11.91
11/4/2020 7:15:00 PM 6.6 43.88 0.174 7.58 2.07 11.92
11/4/2020 7:30:00 PM 6.55 43.79 0.175 7.58 2.02 11.93
11/4/2020 7:45:00 PM 6.5 43.7 0.175 7.57 2.06 11.94
11/4/2020 8:00:00 PM 6.45 43.61 0.175 7.57 2.05 11.96
11/4/2020 8:15:00 PM 6.39 43.502 0.175 7.56 2.08 11.97
11/4/2020 8:30:00 PM 6.32 43.376 0.175 7.56 2.07 11.99
11/4/2020 8:45:00 PM 6.25 43.25 0.175 7.56 2.12 12.01
11/4/2020 9:00:00 PM 6.19 43.142 0.175 7.55 2.06 12.04
11/4/2020 9:15:00 PM 6.12 43.016 0.175 7.55 2.04 12.06
11/4/2020 9:30:00 PM 6.05 42.89 0.175 7.55 2.01 12.08
11/4/2020 9:45:00 PM 5.99 42.782 0.175 7.54 2.05 12.1
11/4/2020 10:00:00 PM 5.94 42.692 0.175 7.55 2.03 12.12
11/4/2020 10:15:00 PM 5.88 42.584 0.175 7.55 2.08 12.14
11/4/2020 10:30:00 PM 5.83 42.494 0.175 7.54 2.04 12.16
11/4/2020 10:45:00 PM 5.79 42.422 0.175 7.54 2.05 12.17
11/4/2020 11:00:00 PM 5.75 42.35 0.176 7.54 2.04 12.18
11/4/2020 11:15:00 PM 5.7 42.26 0.176 7.54 2.03 12.2
11/4/2020 11:30:00 PM 5.66 42.188 0.176 7.54 2.07 12.21
11/4/2020 11:45:00 PM 5.62 42.116 0.176 7.54 2 12.22
11/5/2020 12:00:00 AM 5.58 42.044 0.176 7.54 2.01 12.23
11/5/2020 12:15:00 AM 5.55 41.99 0.176 7.54 2.01 12.25
11/5/2020 12:30:00 AM 5.51 41.918 0.176 7.54 2.02 12.26
11/5/2020 12:45:00 AM 5.47 41.846 0.176 7.54 2.01 12.27
11/5/2020 1:00:00 AM 5.43 41.774 0.176 7.54 2.1 12.28
11/5/2020 1:15:00 AM 5.39 41.702 0.176 7.54 2.07 12.3
11/5/2020 1:30:00 AM 5.35 41.63 0.176 7.54 2.06 12.31
11/5/2020 1:45:00 AM 5.3 41.54 0.176 7.54 2.03 12.33
11/5/2020 2:00:00 AM 5.27 41.486 0.176 7.54 2.04 12.34
11/5/2020 2:15:00 AM 5.22 41.396 0.176 7.54 2.02 12.35
11/5/2020 2:30:00 AM 5.19 41.342 0.176 7.54 2.01 12.37
11/5/2020 2:45:00 AM 5.15 41.27 0.176 7.54 2.04 12.37
11/5/2020 3:00:00 AM 5.11 41.198 0.176 7.54 2.03 12.38
11/5/2020 3:15:00 AM 5.07 41.126 0.176 7.54 2 12.4
11/5/2020 3:30:00 AM 5.03 41.054 0.176 7.54 2.03 12.41
11/5/2020 3:45:00 AM 5 41 0.176 7.54 2.01 12.42
11/5/2020 4:00:00 AM 4.96 40.928 0.176 7.53 2.02 12.43
11/5/2020 4:15:00 AM 4.92 40.856 0.176 7.53 2.04 12.44
11/5/2020 4:30:00 AM 4.88 40.784 0.176 7.53 2.03 12.47
11/5/2020 4:45:00 AM 4.84 40.712 0.177 7.53 2.01 12.48
11/5/2020 5:00:00 AM 4.81 40.658 0.177 7.53 2.01 12.49
11/5/2020 5:15:00 AM 4.77 40.586 0.177 7.54 2.01 12.51
11/5/2020 5:30:00 AM 4.73 40.514 0.177 7.54 1.98 12.52
11/5/2020 5:45:00 AM 4.69 40.442 0.177 7.53 2.04 12.54
11/5/2020 6:00:00 AM 4.65 40.37 0.177 7.53 2.01 12.55
11/5/2020 6:15:00 AM 4.61 40.298 0.177 7.53 2.02 12.57
11/5/2020 6:30:00 AM 4.57 40.226 0.177 7.53 1.97 12.58
11/5/2020 6:45:00 AM 4.53 40.154 0.177 7.54 2 12.6
11/5/2020 7:00:00 AM 4.49 40.082 0.177 7.54 1.98 12.63
11/5/2020 7:15:00 AM 4.46 40.028 0.177 7.54 2 12.67
11/5/2020 7:30:00 AM 4.44 39.992 0.177 7.55 2 12.74
11/5/2020 7:45:00 AM 4.42 39.956 0.177 7.57 2 12.8
11/5/2020 8:00:00 AM 4.41 39.938 0.177 7.58 2 12.84
11/5/2020 8:15:00 AM 4.41 39.938 0.177 7.59 1.98 12.89
11/5/2020 8:30:00 AM 4.43 39.974 0.177 7.61 2 12.93
11/5/2020 8:45:00 AM 4.49 40.082 0.177 7.63 1.99 12.98
11/5/2020 9:00:00 AM 4.57 40.226 0.176 7.66 2.02 13.02
11/5/2020 9:15:00 AM 4.64 40.352 0.176 7.68 1.97 13.03
11/5/2020 9:30:00 AM 4.72 40.496 0.176 7.7 1.97 13.05
11/5/2020 9:45:00 AM 4.85 40.73 0.176 7.72 1.97 13.06
11/5/2020 10:00:00 AM 5.01 41.018 0.176 7.75 1.96 13.04
11/5/2020 10:15:00 AM 5.21 41.378 0.176 7.77 1.92 13
11/5/2020 10:30:00 AM 5.42 41.756 0.176 7.8 1.94 12.97
11/5/2020 10:45:00 AM 5.65 42.17 0.176 7.82 1.9 12.92
11/5/2020 11:00:00 AM 5.9 42.62 0.175 7.84 1.9 12.85
11/5/2020 11:15:00 AM 6.15 43.07 0.175 7.84 1.9 12.79
11/5/2020 11:30:00 AM 6.38 43.484 0.175 7.86 1.92 12.73
11/5/2020 11:45:00 AM 6.6 43.88 0.175 7.88 1.94 12.67
11/5/2020 12:00:00 PM 6.8 44.24 0.175 7.89 1.93 12.62
11/5/2020 12:15:00 PM 6.99 44.582 0.175 7.91 1.93 12.57
11/5/2020 12:30:00 PM 7.19 44.942 0.175 7.92 1.91 12.53
11/5/2020 12:45:00 PM 7.36 45.248 0.175 7.93 1.89 12.5
11/5/2020 1:00:00 PM 7.52 45.536 0.175 7.93 1.9 12.44
11/5/2020 1:15:00 PM 7.67 45.806 0.175 7.94 1.88 12.39
11/5/2020 1:30:00 PM 7.82 46.076 0.175 7.95 1.92 12.36
11/5/2020 1:45:00 PM 7.98 46.364 0.175 7.96 1.86 12.32
11/5/2020 2:00:00 PM 8.13 46.634 0.175 7.98 1.88 12.28
11/5/2020 2:15:00 PM 8.27 46.886 0.174 7.98 1.86 12.23
11/5/2020 2:30:00 PM 8.38 47.084 0.174 7.98 1.86 12.18
11/5/2020 2:45:00 PM 8.46 47.228 0.174 7.98 1.9 12.11
11/5/2020 3:00:00 PM 8.51 47.318 0.174 7.97 1.92 12.06
11/5/2020 3:15:00 PM 8.53 47.354 0.174 7.96 1.89 12.02
11/5/2020 3:30:00 PM 8.53 47.354 0.174 7.95 1.88 11.98
11/5/2020 3:45:00 PM 8.5 47.3 0.174 7.92 1.9 11.93
11/5/2020 4:00:00 PM 8.45 47.21 0.174 7.9 1.93 11.88
11/5/2020 4:15:00 PM 8.39 47.102 0.174 7.87 1.91 11.83
11/5/2020 4:30:00 PM 8.32 46.976 0.174 7.84 1.9 11.77
11/5/2020 4:45:00 PM 8.24 46.832 0.174 7.8 1.9 11.72
11/5/2020 5:00:00 PM 8.16 46.688 0.175 7.77 1.88 11.66
11/5/2020 5:15:00 PM 8.08 46.544 0.175 7.73 1.9 11.62
11/5/2020 5:30:00 PM 8.01 46.418 0.175 7.7 1.93 11.59
11/5/2020 5:45:00 PM 7.94 46.292 0.175 7.66 2.01 11.56
11/5/2020 6:00:00 PM 7.87 46.166 0.175 7.64 2 11.55
11/5/2020 6:15:00 PM 7.81 46.058 0.175 7.63 1.96 11.54
11/5/2020 6:30:00 PM 7.76 45.968 0.175 7.61 1.96 11.53
11/5/2020 6:45:00 PM 7.7 45.86 0.175 7.6 1.97 11.54
11/5/2020 7:00:00 PM 7.66 45.788 0.175 7.59 1.99 11.53
11/5/2020 7:15:00 PM 7.62 45.716 0.175 7.59 1.98 11.54
11/5/2020 7:30:00 PM 7.58 45.644 0.175 7.58 1.96 11.55
11/5/2020 7:45:00 PM 7.53 45.554 0.175 7.57 1.93 11.56
11/5/2020 8:00:00 PM 7.49 45.482 0.176 7.57 1.98 11.57
11/5/2020 8:15:00 PM 7.44 45.392 0.176 7.57 1.95 11.57
11/5/2020 8:30:00 PM 7.39 45.302 0.176 7.56 1.96 11.59
11/5/2020 8:45:00 PM 7.34 45.212 0.176 7.56 1.95 11.61
11/5/2020 9:00:00 PM 7.28 45.104 0.176 7.55 1.92 11.61
11/5/2020 9:15:00 PM 7.22 44.996 0.176 7.55 1.93 11.62
11/5/2020 9:30:00 PM 7.15 44.87 0.176 7.55 1.93 11.65
11/5/2020 9:45:00 PM 7.09 44.762 0.176 7.55 1.93 11.67
11/5/2020 10:00:00 PM 7.03 44.654 0.176 7.54 1.95 11.69
11/5/2020 10:15:00 PM 6.97 44.546 0.176 7.54 1.92 11.7
11/5/2020 10:30:00 PM 6.92 44.456 0.176 7.54 1.91 11.73
11/5/2020 10:45:00 PM 6.86 44.348 0.176 7.54 1.92 11.75
11/5/2020 11:00:00 PM 6.81 44.258 0.176 7.54 1.9 11.76
11/5/2020 11:15:00 PM 6.76 44.168 0.176 7.54 1.91 11.78
11/5/2020 11:30:00 PM 6.72 44.096 0.176 7.54 1.94 11.79
11/5/2020 11:45:00 PM 6.69 44.042 0.176 7.54 1.9 11.8
11/6/2020 12:00:00 AM 6.65 43.97 0.177 7.54 1.9 11.81
11/6/2020 12:15:00 AM 6.61 43.898 0.177 7.54 1.92 11.82
11/6/2020 12:30:00 AM 6.58 43.844 0.177 7.54 1.93 11.83
11/6/2020 12:45:00 AM 6.55 43.79 0.177 7.54 1.89 11.85
11/6/2020 1:00:00 AM 6.51 43.718 0.177 7.54 1.87 11.86
11/6/2020 1:15:00 AM 6.48 43.664 0.177 7.54 1.88 11.87
11/6/2020 1:30:00 AM 6.45 43.61 0.177 7.54 1.9 11.88
11/6/2020 1:45:00 AM 6.42 43.556 0.177 7.53 1.9 11.89
11/6/2020 2:00:00 AM 6.39 43.502 0.177 7.54 1.92 11.9
11/6/2020 2:15:00 AM 6.36 43.448 0.177 7.54 1.91 11.92
11/6/2020 2:30:00 AM 6.33 43.394 0.177 7.54 1.88 11.92
11/6/2020 2:45:00 AM 6.29 43.322 0.177 7.53 1.91 11.93
11/6/2020 3:00:00 AM 6.26 43.268 0.177 7.53 1.89 11.94
11/6/2020 3:15:00 AM 6.24 43.232 0.177 7.53 1.9 11.95
11/6/2020 3:30:00 AM 6.22 43.196 0.177 7.53 1.87 11.96
11/6/2020 3:45:00 AM 6.2 43.16 0.177 7.53 1.89 11.97
11/6/2020 4:00:00 AM 6.17 43.106 0.177 7.53 1.93 11.97
11/6/2020 4:15:00 AM 6.15 43.07 0.177 7.53 1.87 11.98
11/6/2020 4:30:00 AM 6.12 43.016 0.177 7.53 1.9 11.97
11/6/2020 4:45:00 AM 6.09 42.962 0.177 7.53 1.89 12
11/6/2020 5:00:00 AM 6.06 42.908 0.177 7.53 1.88 12
11/6/2020 5:15:00 AM 6.02 42.836 0.177 7.53 1.9 12.02
11/6/2020 5:30:00 AM 5.97 42.746 0.177 7.53 1.87 12.02
11/6/2020 5:45:00 AM 5.92 42.656 0.177 7.52 1.92 12.04
11/6/2020 6:00:00 AM 5.87 42.566 0.177 7.52 1.91 12.06
11/6/2020 6:15:00 AM 5.82 42.476 0.177 7.52 1.89 12.07
11/6/2020 6:30:00 AM 5.76 42.368 0.177 7.52 1.89 12.09
11/6/2020 6:45:00 AM 5.71 42.278 0.177 7.52 1.91 12.11
11/6/2020 7:00:00 AM 5.66 42.188 0.177 7.52 1.92 12.16
11/6/2020 7:15:00 AM 5.62 42.116 0.177 7.53 1.92 12.21
11/6/2020 7:30:00 AM 5.58 42.044 0.177 7.55 1.87 12.29
11/6/2020 7:45:00 AM 5.55 41.99 0.177 7.56 1.96 12.35
11/6/2020 8:00:00 AM 5.54 41.972 0.177 7.57 1.89 12.43
11/6/2020 8:15:00 AM 5.53 41.954 0.177 7.59 1.89 12.49
11/6/2020 8:30:00 AM 5.54 41.972 0.177 7.61 1.86 12.56
11/6/2020 8:45:00 AM 5.59 42.062 0.177 7.64 1.86 12.63
11/6/2020 9:00:00 AM 5.67 42.206 0.177 7.67 1.88 12.68
11/6/2020 9:15:00 AM 5.75 42.35 0.176 7.7 1.85 12.72
11/6/2020 9:30:00 AM 5.81 42.458 0.176 7.73 1.88 12.74
11/6/2020 9:45:00 AM 5.93 42.674 0.176 7.75 1.88 12.76
11/6/2020 10:00:00 AM 6.08 42.944 0.176 7.79 1.85 12.76
11/6/2020 10:15:00 AM 6.25 43.25 0.176 7.82 1.84 12.73
11/6/2020 10:30:00 AM 6.44 43.592 0.176 7.85 1.84 12.71
11/6/2020 10:45:00 AM 6.65 43.97 0.175 7.88 1.82 12.67
11/6/2020 11:00:00 AM 6.87 44.366 0.175 7.91 1.79 12.62
11/6/2020 11:15:00 AM 7.1 44.78 0.175 7.92 1.83 12.58
11/6/2020 11:30:00 AM 7.32 45.176 0.175 7.94 1.83 12.51
11/6/2020 11:45:00 AM 7.54 45.572 0.175 7.96 1.78 12.47
11/6/2020 12:00:00 PM 7.74 45.932 0.175 7.97 1.82 12.41
11/6/2020 12:15:00 PM 7.94 46.292 0.175 8 1.8 12.34
11/6/2020 12:30:00 PM 8.11 46.598 0.175 8 1.81 12.29
11/6/2020 12:45:00 PM 8.29 46.922 0.175 8.01 1.79 12.24
11/6/2020 1:00:00 PM 8.46 47.228 0.175 8.01 1.82 12.18
11/6/2020 1:15:00 PM 8.6 47.48 0.174 8.01 1.79 12.12
11/6/2020 1:30:00 PM 8.74 47.732 0.174 8.02 1.8 12.06
11/6/2020 1:45:00 PM 8.87 47.966 0.174 8 1.78 12
11/6/2020 2:00:00 PM 9 48.2 0.174 8.02 1.77 11.95
11/6/2020 2:15:00 PM 9.11 48.398 0.174 8.04 1.8 11.9
11/6/2020 2:30:00 PM 9.2 48.56 0.174 8.01 1.81 11.85
11/6/2020 2:45:00 PM 9.27 48.686 0.174 8 1.8 11.8
11/6/2020 3:00:00 PM 9.31 48.758 0.174 7.99 1.8 11.76
11/6/2020 3:15:00 PM 9.32 48.776 0.174 7.97 1.87 11.72
11/6/2020 3:30:00 PM 9.3 48.74 0.174 7.95 1.87 11.68
11/6/2020 3:45:00 PM 9.27 48.686 0.174 7.93 1.85 11.64
11/6/2020 4:00:00 PM 9.22 48.596 0.174 7.9 1.85 11.6
11/6/2020 4:15:00 PM 9.15 48.47 0.174 7.87 1.83 11.56
11/6/2020 4:30:00 PM 9.06 48.308 0.174 7.83 1.8 11.52
11/6/2020 4:45:00 PM 8.98 48.164 0.174 7.8 1.8 11.47
11/6/2020 5:00:00 PM 8.89 48.002 0.174 7.76 1.8 11.41
11/6/2020 5:15:00 PM 8.81 47.858 0.174 7.72 1.85 11.37
11/6/2020 5:30:00 PM 8.73 47.714 0.174 7.69 1.83 11.34
11/6/2020 5:45:00 PM 8.66 47.588 0.174 7.66 1.85 11.32
11/6/2020 6:00:00 PM 8.59 47.462 0.174 7.64 1.85 11.3
11/6/2020 6:15:00 PM 8.53 47.354 0.175 7.62 1.86 11.29
11/6/2020 6:30:00 PM 8.47 47.246 0.175 7.6 1.91 11.28
11/6/2020 6:45:00 PM 8.42 47.156 0.175 7.59 1.88 11.29
11/6/2020 7:00:00 PM 8.37 47.066 0.175 7.59 1.88 11.28
11/6/2020 7:15:00 PM 8.33 46.994 0.175 7.58 1.9 11.28
11/6/2020 7:30:00 PM 8.29 46.922 0.175 7.57 1.9 11.29
11/6/2020 7:45:00 PM 8.25 46.85 0.175 7.57 1.89 11.29
11/6/2020 8:00:00 PM 8.21 46.778 0.175 7.57 1.91 11.29
11/6/2020 8:15:00 PM 8.18 46.724 0.175 7.57 1.89 11.29
11/6/2020 8:30:00 PM 8.13 46.634 0.175 7.56 1.87 11.3
11/6/2020 8:45:00 PM 8.09 46.562 0.175 7.56 1.86 11.31
11/6/2020 9:00:00 PM 8.04 46.472 0.175 7.55 1.87 11.32
11/6/2020 9:15:00 PM 7.99 46.382 0.175 7.55 1.87 11.33
11/6/2020 9:30:00 PM 7.94 46.292 0.175 7.55 1.87 11.35
11/6/2020 9:45:00 PM 7.87 46.166 0.175 7.55 1.84 11.37
11/6/2020 10:00:00 PM 7.81 46.058 0.175 7.54 1.85 11.4
11/6/2020 10:15:00 PM 7.74 45.932 0.175 7.54 1.88 11.42
11/6/2020 10:30:00 PM 7.67 45.806 0.176 7.54 1.85 11.44
11/6/2020 10:45:00 PM 7.6 45.68 0.176 7.54 1.88 11.46
11/6/2020 11:00:00 PM 7.53 45.554 0.176 7.53 1.9 11.47
11/6/2020 11:15:00 PM 7.46 45.428 0.176 7.53 1.85 11.5
11/6/2020 11:30:00 PM 7.39 45.302 0.176 7.53 1.89 11.52
11/6/2020 11:45:00 PM 7.32 45.176 0.176 7.53 1.88 11.54
11/7/2020 12:00:00 AM 7.25 45.05 0.176 7.53 1.87 11.57
11/7/2020 12:15:00 AM 7.19 44.942 0.176 7.53 1.87 11.59
11/7/2020 12:30:00 AM 7.12 44.816 0.176 7.53 1.88 11.62
11/7/2020 12:45:00 AM 7.05 44.69 0.176 7.53 1.85 11.63
11/7/2020 1:00:00 AM 6.99 44.582 0.176 7.52 1.89 11.65
11/7/2020 1:15:00 AM 6.93 44.474 0.176 7.53 1.88 11.67
11/7/2020 1:30:00 AM 6.87 44.366 0.176 7.53 1.87 11.69
11/7/2020 1:45:00 AM 6.81 44.258 0.176 7.52 1.85 11.71
11/7/2020 2:00:00 AM 6.75 44.15 0.176 7.53 1.85 11.74
11/7/2020 2:15:00 AM 6.7 44.06 0.176 7.52 1.85 11.75
11/7/2020 2:30:00 AM 6.64 43.952 0.176 7.52 1.87 11.78
11/7/2020 2:45:00 AM 6.58 43.844 0.176 7.52 1.87 11.79
11/7/2020 3:00:00 AM 6.53 43.754 0.176 7.52 1.9 11.81
11/7/2020 3:15:00 AM 6.47 43.646 0.176 7.52 1.85 11.83
11/7/2020 3:30:00 AM 6.41 43.538 0.176 7.52 1.86 11.85
11/7/2020 3:45:00 AM 6.36 43.448 0.176 7.52 1.89 11.86
11/7/2020 4:00:00 AM 6.3 43.34 0.176 7.52 1.88 11.88
11/7/2020 4:15:00 AM 6.25 43.25 0.176 7.52 1.86 11.91
11/7/2020 4:30:00 AM 6.19 43.142 0.176 7.52 1.87 11.92
11/7/2020 4:45:00 AM 6.14 43.052 0.176 7.52 1.85 11.94
11/7/2020 5:00:00 AM 6.09 42.962 0.176 7.52 1.86 11.96
11/7/2020 5:15:00 AM 6.04 42.872 0.176 7.52 1.88 11.97
11/7/2020 5:30:00 AM 5.98 42.764 0.176 7.52 1.86 11.99
11/7/2020 5:45:00 AM 5.93 42.674 0.176 7.52 1.84 12.01
11/7/2020 6:00:00 AM 5.88 42.584 0.176 7.52 1.87 12.03
11/7/2020 6:15:00 AM 5.83 42.494 0.176 7.52 1.88 12.05
11/7/2020 6:30:00 AM 5.78 42.404 0.176 7.52 1.93 12.07
11/7/2020 6:45:00 AM 5.72 42.296 0.176 7.52 1.86 12.1
11/7/2020 7:00:00 AM 5.68 42.224 0.176 7.53 1.85 12.15
11/7/2020 7:15:00 AM 5.65 42.17 0.176 7.54 1.86 12.22
11/7/2020 7:30:00 AM 5.61 42.098 0.176 7.55 1.87 12.31
11/7/2020 7:45:00 AM 5.59 42.062 0.176 7.57 1.87 12.38
11/7/2020 8:00:00 AM 5.57 42.026 0.176 7.59 1.81 12.46
11/7/2020 8:15:00 AM 5.57 42.026 0.176 7.61 1.85 12.53
11/7/2020 8:30:00 AM 5.57 42.026 0.176 7.63 1.85 12.61
11/7/2020 8:45:00 AM 5.62 42.116 0.176 7.66 1.83 12.69
11/7/2020 9:00:00 AM 5.68 42.224 0.175 7.69 1.83 12.75
11/7/2020 9:15:00 AM 5.76 42.368 0.175 7.73 1.83 12.8
11/7/2020 9:30:00 AM 5.81 42.458 0.175 7.76 1.83 12.83
11/7/2020 9:45:00 AM 5.92 42.656 0.175 7.8 1.84 12.85
11/7/2020 10:00:00 AM 6.05 42.89 0.175 7.83 1.83 12.87
11/7/2020 10:15:00 AM 6.19 43.142 0.175 7.86 1.86 12.86
11/7/2020 10:30:00 AM 6.36 43.448 0.174 7.89 1.81 12.85
11/7/2020 10:45:00 AM 6.57 43.826 0.174 7.92 1.82 12.82
11/7/2020 11:00:00 AM 6.79 44.222 0.174 7.95 1.82 12.77
11/7/2020 11:15:00 AM 7.02 44.636 0.174 7.97 1.83 12.73
11/7/2020 11:30:00 AM 7.25 45.05 0.174 7.99 1.8 12.68
11/7/2020 11:45:00 AM 7.47 45.446 0.174 8.01 1.82 12.62
11/7/2020 12:00:00 PM 7.69 45.842 0.174 8.04 1.81 12.56
11/7/2020 12:15:00 PM 7.89 46.202 0.173 8.07 1.76 12.5
11/7/2020 12:30:00 PM 8.08 46.544 0.173 8.08 1.79 12.44
11/7/2020 12:45:00 PM 8.26 46.868 0.173 8.1 1.79 12.38
11/7/2020 1:00:00 PM 8.43 47.174 0.173 8.12 1.76 12.33
11/7/2020 1:15:00 PM 8.58 47.444 0.173 8.12 1.79 12.28
11/7/2020 1:30:00 PM 8.73 47.714 0.173 8.12 1.79 12.22
11/7/2020 1:45:00 PM 8.87 47.966 0.173 8.14 1.73 12.17
11/7/2020 2:00:00 PM 9.01 48.218 0.173 8.14 1.76 12.12
11/7/2020 2:15:00 PM 9.14 48.452 0.173 8.16 1.7 12.08
11/7/2020 2:30:00 PM 9.25 48.65 0.173 8.17 1.77 12.04
11/7/2020 2:45:00 PM 9.34 48.812 0.173 8.17 1.74 12.01
11/7/2020 3:00:00 PM 9.41 48.938 0.173 8.16 1.74 11.97
11/7/2020 3:15:00 PM 9.45 49.01 0.173 8.15 1.78 11.93
11/7/2020 3:30:00 PM 9.45 49.01 0.172 8.12 1.75 11.85
11/7/2020 3:45:00 PM 9.42 48.956 0.172 8.08 1.75 11.78
11/7/2020 4:00:00 PM 9.38 48.884 0.173 8.04 1.78 11.72
11/7/2020 4:15:00 PM 9.32 48.776 0.173 8 1.74 11.66
11/7/2020 4:30:00 PM 9.24 48.632 0.173 7.95 1.79 11.61
11/7/2020 4:45:00 PM 9.16 48.488 0.173 7.9 1.73 11.54
11/7/2020 5:00:00 PM 9.06 48.308 0.173 7.84 1.79 11.47
11/7/2020 5:15:00 PM 8.97 48.146 0.173 7.78 1.8 11.4
11/7/2020 5:30:00 PM 8.88 47.984 0.173 7.74 1.8 11.35
11/7/2020 5:45:00 PM 8.8 47.84 0.173 7.71 1.77 11.32
11/7/2020 6:00:00 PM 8.72 47.696 0.173 7.68 1.77 11.3
11/7/2020 6:15:00 PM 8.64 47.552 0.173 7.65 1.8 11.29
11/7/2020 6:30:00 PM 8.57 47.426 0.173 7.64 1.82 11.28
11/7/2020 6:45:00 PM 8.5 47.3 0.173 7.62 1.82 11.28
11/7/2020 7:00:00 PM 8.43 47.174 0.174 7.6 1.83 11.28
11/7/2020 7:15:00 PM 8.37 47.066 0.174 7.59 1.82 11.29
11/7/2020 7:30:00 PM 8.32 46.976 0.174 7.58 1.85 11.28
11/7/2020 7:45:00 PM 8.27 46.886 0.174 7.58 1.78 11.3
11/7/2020 8:00:00 PM 8.22 46.796 0.174 7.57 1.78 11.3
11/7/2020 8:15:00 PM 8.18 46.724 0.174 7.57 1.79 11.3
11/7/2020 8:30:00 PM 8.14 46.652 0.174 7.57 1.78 11.3
11/7/2020 8:45:00 PM 8.1 46.58 0.174 7.56 1.81 11.32
11/7/2020 9:00:00 PM 8.05 46.49 0.174 7.56 1.81 11.32
11/7/2020 9:15:00 PM 8.01 46.418 0.174 7.56 1.82 11.33
11/7/2020 9:30:00 PM 7.96 46.328 0.174 7.55 1.79 11.33
11/7/2020 9:45:00 PM 7.91 46.238 0.174 7.55 1.78 11.35
11/7/2020 10:00:00 PM 7.85 46.13 0.174 7.55 1.83 11.37
11/7/2020 10:15:00 PM 7.79 46.022 0.175 7.55 1.82 11.39
11/7/2020 10:30:00 PM 7.73 45.914 0.175 7.54 1.83 11.41
11/7/2020 10:45:00 PM 7.66 45.788 0.175 7.54 1.87 11.42
11/7/2020 11:00:00 PM 7.59 45.662 0.175 7.54 1.82 11.46
11/7/2020 11:15:00 PM 7.52 45.536 0.175 7.53 1.88 11.47
11/7/2020 11:30:00 PM 7.45 45.41 0.175 7.53 1.86 11.49
11/7/2020 11:45:00 PM 7.38 45.284 0.175 7.53 1.9 11.51
11/8/2020 12:00:00 AM 7.31 45.158 0.175 7.53 1.85 11.54
11/8/2020 12:15:00 AM 7.24 45.032 0.175 7.53 1.87 11.56
11/8/2020 12:30:00 AM 7.17 44.906 0.175 7.52 1.87 11.59
11/8/2020 12:45:00 AM 7.1 44.78 0.175 7.52 1.84 11.61
11/8/2020 1:00:00 AM 7.03 44.654 0.175 7.52 1.84 11.64
11/8/2020 1:15:00 AM 6.96 44.528 0.175 7.52 1.85 11.65
11/8/2020 1:30:00 AM 6.9 44.42 0.175 7.52 1.85 11.67
11/8/2020 1:45:00 AM 6.83 44.294 0.175 7.52 1.83 11.69
11/8/2020 2:00:00 AM 6.76 44.168 0.176 7.52 1.82 11.72
11/8/2020 2:15:00 AM 6.7 44.06 0.176 7.52 1.81 11.75
11/8/2020 2:30:00 AM 6.63 43.934 0.176 7.52 1.77 11.76
11/8/2020 2:45:00 AM 6.57 43.826 0.176 7.52 1.84 11.79
11/8/2020 3:00:00 AM 6.51 43.718 0.176 7.52 1.84 11.81
11/8/2020 3:15:00 AM 6.44 43.592 0.176 7.52 1.83 11.83
11/8/2020 3:30:00 AM 6.38 43.484 0.176 7.52 1.83 11.85
11/8/2020 3:45:00 AM 6.32 43.376 0.176 7.52 1.85 11.86
11/8/2020 4:00:00 AM 6.25 43.25 0.176 7.52 1.81 11.89
11/8/2020 4:15:00 AM 6.19 43.142 0.176 7.52 1.78 11.92
11/8/2020 4:30:00 AM 6.13 43.034 0.176 7.52 1.86 11.94
11/8/2020 4:45:00 AM 6.06 42.908 0.176 7.52 1.82 11.96
11/8/2020 5:00:00 AM 6 42.8 0.176 7.52 1.86 11.98
11/8/2020 5:15:00 AM 5.94 42.692 0.176 7.52 1.79 12
11/8/2020 5:30:00 AM 5.88 42.584 0.176 7.52 1.81 12.02
11/8/2020 5:45:00 AM 5.82 42.476 0.176 7.52 1.85 12.04
11/8/2020 6:00:00 AM 5.76 42.368 0.176 7.52 1.84 12.07
11/8/2020 6:15:00 AM 5.7 42.26 0.176 7.52 1.87 12.09
11/8/2020 6:30:00 AM 5.63 42.134 0.176 7.52 1.81 12.12
11/8/2020 6:45:00 AM 5.58 42.044 0.176 7.52 1.87 12.15
11/8/2020 7:00:00 AM 5.52 41.936 0.176 7.53 1.89 12.2
11/8/2020 7:15:00 AM 5.47 41.846 0.176 7.54 1.86 12.27
11/8/2020 7:30:00 AM 5.43 41.774 0.176 7.55 1.89 12.36
11/8/2020 7:45:00 AM 5.39 41.702 0.176 7.57 1.83 12.46
11/8/2020 8:00:00 AM 5.37 41.666 0.176 7.59 1.86 12.56
11/8/2020 8:15:00 AM 5.35 41.63 0.176 7.61 1.87 12.65
11/8/2020 8:30:00 AM 5.35 41.63 0.176 7.64 1.85 12.73
11/8/2020 8:45:00 AM 5.38 41.684 0.176 7.67 1.81 12.82
11/8/2020 9:00:00 AM 5.44 41.792 0.176 7.7 1.85 12.9
11/8/2020 9:15:00 AM 5.49 41.882 0.176 7.74 1.82 12.96
11/8/2020 9:30:00 AM 5.55 41.99 0.175 7.77 1.8 13
11/8/2020 9:45:00 AM 5.65 42.17 0.175 7.81 1.82 13.05
11/8/2020 10:00:00 AM 5.76 42.368 0.175 7.85 1.81 13.07
11/8/2020 10:15:00 AM 5.89 42.602 0.175 7.88 1.77 13.06
11/8/2020 10:30:00 AM 6.05 42.89 0.175 7.91 1.8 13.04
11/8/2020 10:45:00 AM 6.25 43.25 0.174 7.95 1.83 13.03
11/8/2020 11:00:00 AM 6.46 43.628 0.174 7.98 1.81 12.98
11/8/2020 11:15:00 AM 6.69 44.042 0.174 8.02 1.8 12.94
11/8/2020 11:30:00 AM 6.93 44.474 0.174 8.05 1.77 12.89
11/8/2020 11:45:00 AM 7.16 44.888 0.174 8.09 1.74 12.83
11/8/2020 12:00:00 PM 7.38 45.284 0.174 8.11 1.8 12.75
11/8/2020 12:15:00 PM 7.59 45.662 0.174 8.12 1.72 12.7
11/8/2020 12:30:00 PM 7.78 46.004 0.173 8.12 1.71 12.64
11/8/2020 12:45:00 PM 7.96 46.328 0.173 8.14 1.72 12.58
11/8/2020 1:00:00 PM 8.14 46.652 0.173 8.16 1.73 12.52
11/8/2020 1:15:00 PM 8.3 46.94 0.173 8.17 1.7 12.45
11/8/2020 1:30:00 PM 8.45 47.21 0.173 8.18 1.73 12.39
11/8/2020 1:45:00 PM 8.59 47.462 0.173 8.2 1.72 12.34
11/8/2020 2:00:00 PM 8.71 47.678 0.173 8.19 1.91 12.28
11/8/2020 2:15:00 PM 8.82 47.876 0.173 8.2 1.72 12.23
11/8/2020 2:30:00 PM 8.92 48.056 0.173 8.2 1.75 12.17
11/8/2020 2:45:00 PM 9 48.2 0.173 8.19 1.71 12.12
11/8/2020 3:00:00 PM 9.04 48.272 0.173 8.18 1.74 12.06
11/8/2020 3:15:00 PM 9.05 48.29 0.173 8.16 1.7 12.01
11/8/2020 3:30:00 PM 9.04 48.272 0.173 8.14 1.72 11.96
11/8/2020 3:45:00 PM 9.01 48.218 0.173 8.1 1.75 11.91
11/8/2020 4:00:00 PM 8.95 48.11 0.173 8.07 1.72 11.86
11/8/2020 4:15:00 PM 8.88 47.984 0.173 8.02 1.79 11.83
11/8/2020 4:30:00 PM 8.79 47.822 0.173 7.97 1.77 11.77
11/8/2020 4:45:00 PM 8.69 47.642 0.173 7.91 1.75 11.71
11/8/2020 5:00:00 PM 8.59 47.462 0.173 7.85 1.73 11.63
11/8/2020 5:15:00 PM 8.49 47.282 0.173 7.8 1.8 11.57
11/8/2020 5:30:00 PM 8.4 47.12 0.173 7.75 1.8 11.54
11/8/2020 5:45:00 PM 8.31 46.958 0.173 7.72 1.81 11.51
11/8/2020 6:00:00 PM 8.23 46.814 0.173 7.69 1.77 11.49
11/8/2020 6:15:00 PM 8.15 46.67 0.173 7.66 1.78 11.47
11/8/2020 6:30:00 PM 8.08 46.544 0.173 7.64 1.79 11.46
11/8/2020 6:45:00 PM 8.01 46.418 0.174 7.63 1.8 11.46
11/8/2020 7:00:00 PM 7.95 46.31 0.174 7.61 1.78 11.46
11/8/2020 7:15:00 PM 7.88 46.184 0.174 7.6 1.79 11.46
11/8/2020 7:30:00 PM 7.83 46.094 0.174 7.59 1.76 11.47
11/8/2020 7:45:00 PM 7.77 45.986 0.174 7.59 1.78 11.47
11/8/2020 8:00:00 PM 7.73 45.914 0.174 7.58 1.81 11.48
11/8/2020 8:15:00 PM 7.68 45.824 0.174 7.57 1.84 11.47
11/8/2020 8:30:00 PM 7.64 45.752 0.174 7.57 1.82 11.48
11/8/2020 8:45:00 PM 7.6 45.68 0.174 7.57 1.84 11.49
11/8/2020 9:00:00 PM 7.56 45.608 0.174 7.57 1.81 11.49
11/8/2020 9:15:00 PM 7.53 45.554 0.174 7.57 1.83 11.51
11/8/2020 9:30:00 PM 7.48 45.464 0.174 7.56 1.82 11.5
11/8/2020 9:45:00 PM 7.44 45.392 0.174 7.56 1.83 11.53
11/8/2020 10:00:00 PM 7.39 45.302 0.174 7.55 1.8 11.54
11/8/2020 10:15:00 PM 7.34 45.212 0.174 7.55 1.81 11.55
11/8/2020 10:30:00 PM 7.28 45.104 0.174 7.55 1.82 11.57
11/8/2020 10:45:00 PM 7.22 44.996 0.174 7.55 1.86 11.59
11/8/2020 11:00:00 PM 7.16 44.888 0.175 7.55 1.78 11.6
11/8/2020 11:15:00 PM 7.1 44.78 0.175 7.55 1.77 11.63
11/8/2020 11:30:00 PM 7.03 44.654 0.175 7.54 1.82 11.64
11/8/2020 11:45:00 PM 6.96 44.528 0.175 7.54 1.78 11.67
11/9/2020 12:00:00 AM 6.89 44.402 0.175 7.54 1.8 11.68
11/9/2020 12:15:00 AM 6.83 44.294 0.175 7.54 1.8 11.71
11/9/2020 12:30:00 AM 6.76 44.168 0.175 7.54 1.82 11.74
11/9/2020 12:45:00 AM 6.69 44.042 0.175 7.54 1.8 11.76
11/9/2020 1:00:00 AM 6.62 43.916 0.175 7.53 1.78 11.78
11/9/2020 1:15:00 AM 6.55 43.79 0.175 7.53 1.78 11.8
11/9/2020 1:30:00 AM 6.49 43.682 0.175 7.53 1.83 11.83
11/9/2020 1:45:00 AM 6.42 43.556 0.175 7.53 1.82 11.85
11/9/2020 2:00:00 AM 6.36 43.448 0.175 7.53 1.79 11.86
11/9/2020 2:15:00 AM 6.3 43.34 0.175 7.53 1.79 11.89
11/9/2020 2:30:00 AM 6.24 43.232 0.175 7.53 1.8 11.91
11/9/2020 2:45:00 AM 6.18 43.124 0.175 7.53 1.81 11.93
11/9/2020 3:00:00 AM 6.11 42.998 0.175 7.53 1.79 11.95
11/9/2020 3:15:00 AM 6.06 42.908 0.175 7.53 1.85 11.98
11/9/2020 3:30:00 AM 6 42.8 0.175 7.53 1.82 11.99
11/9/2020 3:45:00 AM 5.94 42.692 0.175 7.53 1.83 12.01
11/9/2020 4:00:00 AM 5.89 42.602 0.175 7.53 1.8 12.02
11/9/2020 4:15:00 AM 5.83 42.494 0.175 7.53 1.77 12.04
11/9/2020 4:30:00 AM 5.78 42.404 0.175 7.53 1.81 12.06
11/9/2020 4:45:00 AM 5.72 42.296 0.175 7.53 1.78 12.09
11/9/2020 5:00:00 AM 5.67 42.206 0.175 7.53 1.79 12.1
11/9/2020 5:15:00 AM 5.62 42.116 0.175 7.53 1.79 12.13
11/9/2020 5:30:00 AM 5.56 42.008 0.175 7.53 1.73 12.15
11/9/2020 5:45:00 AM 5.51 41.918 0.175 7.53 1.77 12.16
11/9/2020 6:00:00 AM 5.46 41.828 0.175 7.53 1.76 12.17
11/9/2020 6:15:00 AM 5.41 41.738 0.175 7.53 1.8 12.19
11/9/2020 6:30:00 AM 5.35 41.63 0.175 7.53 1.79 12.21
11/9/2020 6:45:00 AM 5.3 41.54 0.176 7.53 1.81 12.23
11/9/2020 7:00:00 AM 5.26 41.468 0.176 7.54 1.8 12.29
11/9/2020 7:15:00 AM 5.21 41.378 0.176 7.55 1.76 12.35
11/9/2020 7:30:00 AM 5.18 41.324 0.176 7.56 1.81 12.45
11/9/2020 7:45:00 AM 5.14 41.252 0.176 7.58 1.83 12.54
11/9/2020 8:00:00 AM 5.12 41.216 0.175 7.6 1.83 12.63
11/9/2020 8:15:00 AM 5.11 41.198 0.175 7.62 1.84 12.73
11/9/2020 8:30:00 AM 5.11 41.198 0.175 7.65 1.85 12.82
11/9/2020 8:45:00 AM 5.15 41.27 0.175 7.68 1.84 12.91
11/9/2020 9:00:00 AM 5.21 41.378 0.175 7.72 1.77 13
11/9/2020 9:15:00 AM 5.27 41.486 0.175 7.75 1.75 13.06
11/9/2020 9:30:00 AM 5.32 41.576 0.175 7.79 1.76 13.1
11/9/2020 9:45:00 AM 5.42 41.756 0.175 7.83 1.78 13.14
11/9/2020 10:00:00 AM 5.53 41.954 0.174 7.87 1.75 13.17
11/9/2020 10:15:00 AM 5.66 42.188 0.174 7.9 1.75 13.18
11/9/2020 10:30:00 AM 5.82 42.476 0.174 7.94 1.79 13.17
11/9/2020 10:45:00 AM 6.02 42.836 0.174 7.98 1.78 13.15
11/9/2020 11:00:00 AM 6.23 43.214 0.174 8.02 1.75 13.1
11/9/2020 11:15:00 AM 6.46 43.628 0.173 8.06 1.78 13.06
11/9/2020 11:30:00 AM 6.7 44.06 0.173 8.1 1.77 13.01
11/9/2020 11:45:00 AM 6.93 44.474 0.173 8.13 1.73 12.95
11/9/2020 12:00:00 PM 7.16 44.888 0.173 8.15 1.73 12.89
11/9/2020 12:15:00 PM 7.38 45.284 0.173 8.18 1.71 12.82
11/9/2020 12:30:00 PM 7.6 45.68 0.173 8.19 1.72 12.75
11/9/2020 12:45:00 PM 7.8 46.04 0.173 8.21 1.71 12.69
11/9/2020 1:00:00 PM 7.99 46.382 0.173 8.23 1.7 12.63
11/9/2020 1:15:00 PM 8.16 46.688 0.173 8.24 1.71 12.57
11/9/2020 1:30:00 PM 8.34 47.012 0.172 8.26 1.74 12.49
11/9/2020 1:45:00 PM 8.5 47.3 0.172 8.27 1.71 12.44
11/9/2020 2:00:00 PM 8.65 47.57 0.172 8.28 1.71 12.37
11/9/2020 2:15:00 PM 8.79 47.822 0.172 8.28 1.72 12.3
11/9/2020 2:30:00 PM 8.92 48.056 0.172 8.29 1.71 12.25
11/9/2020 2:45:00 PM 9.02 48.236 0.172 8.28 1.71 12.18
11/9/2020 3:00:00 PM 9.09 48.362 0.172 8.28 1.71 12.11
11/9/2020 3:15:00 PM 9.14 48.452 0.172 8.26 1.71 12.05
11/9/2020 3:30:00 PM 9.16 48.488 0.172 8.24 1.69 12
11/9/2020 3:45:00 PM 9.15 48.47 0.172 8.21 1.69 11.94
11/9/2020 4:00:00 PM 9.13 48.434 0.172 8.17 1.73 11.88
11/9/2020 4:15:00 PM 9.09 48.362 0.172 8.12 1.73 11.8
11/9/2020 4:30:00 PM 9.03 48.254 0.172 8.06 1.71 11.74
11/9/2020 4:45:00 PM 8.95 48.11 0.172 7.99 1.71 11.66
11/9/2020 5:00:00 PM 8.87 47.966 0.173 7.93 1.71 11.58
11/9/2020 5:15:00 PM 8.77 47.786 0.173 7.87 1.72 11.5
11/9/2020 5:30:00 PM 8.68 47.624 0.173 7.82 1.75 11.45
11/9/2020 5:45:00 PM 8.6 47.48 0.173 7.78 1.77 11.4
11/9/2020 6:00:00 PM 8.51 47.318 0.173 7.73 1.77 11.37
11/9/2020 6:15:00 PM 8.44 47.192 0.173 7.7 1.77 11.35
11/9/2020 6:30:00 PM 8.36 47.048 0.173 7.67 1.77 11.35
11/9/2020 6:45:00 PM 8.29 46.922 0.173 7.65 1.78 11.34
11/9/2020 7:00:00 PM 8.22 46.796 0.173 7.63 1.81 11.34
11/9/2020 7:15:00 PM 8.16 46.688 0.173 7.62 1.75 11.34
11/9/2020 7:30:00 PM 8.1 46.58 0.173 7.61 1.76 11.35
11/9/2020 7:45:00 PM 8.04 46.472 0.173 7.6 1.76 11.34
11/9/2020 8:00:00 PM 8 46.4 0.173 7.59 1.77 11.35
11/9/2020 8:15:00 PM 7.95 46.31 0.173 7.58 1.78 11.36
11/9/2020 8:30:00 PM 7.91 46.238 0.173 7.58 1.79 11.36
11/9/2020 8:45:00 PM 7.88 46.184 0.173 7.57 1.78 11.35
11/9/2020 9:00:00 PM 7.85 46.13 0.173 7.57 1.77 11.36
11/9/2020 9:15:00 PM 7.83 46.094 0.173 7.57 1.79 11.35
11/9/2020 9:30:00 PM 7.8 46.04 0.173 7.57 1.77 11.36
11/9/2020 9:45:00 PM 7.77 45.986 0.173 7.57 1.75 11.37
11/9/2020 10:00:00 PM 7.74 45.932 0.174 7.57 1.76 11.36
11/9/2020 10:15:00 PM 7.71 45.878 0.174 7.56 1.77 11.38
11/9/2020 10:30:00 PM 7.68 45.824 0.174 7.56 1.78 11.37
11/9/2020 10:45:00 PM 7.64 45.752 0.174 7.56 1.76 11.39
11/9/2020 11:00:00 PM 7.59 45.662 0.174 7.56 1.74 11.4
11/9/2020 11:15:00 PM 7.55 45.59 0.174 7.56 1.75 11.42
11/9/2020 11:30:00 PM 7.5 45.5 0.174 7.55 1.75 11.43
11/9/2020 11:45:00 PM 7.45 45.41 0.174 7.55 1.74 11.44
11/10/2020 12:00:00 AM 7.39 45.302 0.174 7.55 1.78 11.46
11/10/2020 12:15:00 AM 7.34 45.212 0.174 7.55 1.79 11.47
11/10/2020 12:30:00 AM 7.28 45.104 0.174 7.54 1.76 11.51
11/10/2020 12:45:00 AM 7.22 44.996 0.174 7.54 1.79 11.53
11/10/2020 1:00:00 AM 7.17 44.906 0.174 7.54 1.74 11.55
11/10/2020 1:15:00 AM 7.11 44.798 0.174 7.54 1.75 11.56
11/10/2020 1:30:00 AM 7.05 44.69 0.174 7.54 1.81 11.57
11/10/2020 1:45:00 AM 7 44.6 0.174 7.54 1.74 11.59
11/10/2020 2:00:00 AM 6.95 44.51 0.175 7.54 1.74 11.6
11/10/2020 2:15:00 AM 6.9 44.42 0.175 7.54 1.74 11.62
11/10/2020 2:30:00 AM 6.85 44.33 0.175 7.54 1.75 11.64
11/10/2020 2:45:00 AM 6.8 44.24 0.175 7.54 1.75 11.65
11/10/2020 3:00:00 AM 6.75 44.15 0.175 7.54 1.78 11.67
11/10/2020 3:15:00 AM 6.7 44.06 0.175 7.54 1.75 11.68
11/10/2020 3:30:00 AM 6.66 43.988 0.175 7.54 1.76 11.71
11/10/2020 3:45:00 AM 6.61 43.898 0.175 7.53 1.78 11.72
11/10/2020 4:00:00 AM 6.57 43.826 0.175 7.54 1.74 11.73
11/10/2020 4:15:00 AM 6.53 43.754 0.175 7.54 1.74 11.74
11/10/2020 4:30:00 AM 6.49 43.682 0.175 7.54 1.76 11.73
11/10/2020 4:45:00 AM 6.46 43.628 0.175 7.53 1.78 11.76
11/10/2020 5:00:00 AM 6.43 43.574 0.175 7.54 1.77 11.77
11/10/2020 5:15:00 AM 6.41 43.538 0.175 7.54 1.74 11.78
11/10/2020 5:30:00 AM 6.39 43.502 0.175 7.54 1.81 11.8
11/10/2020 5:45:00 AM 6.36 43.448 0.175 7.54 1.77 11.8
11/10/2020 6:00:00 AM 6.35 43.43 0.175 7.54 1.76 11.8
11/10/2020 6:15:00 AM 6.33 43.394 0.175 7.54 1.76 11.82
11/10/2020 6:30:00 AM 6.31 43.358 0.175 7.54 1.79 11.83
11/10/2020 6:45:00 AM 6.3 43.34 0.175 7.55 1.82 11.84
11/10/2020 7:00:00 AM 6.28 43.304 0.175 7.55 1.77 11.87
11/10/2020 7:15:00 AM 6.28 43.304 0.175 7.56 1.81 11.94
11/10/2020 7:30:00 AM 6.29 43.322 0.175 7.58 1.77 12.03
11/10/2020 7:45:00 AM 6.3 43.34 0.175 7.61 1.78 12.15
11/10/2020 8:00:00 AM 6.32 43.376 0.175 7.65 1.77 12.29
11/10/2020 8:15:00 AM 6.36 43.448 0.175 7.69 1.78 12.43
11/10/2020 8:30:00 AM 6.41 43.538 0.175 7.74 1.77 12.56
11/10/2020 8:45:00 AM 6.47 43.646 0.175 7.78 1.79 12.64
11/10/2020 9:00:00 AM 6.53 43.754 0.174 7.82 1.8 12.68
11/10/2020 9:15:00 AM 6.58 43.844 0.174 7.86 1.76 12.7
11/10/2020 9:30:00 AM 6.65 43.97 0.174 7.9 1.73 12.74
11/10/2020 9:45:00 AM 6.77 44.186 0.174 7.95 1.77 12.8
11/10/2020 10:00:00 AM 6.88 44.384 0.174 7.99 1.75 12.83
11/10/2020 10:15:00 AM 7 44.6 0.173 8.03 1.76 12.82
11/10/2020 10:30:00 AM 7.17 44.906 0.173 8.08 1.77 12.81
11/10/2020 10:45:00 AM 7.36 45.248 0.173 8.13 1.8 12.8
11/10/2020 11:00:00 AM 7.58 45.644 0.173 8.18 1.75 12.76
11/10/2020 11:15:00 AM 7.83 46.094 0.173 8.23 1.7 12.73
11/10/2020 11:30:00 AM 8.08 46.544 0.172 8.27 1.73 12.67
11/10/2020 11:45:00 AM 8.34 47.012 0.172 8.32 1.71 12.6
11/10/2020 12:00:00 PM 8.6 47.48 0.172 8.34 1.71 12.54
11/10/2020 12:15:00 PM 8.84 47.912 0.172 8.38 1.71 12.45
11/10/2020 12:30:00 PM 9.06 48.308 0.172 8.4 1.71 12.38
11/10/2020 12:45:00 PM 9.29 48.722 0.172 8.43 1.69 12.32
11/10/2020 1:00:00 PM 9.5 49.1 0.172 8.45 1.69 12.25
11/10/2020 1:15:00 PM 9.69 49.442 0.172 8.47 1.71 12.18
11/10/2020 1:30:00 PM 9.88 49.784 0.172 8.48 1.75 12.11
11/10/2020 1:45:00 PM 10.05 50.09 0.172 8.49 1.68 12.03
11/10/2020 2:00:00 PM 10.21 50.378 0.171 8.49 1.7 11.95
11/10/2020 2:15:00 PM 10.35 50.63 0.171 8.5 1.74 11.88
11/10/2020 2:30:00 PM 10.48 50.864 0.171 8.5 1.75 11.81
11/10/2020 2:45:00 PM 10.58 51.044 0.171 8.49 1.7 11.75
11/10/2020 3:00:00 PM 10.67 51.206 0.171 8.47 1.71 11.66
11/10/2020 3:15:00 PM 10.72 51.296 0.171 8.44 1.7 11.59
11/10/2020 3:30:00 PM 10.76 51.368 0.171 8.41 1.69 11.53
11/10/2020 3:45:00 PM 10.75 51.35 0.171 8.36 1.72 11.46
11/10/2020 4:00:00 PM 10.73 51.314 0.171 8.3 1.7 11.4
11/10/2020 4:15:00 PM 10.67 51.206 0.171 8.23 1.7 11.32
11/10/2020 4:30:00 PM 10.61 51.098 0.172 8.14 1.72 11.24
11/10/2020 4:45:00 PM 10.53 50.954 0.172 8.06 1.71 11.15
11/10/2020 5:00:00 PM 10.44 50.792 0.172 7.98 1.69 11.06
11/10/2020 5:15:00 PM 10.35 50.63 0.172 7.91 1.7 10.97
11/10/2020 5:30:00 PM 10.25 50.45 0.172 7.84 1.73 10.92
11/10/2020 5:45:00 PM 10.16 50.288 0.172 7.79 1.74 10.88
11/10/2020 6:00:00 PM 10.06 50.108 0.172 7.74 1.73 10.85
11/10/2020 6:15:00 PM 9.98 49.964 0.172 7.71 1.75 10.83
11/10/2020 6:30:00 PM 9.9 49.82 0.172 7.68 1.73 10.81
11/10/2020 6:45:00 PM 9.82 49.676 0.172 7.66 1.75 10.8
11/10/2020 7:00:00 PM 9.75 49.55 0.172 7.64 1.77 10.81
11/10/2020 7:15:00 PM 9.69 49.442 0.172 7.62 1.76 10.79
11/10/2020 7:30:00 PM 9.64 49.352 0.172 7.61 1.74 10.79
11/10/2020 7:45:00 PM 9.6 49.28 0.172 7.61 2.11 10.79
11/10/2020 8:00:00 PM 9.56 49.208 0.172 7.6 2.17 10.79
11/10/2020 8:15:00 PM 9.55 49.19 0.172 7.6 2.19 10.79
11/10/2020 8:30:00 PM 9.55 49.19 0.172 7.61 2.01 10.79
11/10/2020 8:45:00 PM 9.59 49.262 0.172 7.61 2.01 10.78
11/10/2020 9:00:00 PM 9.63 49.334 0.172 7.61 2.04 10.78
11/10/2020 9:15:00 PM 9.65 49.37 0.172 7.61 2.18 10.77
11/10/2020 9:30:00 PM 9.67 49.406 0.172 7.61 1.76 10.75
11/10/2020 9:45:00 PM 9.68 49.424 0.173 7.61 1.75 10.74
11/10/2020 10:00:00 PM 9.69 49.442 0.173 7.61 1.77 10.73
11/10/2020 10:15:00 PM 9.7 49.46 0.173 7.61 1.74 10.72
11/10/2020 10:30:00 PM 9.7 49.46 0.173 7.61 1.75 10.73
11/10/2020 10:45:00 PM 9.71 49.478 0.173 7.61 1.78 10.72
11/10/2020 11:00:00 PM 9.72 49.496 0.173 7.61 1.8 10.71
11/10/2020 11:15:00 PM 9.74 49.532 0.173 7.61 1.73 10.71
11/10/2020 11:30:00 PM 9.75 49.55 0.174 7.61 1.74 10.71
11/10/2020 11:45:00 PM 9.75 49.55 0.174 7.61 1.72 10.71
11/11/2020 12:00:00 AM 9.75 49.55 0.174 7.61 1.75 10.71
11/11/2020 12:15:00 AM 9.75 49.55 0.174 7.61 1.76 10.7
11/11/2020 12:30:00 AM 9.76 49.568 0.174 7.61 1.72 10.71
11/11/2020 12:45:00 AM 9.77 49.586 0.174 7.61 1.75 10.73
11/11/2020 1:00:00 AM 9.77 49.586 0.174 7.61 1.74 10.71
11/11/2020 1:15:00 AM 9.77 49.586 0.174 7.6 1.76 10.71
11/11/2020 1:30:00 AM 9.77 49.586 0.174 7.61 1.75 10.7
11/11/2020 1:45:00 AM 9.75 49.55 0.174 7.6 1.72 10.71
11/11/2020 2:00:00 AM 9.74 49.532 0.174 7.6 1.72 10.73
11/11/2020 2:15:00 AM 9.75 49.55 0.174 7.6 1.73 10.72
11/11/2020 2:30:00 AM 9.77 49.586 0.174 7.6 1.71 10.71
11/11/2020 2:45:00 AM 9.76 49.568 0.174 7.6 1.71 10.7
11/11/2020 3:00:00 AM 9.74 49.532 0.174 7.6 1.77 10.71
11/11/2020 3:15:00 AM 9.72 49.496 0.174 7.6 1.73 10.7
11/11/2020 3:30:00 AM 9.71 49.478 0.174 7.6 1.71 10.7
11/11/2020 3:45:00 AM 9.71 49.478 0.174 7.6 1.75 10.69
11/11/2020 4:00:00 AM 9.74 49.532 0.174 7.6 1.75 10.7
11/11/2020 4:15:00 AM 9.75 49.55 0.174 7.6 1.76 10.7
11/11/2020 4:30:00 AM 9.78 49.604 0.174 7.6 1.75 10.69
11/11/2020 4:45:00 AM 9.81 49.658 0.174 7.6 1.77 10.71
11/11/2020 5:00:00 AM 9.83 49.694 0.174 7.6 1.73 10.7
11/11/2020 5:15:00 AM 9.85 49.73 0.175 7.6 1.77 10.69
11/11/2020 5:30:00 AM 9.86 49.748 0.175 7.6 1.75 10.68
11/11/2020 5:45:00 AM 9.9 49.82 0.175 7.6 1.77 10.67
11/11/2020 6:00:00 AM 9.94 49.892 0.175 7.6 1.75 10.64
11/11/2020 6:15:00 AM 9.98 49.964 0.175 7.6 1.76 10.65
11/11/2020 6:30:00 AM 10.02 50.036 0.175 7.6 1.79 10.64
11/11/2020 6:45:00 AM 10.06 50.108 0.175 7.6 1.79 10.63
11/11/2020 7:00:00 AM 10.1 50.18 0.175 7.61 1.76 10.63
11/11/2020 7:15:00 AM 10.13 50.234 0.175 7.62 1.78 10.65
11/11/2020 7:30:00 AM 10.17 50.306 0.175 7.62 1.81 10.68
11/11/2020 7:45:00 AM 10.2 50.36 0.175 7.63 1.82 10.73
11/11/2020 8:00:00 AM 10.25 50.45 0.175 7.66 1.81 10.85
11/11/2020 8:15:00 AM 10.31 50.558 0.175 7.71 1.79 11.01
11/11/2020 8:30:00 AM 10.39 50.702 0.175 7.74 1.76 11.09
11/11/2020 8:45:00 AM 10.44 50.792 0.175 7.76 1.76 11.1
11/11/2020 9:00:00 AM 10.5 50.9 0.174 7.78 1.77 11.14
11/11/2020 9:15:00 AM 10.55 50.99 0.174 7.8 1.79 11.13
11/11/2020 9:30:00 AM 10.6 51.08 0.174 7.8 1.83 11.05
11/11/2020 9:45:00 AM 10.66 51.188 0.174 7.79 1.89 10.96
11/11/2020 10:00:00 AM 10.73 51.314 0.174 7.8 1.81 10.99
11/11/2020 10:15:00 AM 10.77 51.386 0.174 7.81 1.79 10.97
11/11/2020 10:30:00 AM 10.81 51.458 0.174 7.8 1.86 10.93
11/11/2020 10:45:00 AM 10.86 51.548 0.174 7.8 1.87 10.96
11/11/2020 11:00:00 AM 10.9 51.62 0.173 7.81 1.86 10.95
11/11/2020 11:15:00 AM 10.94 51.692 0.173 7.81 1.86 10.96
11/11/2020 11:30:00 AM 11 51.8 0.172 7.82 1.87 10.97
11/11/2020 11:45:00 AM 11.05 51.89 0.172 7.83 1.86 11
11/11/2020 12:00:00 PM 11.12 52.016 0.171 7.86 1.84 11.06
11/11/2020 12:15:00 PM 11.17 52.106 0.171 7.88 1.81 11.1
11/11/2020 12:30:00 PM 11.23 52.214 0.171 7.89 1.81 11.07
11/11/2020 12:45:00 PM 11.3 52.34 0.17 7.91 1.87 11.09
11/11/2020 1:00:00 PM 11.37 52.466 0.169 7.94 1.8 11.12
11/11/2020 1:15:00 PM 11.44 52.592 0.169 7.96 1.81 11.14
11/11/2020 1:30:00 PM 11.52 52.736 0.168 7.97 1.84 11.11
11/11/2020 1:45:00 PM 11.57 52.826 0.167 7.97 1.86 11.04
11/11/2020 2:00:00 PM 11.63 52.934 0.167 7.96 1.96 11.01
11/11/2020 2:15:00 PM 11.72 53.096 0.165 7.93 2 10.9
11/11/2020 2:30:00 PM 11.78 53.204 0.165 7.91 2.75 10.83
11/11/2020 2:45:00 PM 11.8 53.24 0.164 7.89 2.28 10.79
11/11/2020 3:00:00 PM 11.84 53.312 0.164 7.86 2.09 10.72
11/11/2020 3:15:00 PM 11.87 53.366 0.164 7.84 2.08 10.66
11/11/2020 3:30:00 PM 11.9 53.42 0.164 7.82 2.07 10.66
11/11/2020 3:45:00 PM 11.93 53.474 0.163 7.8 2.02 10.61
11/11/2020 4:00:00 PM 11.95 53.51 0.163 7.78 2.03 10.54
11/11/2020 4:15:00 PM 11.95 53.51 0.163 7.75 2.02 10.47
11/11/2020 4:30:00 PM 11.95 53.51 0.163 7.71 2.05 10.41
11/11/2020 4:45:00 PM 11.95 53.51 0.163 7.68 2.1 10.34
11/11/2020 5:00:00 PM 11.95 53.51 0.163 7.65 2.1 10.3
11/11/2020 5:15:00 PM 11.94 53.492 0.162 7.62 2.17 10.26
11/11/2020 5:30:00 PM 11.93 53.474 0.163 7.6 2.24 10.24
11/11/2020 5:45:00 PM 11.92 53.456 0.163 7.59 2.26 10.23
11/11/2020 6:00:00 PM 11.91 53.438 0.163 7.59 2.28 10.21
11/11/2020 6:15:00 PM 11.92 53.456 0.163 7.58 2.36 10.19
11/11/2020 6:30:00 PM 11.91 53.438 0.163 7.57 2.36 10.18
11/11/2020 6:45:00 PM 11.92 53.456 0.163 7.56 2.36 10.17
11/11/2020 7:00:00 PM 11.91 53.438 0.162 7.55 2.42 10.19
11/11/2020 7:15:00 PM 11.9 53.42 0.162 7.55 2.39 10.2
11/11/2020 7:30:00 PM 11.88 53.384 0.163 7.54 2.34 10.21
11/11/2020 7:45:00 PM 11.87 53.366 0.163 7.54 2.29 10.21
11/11/2020 8:00:00 PM 11.86 53.348 0.163 7.53 2.39 10.22
11/11/2020 8:15:00 PM 11.85 53.33 0.163 7.53 2.31 10.22
11/11/2020 8:30:00 PM 11.84 53.312 0.163 7.51 2.33 10.22
11/11/2020 8:45:00 PM 11.83 53.294 0.163 7.51 2.26 10.22
11/11/2020 9:00:00 PM 11.83 53.294 0.163 7.51 2.38 10.23
11/11/2020 9:15:00 PM 11.83 53.294 0.164 7.5 2.27 10.23
11/11/2020 9:30:00 PM 11.82 53.276 0.164 7.5 2.31 10.24
11/11/2020 9:45:00 PM 11.82 53.276 0.164 7.49 2.29 10.24
11/11/2020 10:00:00 PM 11.81 53.258 0.164 7.49 2.28 10.24
11/11/2020 10:15:00 PM 11.8 53.24 0.164 7.49 2.32 10.25
11/11/2020 10:30:00 PM 11.78 53.204 0.165 7.48 2.29 10.25
11/11/2020 10:45:00 PM 11.78 53.204 0.165 7.48 2.3 10.26
11/11/2020 11:00:00 PM 11.77 53.186 0.166 7.48 2.4 10.26
11/11/2020 11:15:00 PM 11.77 53.186 0.166 7.48 2.35 10.26
11/11/2020 11:30:00 PM 11.77 53.186 0.167 7.48 2.36 10.26
11/11/2020 11:45:00 PM 11.78 53.204 0.167 7.49 2.47 10.27
11/12/2020 12:00:00 AM 11.77 53.186 0.168 7.51 2.48 10.27
11/12/2020 12:15:00 AM 11.76 53.168 0.168 7.53 2.51 10.28
11/12/2020 12:30:00 AM 11.75 53.15 0.169 7.54 2.48 10.29
11/12/2020 12:45:00 AM 11.74 53.132 0.169 7.54 2.5 10.3
11/12/2020 1:00:00 AM 11.71 53.078 0.169 7.56 2.54 10.31
11/12/2020 1:15:00 AM 11.69 53.042 0.17 7.55 2.56 10.32
11/12/2020 1:30:00 AM 11.66 52.988 0.17 7.56 2.57 10.33
11/12/2020 1:45:00 AM 11.64 52.952 0.17 7.56 2.59 10.34
11/12/2020 2:00:00 AM 11.62 52.916 0.171 7.57 2.61 10.36
11/12/2020 2:15:00 AM 11.59 52.862 0.171 7.56 2.63 10.36
11/12/2020 2:30:00 AM 11.57 52.826 0.171 7.56 2.72 10.37
11/12/2020 2:45:00 AM 11.55 52.79 0.172 7.55 2.74 10.38
11/12/2020 3:00:00 AM 11.53 52.754 0.172 7.56 2.73 10.39
11/12/2020 3:15:00 AM 11.5 52.7 0.172 7.57 2.62 10.4
11/12/2020 3:30:00 AM 11.48 52.664 0.172 7.57 2.64 10.41
11/12/2020 3:45:00 AM 11.44 52.592 0.172 7.57 2.57 10.43
11/12/2020 4:00:00 AM 11.41 52.538 0.172 7.58 2.54 10.43
11/12/2020 4:15:00 AM 11.37 52.466 0.172 7.58 2.6 10.45
11/12/2020 4:30:00 AM 11.32 52.376 0.172 7.58 2.58 10.46
11/12/2020 4:45:00 AM 11.27 52.286 0.171 7.59 2.55 10.47
11/12/2020 5:00:00 AM 11.22 52.196 0.171 7.59 2.56 10.49
11/12/2020 5:15:00 AM 11.17 52.106 0.171 7.58 2.48 10.51
11/12/2020 5:30:00 AM 11.13 52.034 0.171 7.59 2.7 10.52
11/12/2020 5:45:00 AM 11.08 51.944 0.171 7.59 2.49 10.54
11/12/2020 6:00:00 AM 11.04 51.872 0.17 7.57 2.51 10.55
11/12/2020 6:15:00 AM 10.99 51.782 0.17 7.58 2.52 10.56
11/12/2020 6:30:00 AM 10.92 51.656 0.17 7.58 2.49 10.58
11/12/2020 6:45:00 AM 10.86 51.548 0.17 7.59 2.6 10.6
11/12/2020 7:00:00 AM 10.82 51.476 0.171 7.59 2.88 10.61
11/12/2020 7:15:00 AM 10.77 51.386 0.171 7.59 2.92 10.64
11/12/2020 7:30:00 AM 10.72 51.296 0.172 7.59 2.55 10.67
11/12/2020 7:45:00 AM 10.67 51.206 0.172 7.6 2.51 10.7
11/12/2020 8:00:00 AM 10.62 51.116 0.172 7.61 2.58 10.75
11/12/2020 8:15:00 AM 10.57 51.026 0.173 7.62 2.7 10.78
11/12/2020 8:30:00 AM 10.53 50.954 0.173 7.64 2.64 10.86
11/12/2020 8:45:00 AM 10.49 50.882 0.173 7.66 2.63 10.93
11/12/2020 9:00:00 AM 10.46 50.828 0.173 7.68 2.67 11.02
11/12/2020 9:15:00 AM 10.43 50.774 0.172 7.71 2.62 11.09
11/12/2020 9:30:00 AM 10.39 50.702 0.172 7.72 2.61 11.12
11/12/2020 9:45:00 AM 10.36 50.648 0.171 7.74 2.67 11.13
11/12/2020 10:00:00 AM 10.33 50.594 0.171 7.76 2.59 11.15
11/12/2020 10:15:00 AM 10.3 50.54 0.171 7.78 2.58 11.2
11/12/2020 10:30:00 AM 10.28 50.504 0.171 7.8 2.77 11.25
11/12/2020 10:45:00 AM 10.26 50.468 0.171 7.83 2.86 11.29
11/12/2020 11:00:00 AM 10.25 50.45 0.171 7.84 2.75 11.3
11/12/2020 11:15:00 AM 10.25 50.45 0.172 7.86 2.74 11.32
11/12/2020 11:30:00 AM 10.24 50.432 0.172 7.89 2.97 11.38
11/12/2020 11:45:00 AM 10.23 50.414 0.173 7.9 3.1 11.39
11/12/2020 12:00:00 PM 10.23 50.414 0.174 7.93 2.8 11.42
11/12/2020 12:15:00 PM 10.22 50.396 0.175 7.95 3 11.42
11/12/2020 12:30:00 PM 10.21 50.378 0.176 7.96 2.86 11.45
11/12/2020 12:45:00 PM 10.2 50.36 0.177 7.98 2.91 11.46
11/12/2020 1:00:00 PM 10.18 50.324 0.177 7.98 2.96 11.45
11/12/2020 1:15:00 PM 10.16 50.288 0.178 7.99 3.14 11.46
11/12/2020 1:30:00 PM 10.14 50.252 0.178 7.98 3.21 11.45
11/12/2020 1:45:00 PM 10.13 50.234 0.178 7.98 3.2 11.44
11/12/2020 2:00:00 PM 10.12 50.216 0.179 7.99 3.16 11.45
11/12/2020 2:15:00 PM 10.11 50.198 0.179 8 3.46 11.47
11/12/2020 2:30:00 PM 10.08 50.144 0.178 8.01 3.27 11.46
11/12/2020 2:45:00 PM 10.06 50.108 0.178 7.99 3.33 11.45
11/12/2020 3:00:00 PM 10.03 50.054 0.178 7.98 3.43 11.43
11/12/2020 3:15:00 PM 10 50 0.178 7.96 3.58 11.4
11/12/2020 3:30:00 PM 9.97 49.946 0.178 7.94 3.7 11.37
11/12/2020 3:45:00 PM 9.92 49.856 0.178 7.91 3.52 11.32
11/12/2020 4:00:00 PM 9.87 49.766 0.177 7.88 3.5 11.29
11/12/2020 4:15:00 PM 9.83 49.694 0.177 7.84 3.61 11.25
11/12/2020 4:30:00 PM 9.77 49.586 0.177 7.81 3.37 11.21
11/12/2020 4:45:00 PM 9.72 49.496 0.176 7.78 3.59 11.17
11/12/2020 5:00:00 PM 9.66 49.388 0.176 7.75 3.84 11.13
11/12/2020 5:15:00 PM 9.59 49.262 0.175 7.72 3.78 11.11
11/12/2020 5:30:00 PM 9.51 49.118 0.175 7.7 3.66 11.1
11/12/2020 5:45:00 PM 9.43 48.974 0.174 7.68 3.84 11.1
11/12/2020 6:00:00 PM 9.35 48.83 0.174 7.66 4.02 11.1
11/12/2020 6:15:00 PM 9.27 48.686 0.174 7.65 3.68 11.11
11/12/2020 6:30:00 PM 9.19 48.542 0.173 7.64 3.91 11.12
11/12/2020 6:45:00 PM 9.12 48.416 0.173 7.63 3.63 11.14
11/12/2020 7:00:00 PM 9.04 48.272 0.172 7.62 3.76 11.15
11/12/2020 7:15:00 PM 8.96 48.128 0.172 7.61 3.78 11.17
11/12/2020 7:30:00 PM 8.88 47.984 0.171 7.61 3.58 11.19
11/12/2020 7:45:00 PM 8.8 47.84 0.171 7.6 3.62 11.2
11/12/2020 8:00:00 PM 8.71 47.678 0.17 7.6 3.6 11.23
11/12/2020 8:15:00 PM 8.63 47.534 0.17 7.59 3.64 11.25
11/12/2020 8:30:00 PM 8.55 47.39 0.17 7.59 3.57 11.27
11/12/2020 8:45:00 PM 8.46 47.228 0.169 7.58 3.61 11.29
11/12/2020 9:00:00 PM 8.38 47.084 0.169 7.58 3.63 11.31
11/12/2020 9:15:00 PM 8.3 46.94 0.169 7.58 3.48 11.34
11/12/2020 9:30:00 PM 8.21 46.778 0.169 7.57 3.54 11.36
11/12/2020 9:45:00 PM 8.13 46.634 0.168 7.58 3.42 11.38
11/12/2020 10:00:00 PM 8.06 46.508 0.168 7.57 3.41 11.41
11/12/2020 10:15:00 PM 7.98 46.364 0.168 7.57 3.56 11.43
11/12/2020 10:30:00 PM 7.9 46.22 0.168 7.57 3.45 11.45
11/12/2020 10:45:00 PM 7.83 46.094 0.167 7.57 3.46 11.47
11/12/2020 11:00:00 PM 7.75 45.95 0.167 7.57 3.44 11.49
11/12/2020 11:15:00 PM 7.68 45.824 0.167 7.57 3.43 11.52
11/12/2020 11:30:00 PM 7.61 45.698 0.167 7.57 3.39 11.53
11/12/2020 11:45:00 PM 7.55 45.59 0.167 7.57 3.48 11.55
11/13/2020 12:00:00 AM 7.48 45.464 0.166 7.57 3.51 11.57
11/13/2020 12:15:00 AM 7.42 45.356 0.166 7.57 3.45 11.59
11/13/2020 12:30:00 AM 7.36 45.248 0.166 7.57 3.42 11.61
11/13/2020 12:45:00 AM 7.3 45.14 0.166 7.57 3.38 11.63
11/13/2020 1:00:00 AM 7.24 45.032 0.166 7.57 3.36 11.65
11/13/2020 1:15:00 AM 7.19 44.942 0.166 7.57 3.42 11.66
11/13/2020 1:30:00 AM 7.13 44.834 0.166 7.57 3.4 11.67
11/13/2020 1:45:00 AM 7.08 44.744 0.166 7.57 3.33 11.69
11/13/2020 2:00:00 AM 7.03 44.654 0.166 7.57 3.4 11.7
11/13/2020 2:15:00 AM 6.97 44.546 0.166 7.57 3.31 11.72
11/13/2020 2:30:00 AM 6.93 44.474 0.166 7.57 3.29 11.73
11/13/2020 2:45:00 AM 6.87 44.366 0.166 7.57 3.3 11.75
11/13/2020 3:00:00 AM 6.83 44.294 0.166 7.57 3.37 11.77
11/13/2020 3:15:00 AM 6.79 44.222 0.166 7.57 3.32 11.78
11/13/2020 3:30:00 AM 6.75 44.15 0.166 7.57 3.59 11.79
11/13/2020 3:45:00 AM 6.71 44.078 0.166 7.57 3.31 11.81
11/13/2020 4:00:00 AM 6.67 44.006 0.166 7.57 3.37 11.83
11/13/2020 4:15:00 AM 6.64 43.952 0.166 7.57 3.19 11.84
11/13/2020 4:30:00 AM 6.61 43.898 0.166 7.57 3.29 11.84
11/13/2020 4:45:00 AM 6.58 43.844 0.167 7.57 3.33 11.85
11/13/2020 5:00:00 AM 6.55 43.79 0.167 7.57 3.28 11.86
11/13/2020 5:15:00 AM 6.53 43.754 0.167 7.57 3.26 11.87
11/13/2020 5:30:00 AM 6.51 43.718 0.167 7.58 3.26 11.88
11/13/2020 5:45:00 AM 6.49 43.682 0.168 7.58 3.27 11.88
11/13/2020 6:00:00 AM 6.47 43.646 0.168 7.57 3.32 11.88
11/13/2020 6:15:00 AM 6.45 43.61 0.168 7.58 3.29 11.89
11/13/2020 6:30:00 AM 6.44 43.592 0.169 7.57 3.39 11.89
11/13/2020 6:45:00 AM 6.43 43.574 0.169 7.58 3.47 11.89
11/13/2020 7:00:00 AM 6.42 43.556 0.169 7.57 3.43 11.9
11/13/2020 7:15:00 AM 6.41 43.538 0.17 7.57 3.31 11.92
11/13/2020 7:30:00 AM 6.4 43.52 0.17 7.58 3.29 11.93
11/13/2020 7:45:00 AM 6.4 43.52 0.171 7.59 3.32 11.96
11/13/2020 8:00:00 AM 6.4 43.52 0.171 7.61 3.42 12
11/13/2020 8:15:00 AM 6.4 43.52 0.172 7.61 3.29 12.04
11/13/2020 8:30:00 AM 6.42 43.556 0.172 7.63 3.25 12.1
11/13/2020 8:45:00 AM 6.45 43.61 0.172 7.67 3.22 12.21
11/13/2020 9:00:00 AM 6.5 43.7 0.173 7.71 3.21 12.27
11/13/2020 9:15:00 AM 6.56 43.808 0.173 7.76 3.23 12.35
11/13/2020 9:30:00 AM 6.62 43.916 0.173 7.79 3.2 12.37